<?xml version="1.0" encoding="UTF-8" standalone="no" ?>
<gpx xmlns="http://www.topografix.com/GPX/1/1" xmlns:xsi="http://www.w3.org/2001/XMLSchema-instance" xsi:schemaLocation="http://www.topografix.com/GPX/1/1 http://www.topografix.com/GPX/1/1/gpx.xsd" version="1.1" creator="VisuGPX - https://www.visugpx.com">
  <metadata>
    <name>Bau trauqua (Mimet)</name>
    <desc><![CDATA[pour Gransrandonnée par JPrando]]></desc>
  </metadata>
  <trk>
    <name><![CDATA[Bau trauqua Grans]]></name>
    <trkseg>
      <trkpt lat="43.4108" lon="5.49076">
        <ele>518.28784179688</ele>
        <time>2023-09-27T07:31:04Z</time>
      </trkpt>
      <trkpt lat="43.41079" lon="5.49074">
        <ele>518.28784179688</ele>
        <time>2023-09-27T07:31:06Z</time>
      </trkpt>
      <trkpt lat="43.41078" lon="5.49073">
        <ele>517.80725097656</ele>
        <time>2023-09-27T07:31:07Z</time>
      </trkpt>
      <trkpt lat="43.41078" lon="5.49073">
        <ele>518.28784179688</ele>
        <time>2023-09-27T07:31:08Z</time>
      </trkpt>
      <trkpt lat="43.41075" lon="5.49068">
        <ele>522.13317871094</ele>
        <time>2023-09-27T07:31:13Z</time>
      </trkpt>
      <trkpt lat="43.41071" lon="5.49063">
        <ele>525.01721191406</ele>
        <time>2023-09-27T07:31:20Z</time>
      </trkpt>
      <trkpt lat="43.41066" lon="5.49057">
        <ele>527.90100097656</ele>
        <time>2023-09-27T07:31:29Z</time>
      </trkpt>
      <trkpt lat="43.41065" lon="5.49051">
        <ele>531.26574707031</ele>
        <time>2023-09-27T07:31:38Z</time>
      </trkpt>
      <trkpt lat="43.41061" lon="5.49047">
        <ele>534.63037109375</ele>
        <time>2023-09-27T07:31:50Z</time>
      </trkpt>
      <trkpt lat="43.4105" lon="5.49035">
        <ele>537.51428222656</ele>
        <time>2023-09-27T07:32:00Z</time>
      </trkpt>
      <trkpt lat="43.41048" lon="5.49031">
        <ele>538.47570800781</ele>
        <time>2023-09-27T07:32:14Z</time>
      </trkpt>
      <trkpt lat="43.41043" lon="5.49037">
        <ele>537.99499511719</ele>
        <time>2023-09-27T07:32:50Z</time>
      </trkpt>
      <trkpt lat="43.41043" lon="5.49038">
        <ele>538.47570800781</ele>
        <time>2023-09-27T07:33:08Z</time>
      </trkpt>
      <trkpt lat="43.41038" lon="5.49025">
        <ele>538.47570800781</ele>
        <time>2023-09-27T07:33:26Z</time>
      </trkpt>
      <trkpt lat="43.41029" lon="5.49006">
        <ele>539.43688964844</ele>
        <time>2023-09-27T07:33:45Z</time>
      </trkpt>
      <trkpt lat="43.41023" lon="5.48973">
        <ele>540.87890625</ele>
        <time>2023-09-27T07:34:07Z</time>
      </trkpt>
      <trkpt lat="43.41019" lon="5.48961">
        <ele>541.84020996094</ele>
        <time>2023-09-27T07:34:16Z</time>
      </trkpt>
      <trkpt lat="43.41016" lon="5.48957">
        <ele>542.80151367188</ele>
        <time>2023-09-27T07:34:20Z</time>
      </trkpt>
      <trkpt lat="43.41009" lon="5.48947">
        <ele>543.28210449219</ele>
        <time>2023-09-27T07:34:33Z</time>
      </trkpt>
      <trkpt lat="43.41006" lon="5.48941">
        <ele>543.76281738281</ele>
        <time>2023-09-27T07:34:39Z</time>
      </trkpt>
      <trkpt lat="43.41004" lon="5.48938">
        <ele>544.24365234375</ele>
        <time>2023-09-27T07:34:41Z</time>
      </trkpt>
      <trkpt lat="43.41002" lon="5.48934">
        <ele>544.24365234375</ele>
        <time>2023-09-27T07:34:43Z</time>
      </trkpt>
      <trkpt lat="43.41" lon="5.48928">
        <ele>544.72424316406</ele>
        <time>2023-09-27T07:34:47Z</time>
      </trkpt>
      <trkpt lat="43.41" lon="5.48922">
        <ele>544.72424316406</ele>
        <time>2023-09-27T07:34:51Z</time>
      </trkpt>
      <trkpt lat="43.40996" lon="5.48917">
        <ele>545.20483398438</ele>
        <time>2023-09-27T07:34:56Z</time>
      </trkpt>
      <trkpt lat="43.40993" lon="5.48898">
        <ele>546.16625976562</ele>
        <time>2023-09-27T07:35:10Z</time>
      </trkpt>
      <trkpt lat="43.40993" lon="5.4889">
        <ele>546.64685058594</ele>
        <time>2023-09-27T07:35:15Z</time>
      </trkpt>
      <trkpt lat="43.4099" lon="5.48882">
        <ele>546.64685058594</ele>
        <time>2023-09-27T07:35:21Z</time>
      </trkpt>
      <trkpt lat="43.40988" lon="5.48872">
        <ele>548.0888671875</ele>
        <time>2023-09-27T07:35:30Z</time>
      </trkpt>
      <trkpt lat="43.40988" lon="5.48869">
        <ele>547.60815429688</ele>
        <time>2023-09-27T07:35:32Z</time>
      </trkpt>
      <trkpt lat="43.40981" lon="5.48851">
        <ele>549.05004882812</ele>
        <time>2023-09-27T07:35:45Z</time>
      </trkpt>
      <trkpt lat="43.40971" lon="5.48833">
        <ele>550.97265625</ele>
        <time>2023-09-27T07:36:01Z</time>
      </trkpt>
      <trkpt lat="43.40969" lon="5.4883">
        <ele>551.45336914062</ele>
        <time>2023-09-27T07:36:04Z</time>
      </trkpt>
      <trkpt lat="43.40965" lon="5.48825">
        <ele>551.93408203125</ele>
        <time>2023-09-27T07:36:08Z</time>
      </trkpt>
      <trkpt lat="43.40963" lon="5.4882">
        <ele>552.41455078125</ele>
        <time>2023-09-27T07:36:12Z</time>
      </trkpt>
      <trkpt lat="43.40959" lon="5.48782">
        <ele>554.81787109375</ele>
        <time>2023-09-27T07:36:35Z</time>
      </trkpt>
      <trkpt lat="43.40954" lon="5.48744">
        <ele>557.22143554688</ele>
        <time>2023-09-27T07:37:00Z</time>
      </trkpt>
      <trkpt lat="43.40942" lon="5.48719">
        <ele>559.62475585938</ele>
        <time>2023-09-27T07:37:20Z</time>
      </trkpt>
      <trkpt lat="43.40938" lon="5.48715">
        <ele>560.5859375</ele>
        <time>2023-09-27T07:37:25Z</time>
      </trkpt>
      <trkpt lat="43.40933" lon="5.48678">
        <ele>562.50854492188</ele>
        <time>2023-09-27T07:37:49Z</time>
      </trkpt>
      <trkpt lat="43.4093" lon="5.48654">
        <ele>564.91186523438</ele>
        <time>2023-09-27T07:38:06Z</time>
      </trkpt>
      <trkpt lat="43.40918" lon="5.48621">
        <ele>567.31518554688</ele>
        <time>2023-09-27T07:38:31Z</time>
      </trkpt>
      <trkpt lat="43.40911" lon="5.48597">
        <ele>568.75708007812</ele>
        <time>2023-09-27T07:38:49Z</time>
      </trkpt>
      <trkpt lat="43.40908" lon="5.48569">
        <ele>570.6796875</ele>
        <time>2023-09-27T07:39:07Z</time>
      </trkpt>
      <trkpt lat="43.40908" lon="5.48551">
        <ele>570.6796875</ele>
        <time>2023-09-27T07:39:26Z</time>
      </trkpt>
      <trkpt lat="43.40907" lon="5.48552">
        <ele>570.6796875</ele>
        <time>2023-09-27T07:39:51Z</time>
      </trkpt>
      <trkpt lat="43.40907" lon="5.48551">
        <ele>571.16040039062</ele>
        <time>2023-09-27T07:40:17Z</time>
      </trkpt>
      <trkpt lat="43.40907" lon="5.48551">
        <ele>570.6796875</ele>
        <time>2023-09-27T07:40:34Z</time>
      </trkpt>
      <trkpt lat="43.40907" lon="5.48551">
        <ele>570.6796875</ele>
        <time>2023-09-27T07:41:06Z</time>
      </trkpt>
      <trkpt lat="43.40906" lon="5.48548">
        <ele>570.6796875</ele>
        <time>2023-09-27T07:41:09Z</time>
      </trkpt>
      <trkpt lat="43.40903" lon="5.48544">
        <ele>570.6796875</ele>
        <time>2023-09-27T07:41:14Z</time>
      </trkpt>
      <trkpt lat="43.40884" lon="5.48526">
        <ele>571.64086914062</ele>
        <time>2023-09-27T07:41:33Z</time>
      </trkpt>
      <trkpt lat="43.40878" lon="5.4851">
        <ele>572.6025390625</ele>
        <time>2023-09-27T07:41:45Z</time>
      </trkpt>
      <trkpt lat="43.40869" lon="5.48483">
        <ele>575.005859375</ele>
        <time>2023-09-27T07:42:06Z</time>
      </trkpt>
      <trkpt lat="43.40863" lon="5.4846">
        <ele>576.92846679688</ele>
        <time>2023-09-27T07:42:24Z</time>
      </trkpt>
      <trkpt lat="43.40857" lon="5.48437">
        <ele>579.81225585938</ele>
        <time>2023-09-27T07:42:43Z</time>
      </trkpt>
      <trkpt lat="43.40851" lon="5.4841">
        <ele>582.6962890625</ele>
        <time>2023-09-27T07:43:04Z</time>
      </trkpt>
      <trkpt lat="43.40848" lon="5.48387">
        <ele>585.580078125</ele>
        <time>2023-09-27T07:43:25Z</time>
      </trkpt>
      <trkpt lat="43.40842" lon="5.48362">
        <ele>588.46435546875</ele>
        <time>2023-09-27T07:43:47Z</time>
      </trkpt>
      <trkpt lat="43.40838" lon="5.48357">
        <ele>589.90625</ele>
        <time>2023-09-27T07:43:53Z</time>
      </trkpt>
      <trkpt lat="43.40824" lon="5.48356">
        <ele>589.90625</ele>
        <time>2023-09-27T07:44:14Z</time>
      </trkpt>
      <trkpt lat="43.40826" lon="5.48355">
        <ele>589.42553710938</ele>
        <time>2023-09-27T07:44:38Z</time>
      </trkpt>
      <trkpt lat="43.40825" lon="5.48355">
        <ele>589.42553710938</ele>
        <time>2023-09-27T07:44:58Z</time>
      </trkpt>
      <trkpt lat="43.40826" lon="5.48356">
        <ele>589.42553710938</ele>
        <time>2023-09-27T07:45:11Z</time>
      </trkpt>
      <trkpt lat="43.40826" lon="5.48388">
        <ele>587.02197265625</ele>
        <time>2023-09-27T07:45:34Z</time>
      </trkpt>
      <trkpt lat="43.40825" lon="5.48404">
        <ele>588.46435546875</ele>
        <time>2023-09-27T07:45:47Z</time>
      </trkpt>
      <trkpt lat="43.40824" lon="5.48433">
        <ele>591.34814453125</ele>
        <time>2023-09-27T07:46:10Z</time>
      </trkpt>
      <trkpt lat="43.40824" lon="5.48437">
        <ele>592.3095703125</ele>
        <time>2023-09-27T07:46:13Z</time>
      </trkpt>
      <trkpt lat="43.40823" lon="5.48463">
        <ele>595.193359375</ele>
        <time>2023-09-27T07:46:32Z</time>
      </trkpt>
      <trkpt lat="43.40824" lon="5.48489">
        <ele>597.11596679688</ele>
        <time>2023-09-27T07:46:50Z</time>
      </trkpt>
      <trkpt lat="43.40822" lon="5.48512">
        <ele>600</ele>
        <time>2023-09-27T07:47:09Z</time>
      </trkpt>
      <trkpt lat="43.40818" lon="5.48531">
        <ele>602.8837890625</ele>
        <time>2023-09-27T07:47:26Z</time>
      </trkpt>
      <trkpt lat="43.40821" lon="5.48552">
        <ele>605.28735351562</ele>
        <time>2023-09-27T07:47:45Z</time>
      </trkpt>
      <trkpt lat="43.40826" lon="5.48568">
        <ele>608.17138671875</ele>
        <time>2023-09-27T07:48:02Z</time>
      </trkpt>
      <trkpt lat="43.40827" lon="5.48604">
        <ele>610.57446289062</ele>
        <time>2023-09-27T07:48:32Z</time>
      </trkpt>
      <trkpt lat="43.40831" lon="5.48631">
        <ele>613.93896484375</ele>
        <time>2023-09-27T07:48:56Z</time>
      </trkpt>
      <trkpt lat="43.40833" lon="5.48649">
        <ele>616.82299804688</ele>
        <time>2023-09-27T07:49:18Z</time>
      </trkpt>
      <trkpt lat="43.40833" lon="5.48659">
        <ele>617.7841796875</ele>
        <time>2023-09-27T07:49:33Z</time>
      </trkpt>
      <trkpt lat="43.40832" lon="5.4866">
        <ele>618.26489257812</ele>
        <time>2023-09-27T07:49:50Z</time>
      </trkpt>
      <trkpt lat="43.40834" lon="5.48664">
        <ele>619.70703125</ele>
        <time>2023-09-27T07:50:16Z</time>
      </trkpt>
      <trkpt lat="43.40835" lon="5.48665">
        <ele>619.22631835938</ele>
        <time>2023-09-27T07:50:47Z</time>
      </trkpt>
      <trkpt lat="43.40833" lon="5.48683">
        <ele>622.59106445312</ele>
        <time>2023-09-27T07:51:03Z</time>
      </trkpt>
      <trkpt lat="43.40834" lon="5.48697">
        <ele>624.99438476562</ele>
        <time>2023-09-27T07:51:15Z</time>
      </trkpt>
      <trkpt lat="43.40833" lon="5.48704">
        <ele>625.95556640625</ele>
        <time>2023-09-27T07:51:20Z</time>
      </trkpt>
      <trkpt lat="43.40831" lon="5.48719">
        <ele>630.28149414062</ele>
        <time>2023-09-27T07:51:31Z</time>
      </trkpt>
      <trkpt lat="43.40832" lon="5.48721">
        <ele>630.28149414062</ele>
        <time>2023-09-27T07:51:33Z</time>
      </trkpt>
      <trkpt lat="43.40828" lon="5.48733">
        <ele>633.16528320312</ele>
        <time>2023-09-27T07:51:42Z</time>
      </trkpt>
      <trkpt lat="43.40823" lon="5.48741">
        <ele>635.08813476562</ele>
        <time>2023-09-27T07:51:59Z</time>
      </trkpt>
      <trkpt lat="43.4082" lon="5.48742">
        <ele>635.56860351562</ele>
        <time>2023-09-27T07:52:14Z</time>
      </trkpt>
      <trkpt lat="43.40819" lon="5.48743">
        <ele>635.08813476562</ele>
        <time>2023-09-27T07:52:34Z</time>
      </trkpt>
      <trkpt lat="43.40819" lon="5.48743">
        <ele>635.56860351562</ele>
        <time>2023-09-27T07:53:07Z</time>
      </trkpt>
      <trkpt lat="43.40818" lon="5.48748">
        <ele>637.49145507812</ele>
        <time>2023-09-27T07:53:22Z</time>
      </trkpt>
      <trkpt lat="43.40817" lon="5.4875">
        <ele>638.93359375</ele>
        <time>2023-09-27T07:53:28Z</time>
      </trkpt>
      <trkpt lat="43.40816" lon="5.48753">
        <ele>640.37548828125</ele>
        <time>2023-09-27T07:53:32Z</time>
      </trkpt>
      <trkpt lat="43.40818" lon="5.48758">
        <ele>640.85595703125</ele>
        <time>2023-09-27T07:53:50Z</time>
      </trkpt>
      <trkpt lat="43.40819" lon="5.4876">
        <ele>642.77880859375</ele>
        <time>2023-09-27T07:54:03Z</time>
      </trkpt>
      <trkpt lat="43.4082" lon="5.48768">
        <ele>644.220703125</ele>
        <time>2023-09-27T07:54:16Z</time>
      </trkpt>
      <trkpt lat="43.40818" lon="5.48772">
        <ele>644.220703125</ele>
        <time>2023-09-27T07:54:29Z</time>
      </trkpt>
      <trkpt lat="43.40818" lon="5.48778">
        <ele>645.66259765625</ele>
        <time>2023-09-27T07:54:49Z</time>
      </trkpt>
      <trkpt lat="43.40818" lon="5.48777">
        <ele>646.14331054688</ele>
        <time>2023-09-27T07:55:09Z</time>
      </trkpt>
      <trkpt lat="43.40818" lon="5.48779">
        <ele>645.66259765625</ele>
        <time>2023-09-27T07:55:24Z</time>
      </trkpt>
      <trkpt lat="43.40818" lon="5.48783">
        <ele>648.06591796875</ele>
        <time>2023-09-27T07:55:40Z</time>
      </trkpt>
      <trkpt lat="43.40816" lon="5.48787">
        <ele>649.02709960938</ele>
        <time>2023-09-27T07:55:52Z</time>
      </trkpt>
      <trkpt lat="43.40816" lon="5.48793">
        <ele>649.5078125</ele>
        <time>2023-09-27T07:56:05Z</time>
      </trkpt>
      <trkpt lat="43.40819" lon="5.48798">
        <ele>651.9111328125</ele>
        <time>2023-09-27T07:56:21Z</time>
      </trkpt>
      <trkpt lat="43.4082" lon="5.48803">
        <ele>653.833984375</ele>
        <time>2023-09-27T07:56:33Z</time>
      </trkpt>
      <trkpt lat="43.4082" lon="5.48809">
        <ele>655.27587890625</ele>
        <time>2023-09-27T07:56:45Z</time>
      </trkpt>
      <trkpt lat="43.40822" lon="5.48815">
        <ele>657.67919921875</ele>
        <time>2023-09-27T07:56:58Z</time>
      </trkpt>
      <trkpt lat="43.40822" lon="5.48823">
        <ele>659.60180664062</ele>
        <time>2023-09-27T07:57:13Z</time>
      </trkpt>
      <trkpt lat="43.40824" lon="5.48824">
        <ele>660.08227539062</ele>
        <time>2023-09-27T07:57:28Z</time>
      </trkpt>
      <trkpt lat="43.40823" lon="5.48827">
        <ele>660.08227539062</ele>
        <time>2023-09-27T07:57:49Z</time>
      </trkpt>
      <trkpt lat="43.40822" lon="5.48828">
        <ele>661.04370117188</ele>
        <time>2023-09-27T07:58:58Z</time>
      </trkpt>
      <trkpt lat="43.40822" lon="5.48828">
        <ele>660.56298828125</ele>
        <time>2023-09-27T08:00:11Z</time>
      </trkpt>
      <trkpt lat="43.40821" lon="5.4883">
        <ele>661.04370117188</ele>
        <time>2023-09-27T08:00:39Z</time>
      </trkpt>
      <trkpt lat="43.4082" lon="5.48834">
        <ele>662.00512695312</ele>
        <time>2023-09-27T08:00:59Z</time>
      </trkpt>
      <trkpt lat="43.40817" lon="5.48844">
        <ele>661.5244140625</ele>
        <time>2023-09-27T08:01:11Z</time>
      </trkpt>
      <trkpt lat="43.40819" lon="5.48854">
        <ele>665.36962890625</ele>
        <time>2023-09-27T08:01:24Z</time>
      </trkpt>
      <trkpt lat="43.40818" lon="5.48855">
        <ele>665.36962890625</ele>
        <time>2023-09-27T08:01:25Z</time>
      </trkpt>
      <trkpt lat="43.40816" lon="5.48869">
        <ele>666.8115234375</ele>
        <time>2023-09-27T08:01:40Z</time>
      </trkpt>
      <trkpt lat="43.40817" lon="5.48872">
        <ele>668.734375</ele>
        <time>2023-09-27T08:01:46Z</time>
      </trkpt>
      <trkpt lat="43.40818" lon="5.48884">
        <ele>672.09887695312</ele>
        <time>2023-09-27T08:02:01Z</time>
      </trkpt>
      <trkpt lat="43.40816" lon="5.48895">
        <ele>673.541015625</ele>
        <time>2023-09-27T08:02:14Z</time>
      </trkpt>
      <trkpt lat="43.40814" lon="5.4891">
        <ele>675.94409179688</ele>
        <time>2023-09-27T08:02:31Z</time>
      </trkpt>
      <trkpt lat="43.40812" lon="5.48924">
        <ele>675.94409179688</ele>
        <time>2023-09-27T08:02:46Z</time>
      </trkpt>
      <trkpt lat="43.40812" lon="5.48934">
        <ele>679.30859375</ele>
        <time>2023-09-27T08:03:01Z</time>
      </trkpt>
      <trkpt lat="43.40814" lon="5.48945">
        <ele>682.19262695312</ele>
        <time>2023-09-27T08:03:18Z</time>
      </trkpt>
      <trkpt lat="43.40814" lon="5.48952">
        <ele>684.11547851562</ele>
        <time>2023-09-27T08:03:31Z</time>
      </trkpt>
      <trkpt lat="43.40813" lon="5.48956">
        <ele>684.11547851562</ele>
        <time>2023-09-27T08:03:45Z</time>
      </trkpt>
      <trkpt lat="43.40813" lon="5.48965">
        <ele>686.0380859375</ele>
        <time>2023-09-27T08:04:00Z</time>
      </trkpt>
      <trkpt lat="43.40814" lon="5.48965">
        <ele>687.96069335938</ele>
        <time>2023-09-27T08:04:17Z</time>
      </trkpt>
      <trkpt lat="43.40814" lon="5.48977">
        <ele>689.40258789062</ele>
        <time>2023-09-27T08:04:30Z</time>
      </trkpt>
      <trkpt lat="43.40814" lon="5.48977">
        <ele>688.44140625</ele>
        <time>2023-09-27T08:05:13Z</time>
      </trkpt>
      <trkpt lat="43.40814" lon="5.48977">
        <ele>689.40258789062</ele>
        <time>2023-09-27T08:05:28Z</time>
      </trkpt>
      <trkpt lat="43.40814" lon="5.48976">
        <ele>689.40258789062</ele>
        <time>2023-09-27T08:06:00Z</time>
      </trkpt>
      <trkpt lat="43.40813" lon="5.48978">
        <ele>688.92211914062</ele>
        <time>2023-09-27T08:06:19Z</time>
      </trkpt>
      <trkpt lat="43.40813" lon="5.48979">
        <ele>688.44140625</ele>
        <time>2023-09-27T08:07:14Z</time>
      </trkpt>
      <trkpt lat="43.40813" lon="5.48978">
        <ele>689.40258789062</ele>
        <time>2023-09-27T08:07:31Z</time>
      </trkpt>
      <trkpt lat="43.40809" lon="5.48985">
        <ele>688.44140625</ele>
        <time>2023-09-27T08:07:41Z</time>
      </trkpt>
      <trkpt lat="43.40804" lon="5.49003">
        <ele>689.88330078125</ele>
        <time>2023-09-27T08:07:57Z</time>
      </trkpt>
      <trkpt lat="43.40801" lon="5.49015">
        <ele>691.3251953125</ele>
        <time>2023-09-27T08:08:08Z</time>
      </trkpt>
      <trkpt lat="43.40801" lon="5.49022">
        <ele>692.28662109375</ele>
        <time>2023-09-27T08:08:23Z</time>
      </trkpt>
      <trkpt lat="43.408" lon="5.49023">
        <ele>692.28662109375</ele>
        <time>2023-09-27T08:08:48Z</time>
      </trkpt>
      <trkpt lat="43.40797" lon="5.4904">
        <ele>693.728515625</ele>
        <time>2023-09-27T08:09:05Z</time>
      </trkpt>
      <trkpt lat="43.40792" lon="5.49051">
        <ele>693.24780273438</ele>
        <time>2023-09-27T08:09:19Z</time>
      </trkpt>
      <trkpt lat="43.40791" lon="5.49061">
        <ele>693.728515625</ele>
        <time>2023-09-27T08:09:32Z</time>
      </trkpt>
      <trkpt lat="43.40787" lon="5.49075">
        <ele>696.61254882812</ele>
        <time>2023-09-27T08:09:46Z</time>
      </trkpt>
      <trkpt lat="43.40783" lon="5.4909">
        <ele>697.57373046875</ele>
        <time>2023-09-27T08:10:01Z</time>
      </trkpt>
      <trkpt lat="43.40778" lon="5.49109">
        <ele>699.97705078125</ele>
        <time>2023-09-27T08:10:19Z</time>
      </trkpt>
      <trkpt lat="43.40774" lon="5.49129">
        <ele>700.9384765625</ele>
        <time>2023-09-27T08:10:37Z</time>
      </trkpt>
      <trkpt lat="43.40771" lon="5.49149">
        <ele>703.341796875</ele>
        <time>2023-09-27T08:10:55Z</time>
      </trkpt>
      <trkpt lat="43.4077" lon="5.49163">
        <ele>705.7451171875</ele>
        <time>2023-09-27T08:11:09Z</time>
      </trkpt>
      <trkpt lat="43.40768" lon="5.49181">
        <ele>706.70629882812</ele>
        <time>2023-09-27T08:11:27Z</time>
      </trkpt>
      <trkpt lat="43.40771" lon="5.49184">
        <ele>709.59033203125</ele>
        <time>2023-09-27T08:11:34Z</time>
      </trkpt>
      <trkpt lat="43.40777" lon="5.49187">
        <ele>711.0322265625</ele>
        <time>2023-09-27T08:11:48Z</time>
      </trkpt>
      <trkpt lat="43.40777" lon="5.49188">
        <ele>711.0322265625</ele>
        <time>2023-09-27T08:12:28Z</time>
      </trkpt>
      <trkpt lat="43.40778" lon="5.49188">
        <ele>711.0322265625</ele>
        <time>2023-09-27T08:12:58Z</time>
      </trkpt>
      <trkpt lat="43.40778" lon="5.49188">
        <ele>711.0322265625</ele>
        <time>2023-09-27T08:13:23Z</time>
      </trkpt>
      <trkpt lat="43.40778" lon="5.49188">
        <ele>711.51293945312</ele>
        <time>2023-09-27T08:13:55Z</time>
      </trkpt>
      <trkpt lat="43.4078" lon="5.49185">
        <ele>711.51293945312</ele>
        <time>2023-09-27T08:14:17Z</time>
      </trkpt>
      <trkpt lat="43.4078" lon="5.49187">
        <ele>711.51293945312</ele>
        <time>2023-09-27T08:14:55Z</time>
      </trkpt>
      <trkpt lat="43.40778" lon="5.49195">
        <ele>711.51293945312</ele>
        <time>2023-09-27T08:16:51Z</time>
      </trkpt>
      <trkpt lat="43.40777" lon="5.49212">
        <ele>712.47412109375</ele>
        <time>2023-09-27T08:17:05Z</time>
      </trkpt>
      <trkpt lat="43.4078" lon="5.49227">
        <ele>713.916015625</ele>
        <time>2023-09-27T08:17:17Z</time>
      </trkpt>
      <trkpt lat="43.40777" lon="5.49248">
        <ele>715.35815429688</ele>
        <time>2023-09-27T08:17:32Z</time>
      </trkpt>
      <trkpt lat="43.40776" lon="5.49259">
        <ele>715.35815429688</ele>
        <time>2023-09-27T08:17:41Z</time>
      </trkpt>
      <trkpt lat="43.40776" lon="5.49284">
        <ele>718.2421875</ele>
        <time>2023-09-27T08:18:00Z</time>
      </trkpt>
      <trkpt lat="43.40781" lon="5.49304">
        <ele>721.12622070312</ele>
        <time>2023-09-27T08:18:21Z</time>
      </trkpt>
      <trkpt lat="43.4078" lon="5.49324">
        <ele>723.52954101562</ele>
        <time>2023-09-27T08:18:38Z</time>
      </trkpt>
      <trkpt lat="43.40777" lon="5.49332">
        <ele>724.49072265625</ele>
        <time>2023-09-27T08:18:44Z</time>
      </trkpt>
      <trkpt lat="43.40776" lon="5.49351">
        <ele>724.49072265625</ele>
        <time>2023-09-27T08:18:58Z</time>
      </trkpt>
      <trkpt lat="43.40774" lon="5.49365">
        <ele>724.97143554688</ele>
        <time>2023-09-27T08:19:08Z</time>
      </trkpt>
      <trkpt lat="43.40774" lon="5.49374">
        <ele>725.45190429688</ele>
        <time>2023-09-27T08:19:15Z</time>
      </trkpt>
      <trkpt lat="43.40768" lon="5.494">
        <ele>726.89404296875</ele>
        <time>2023-09-27T08:19:36Z</time>
      </trkpt>
      <trkpt lat="43.40763" lon="5.49416">
        <ele>727.37475585938</ele>
        <time>2023-09-27T08:19:50Z</time>
      </trkpt>
      <trkpt lat="43.40757" lon="5.49431">
        <ele>727.85522460938</ele>
        <time>2023-09-27T08:20:04Z</time>
      </trkpt>
      <trkpt lat="43.40747" lon="5.49439">
        <ele>726.41333007812</ele>
        <time>2023-09-27T08:20:20Z</time>
      </trkpt>
      <trkpt lat="43.40743" lon="5.49446">
        <ele>724.97143554688</ele>
        <time>2023-09-27T08:20:38Z</time>
      </trkpt>
      <trkpt lat="43.40736" lon="5.49455">
        <ele>723.52954101562</ele>
        <time>2023-09-27T08:20:52Z</time>
      </trkpt>
      <trkpt lat="43.40729" lon="5.49474">
        <ele>724.01000976562</ele>
        <time>2023-09-27T08:21:08Z</time>
      </trkpt>
      <trkpt lat="43.40721" lon="5.49482">
        <ele>723.048828125</ele>
        <time>2023-09-27T08:21:24Z</time>
      </trkpt>
      <trkpt lat="43.4072" lon="5.49482">
        <ele>723.048828125</ele>
        <time>2023-09-27T08:21:36Z</time>
      </trkpt>
      <trkpt lat="43.40718" lon="5.49488">
        <ele>722.56811523438</ele>
        <time>2023-09-27T08:22:53Z</time>
      </trkpt>
      <trkpt lat="43.40715" lon="5.49501">
        <ele>723.52954101562</ele>
        <time>2023-09-27T08:23:04Z</time>
      </trkpt>
      <trkpt lat="43.40712" lon="5.49507">
        <ele>724.01000976562</ele>
        <time>2023-09-27T08:23:10Z</time>
      </trkpt>
      <trkpt lat="43.40705" lon="5.49513">
        <ele>723.048828125</ele>
        <time>2023-09-27T08:23:24Z</time>
      </trkpt>
      <trkpt lat="43.40694" lon="5.49529">
        <ele>721.60668945312</ele>
        <time>2023-09-27T08:23:41Z</time>
      </trkpt>
      <trkpt lat="43.40693" lon="5.49531">
        <ele>721.12622070312</ele>
        <time>2023-09-27T08:23:42Z</time>
      </trkpt>
      <trkpt lat="43.40693" lon="5.49533">
        <ele>721.60668945312</ele>
        <time>2023-09-27T08:23:44Z</time>
      </trkpt>
      <trkpt lat="43.40691" lon="5.49537">
        <ele>721.12622070312</ele>
        <time>2023-09-27T08:23:47Z</time>
      </trkpt>
      <trkpt lat="43.40681" lon="5.49548">
        <ele>718.72290039062</ele>
        <time>2023-09-27T08:24:02Z</time>
      </trkpt>
      <trkpt lat="43.40676" lon="5.49564">
        <ele>718.72290039062</ele>
        <time>2023-09-27T08:24:18Z</time>
      </trkpt>
      <trkpt lat="43.40668" lon="5.49576">
        <ele>719.20361328125</ele>
        <time>2023-09-27T08:24:36Z</time>
      </trkpt>
      <trkpt lat="43.40662" lon="5.49588">
        <ele>718.2421875</ele>
        <time>2023-09-27T08:24:51Z</time>
      </trkpt>
      <trkpt lat="43.40661" lon="5.49591">
        <ele>718.72290039062</ele>
        <time>2023-09-27T08:24:53Z</time>
      </trkpt>
      <trkpt lat="43.40659" lon="5.49594">
        <ele>718.2421875</ele>
        <time>2023-09-27T08:24:56Z</time>
      </trkpt>
      <trkpt lat="43.40657" lon="5.49608">
        <ele>719.68432617188</ele>
        <time>2023-09-27T08:25:10Z</time>
      </trkpt>
      <trkpt lat="43.40652" lon="5.49633">
        <ele>720.6455078125</ele>
        <time>2023-09-27T08:25:28Z</time>
      </trkpt>
      <trkpt lat="43.40651" lon="5.4964">
        <ele>721.12622070312</ele>
        <time>2023-09-27T08:25:34Z</time>
      </trkpt>
      <trkpt lat="43.40649" lon="5.49655">
        <ele>723.048828125</ele>
        <time>2023-09-27T08:25:51Z</time>
      </trkpt>
      <trkpt lat="43.40648" lon="5.49657">
        <ele>723.048828125</ele>
        <time>2023-09-27T08:26:04Z</time>
      </trkpt>
      <trkpt lat="43.40644" lon="5.49665">
        <ele>722.08740234375</ele>
        <time>2023-09-27T08:26:20Z</time>
      </trkpt>
      <trkpt lat="43.4064" lon="5.49671">
        <ele>721.60668945312</ele>
        <time>2023-09-27T08:26:35Z</time>
      </trkpt>
      <trkpt lat="43.40638" lon="5.49681">
        <ele>721.60668945312</ele>
        <time>2023-09-27T08:26:49Z</time>
      </trkpt>
      <trkpt lat="43.40627" lon="5.4971">
        <ele>721.60668945312</ele>
        <time>2023-09-27T08:27:12Z</time>
      </trkpt>
      <trkpt lat="43.40624" lon="5.49712">
        <ele>720.6455078125</ele>
        <time>2023-09-27T08:27:17Z</time>
      </trkpt>
      <trkpt lat="43.40625" lon="5.49721">
        <ele>721.60668945312</ele>
        <time>2023-09-27T08:27:24Z</time>
      </trkpt>
      <trkpt lat="43.40621" lon="5.49731">
        <ele>722.08740234375</ele>
        <time>2023-09-27T08:27:32Z</time>
      </trkpt>
      <trkpt lat="43.40615" lon="5.49741">
        <ele>724.49072265625</ele>
        <time>2023-09-27T08:27:45Z</time>
      </trkpt>
      <trkpt lat="43.40611" lon="5.49743">
        <ele>724.01000976562</ele>
        <time>2023-09-27T08:27:49Z</time>
      </trkpt>
      <trkpt lat="43.40609" lon="5.49746">
        <ele>723.52954101562</ele>
        <time>2023-09-27T08:27:51Z</time>
      </trkpt>
      <trkpt lat="43.40616" lon="5.49755">
        <ele>726.41333007812</ele>
        <time>2023-09-27T08:28:06Z</time>
      </trkpt>
      <trkpt lat="43.40617" lon="5.49754">
        <ele>727.85522460938</ele>
        <time>2023-09-27T08:28:29Z</time>
      </trkpt>
      <trkpt lat="43.40617" lon="5.49754">
        <ele>727.85522460938</ele>
        <time>2023-09-27T08:29:08Z</time>
      </trkpt>
      <trkpt lat="43.40618" lon="5.49754">
        <ele>727.85522460938</ele>
        <time>2023-09-27T08:29:21Z</time>
      </trkpt>
      <trkpt lat="43.40617" lon="5.49759">
        <ele>727.85522460938</ele>
        <time>2023-09-27T08:29:37Z</time>
      </trkpt>
      <trkpt lat="43.40617" lon="5.49758">
        <ele>727.85522460938</ele>
        <time>2023-09-27T08:29:55Z</time>
      </trkpt>
      <trkpt lat="43.40618" lon="5.4976">
        <ele>727.85522460938</ele>
        <time>2023-09-27T08:30:19Z</time>
      </trkpt>
      <trkpt lat="43.40618" lon="5.49761">
        <ele>728.3359375</ele>
        <time>2023-09-27T08:30:58Z</time>
      </trkpt>
      <trkpt lat="43.40617" lon="5.49761">
        <ele>727.85522460938</ele>
        <time>2023-09-27T08:31:30Z</time>
      </trkpt>
      <trkpt lat="43.40618" lon="5.49759">
        <ele>727.85522460938</ele>
        <time>2023-09-27T08:31:52Z</time>
      </trkpt>
      <trkpt lat="43.40616" lon="5.49761">
        <ele>727.85522460938</ele>
        <time>2023-09-27T08:32:07Z</time>
      </trkpt>
      <trkpt lat="43.40614" lon="5.49754">
        <ele>728.3359375</ele>
        <time>2023-09-27T08:32:21Z</time>
      </trkpt>
      <trkpt lat="43.40609" lon="5.49751">
        <ele>725.45190429688</ele>
        <time>2023-09-27T08:32:30Z</time>
      </trkpt>
      <trkpt lat="43.40605" lon="5.49755">
        <ele>723.52954101562</ele>
        <time>2023-09-27T08:32:36Z</time>
      </trkpt>
      <trkpt lat="43.40604" lon="5.49763">
        <ele>723.048828125</ele>
        <time>2023-09-27T08:32:46Z</time>
      </trkpt>
      <trkpt lat="43.40602" lon="5.49767">
        <ele>721.60668945312</ele>
        <time>2023-09-27T08:32:50Z</time>
      </trkpt>
      <trkpt lat="43.40596" lon="5.49772">
        <ele>720.6455078125</ele>
        <time>2023-09-27T08:33:05Z</time>
      </trkpt>
      <trkpt lat="43.40591" lon="5.49787">
        <ele>719.68432617188</ele>
        <time>2023-09-27T08:33:18Z</time>
      </trkpt>
      <trkpt lat="43.40586" lon="5.49794">
        <ele>719.20361328125</ele>
        <time>2023-09-27T08:33:29Z</time>
      </trkpt>
      <trkpt lat="43.40576" lon="5.49801">
        <ele>719.20361328125</ele>
        <time>2023-09-27T08:33:39Z</time>
      </trkpt>
      <trkpt lat="43.40569" lon="5.49805">
        <ele>720.6455078125</ele>
        <time>2023-09-27T08:33:48Z</time>
      </trkpt>
      <trkpt lat="43.40561" lon="5.49819">
        <ele>724.01000976562</ele>
        <time>2023-09-27T08:34:05Z</time>
      </trkpt>
      <trkpt lat="43.40554" lon="5.49825">
        <ele>725.9326171875</ele>
        <time>2023-09-27T08:34:20Z</time>
      </trkpt>
      <trkpt lat="43.40549" lon="5.49838">
        <ele>726.89404296875</ele>
        <time>2023-09-27T08:34:37Z</time>
      </trkpt>
      <trkpt lat="43.4054" lon="5.49853">
        <ele>725.45190429688</ele>
        <time>2023-09-27T08:34:53Z</time>
      </trkpt>
      <trkpt lat="43.4054" lon="5.49856">
        <ele>725.9326171875</ele>
        <time>2023-09-27T08:34:55Z</time>
      </trkpt>
      <trkpt lat="43.40534" lon="5.49867">
        <ele>726.89404296875</ele>
        <time>2023-09-27T08:35:07Z</time>
      </trkpt>
      <trkpt lat="43.40529" lon="5.49871">
        <ele>726.89404296875</ele>
        <time>2023-09-27T08:35:13Z</time>
      </trkpt>
      <trkpt lat="43.40524" lon="5.49884">
        <ele>727.85522460938</ele>
        <time>2023-09-27T08:35:23Z</time>
      </trkpt>
      <trkpt lat="43.40518" lon="5.49892">
        <ele>726.41333007812</ele>
        <time>2023-09-27T08:35:31Z</time>
      </trkpt>
      <trkpt lat="43.40515" lon="5.49906">
        <ele>724.97143554688</ele>
        <time>2023-09-27T08:35:44Z</time>
      </trkpt>
      <trkpt lat="43.40514" lon="5.49916">
        <ele>724.01000976562</ele>
        <time>2023-09-27T08:35:51Z</time>
      </trkpt>
      <trkpt lat="43.40511" lon="5.49926">
        <ele>723.52954101562</ele>
        <time>2023-09-27T08:36:10Z</time>
      </trkpt>
      <trkpt lat="43.40511" lon="5.4993">
        <ele>723.52954101562</ele>
        <time>2023-09-27T08:36:37Z</time>
      </trkpt>
      <trkpt lat="43.4051" lon="5.49934">
        <ele>723.52954101562</ele>
        <time>2023-09-27T08:36:40Z</time>
      </trkpt>
      <trkpt lat="43.4051" lon="5.49971">
        <ele>721.60668945312</ele>
        <time>2023-09-27T08:37:03Z</time>
      </trkpt>
      <trkpt lat="43.40509" lon="5.49978">
        <ele>720.6455078125</ele>
        <time>2023-09-27T08:37:08Z</time>
      </trkpt>
      <trkpt lat="43.4051" lon="5.50002">
        <ele>718.72290039062</ele>
        <time>2023-09-27T08:37:22Z</time>
      </trkpt>
      <trkpt lat="43.40512" lon="5.50013">
        <ele>718.2421875</ele>
        <time>2023-09-27T08:37:30Z</time>
      </trkpt>
      <trkpt lat="43.40508" lon="5.5004">
        <ele>714.39672851562</ele>
        <time>2023-09-27T08:37:49Z</time>
      </trkpt>
      <trkpt lat="43.40505" lon="5.50053">
        <ele>713.916015625</ele>
        <time>2023-09-27T08:37:58Z</time>
      </trkpt>
      <trkpt lat="43.40501" lon="5.50088">
        <ele>714.39672851562</ele>
        <time>2023-09-27T08:38:21Z</time>
      </trkpt>
      <trkpt lat="43.40502" lon="5.50104">
        <ele>713.435546875</ele>
        <time>2023-09-27T08:38:32Z</time>
      </trkpt>
      <trkpt lat="43.40497" lon="5.50125">
        <ele>713.916015625</ele>
        <time>2023-09-27T08:38:47Z</time>
      </trkpt>
      <trkpt lat="43.40493" lon="5.50134">
        <ele>714.87744140625</ele>
        <time>2023-09-27T08:38:53Z</time>
      </trkpt>
      <trkpt lat="43.40491" lon="5.50138">
        <ele>715.8388671875</ele>
        <time>2023-09-27T08:38:56Z</time>
      </trkpt>
      <trkpt lat="43.40489" lon="5.50142">
        <ele>715.8388671875</ele>
        <time>2023-09-27T08:38:59Z</time>
      </trkpt>
      <trkpt lat="43.4049" lon="5.50147">
        <ele>715.8388671875</ele>
        <time>2023-09-27T08:39:02Z</time>
      </trkpt>
      <trkpt lat="43.40488" lon="5.5015">
        <ele>716.31958007812</ele>
        <time>2023-09-27T08:39:05Z</time>
      </trkpt>
      <trkpt lat="43.40486" lon="5.50151">
        <ele>716.80029296875</ele>
        <time>2023-09-27T08:39:07Z</time>
      </trkpt>
      <trkpt lat="43.40485" lon="5.50168">
        <ele>717.76147460938</ele>
        <time>2023-09-27T08:39:20Z</time>
      </trkpt>
      <trkpt lat="43.40484" lon="5.50172">
        <ele>718.2421875</ele>
        <time>2023-09-27T08:39:23Z</time>
      </trkpt>
      <trkpt lat="43.4048" lon="5.50176">
        <ele>719.20361328125</ele>
        <time>2023-09-27T08:39:27Z</time>
      </trkpt>
      <trkpt lat="43.40478" lon="5.50177">
        <ele>719.68432617188</ele>
        <time>2023-09-27T08:39:30Z</time>
      </trkpt>
      <trkpt lat="43.40476" lon="5.50194">
        <ele>721.60668945312</ele>
        <time>2023-09-27T08:39:44Z</time>
      </trkpt>
      <trkpt lat="43.40476" lon="5.502">
        <ele>723.048828125</ele>
        <time>2023-09-27T08:39:50Z</time>
      </trkpt>
      <trkpt lat="43.40474" lon="5.50214">
        <ele>724.01000976562</ele>
        <time>2023-09-27T08:40:04Z</time>
      </trkpt>
      <trkpt lat="43.4047" lon="5.50233">
        <ele>723.048828125</ele>
        <time>2023-09-27T08:40:17Z</time>
      </trkpt>
      <trkpt lat="43.40469" lon="5.50237">
        <ele>722.56811523438</ele>
        <time>2023-09-27T08:40:20Z</time>
      </trkpt>
      <trkpt lat="43.40468" lon="5.50244">
        <ele>723.048828125</ele>
        <time>2023-09-27T08:40:25Z</time>
      </trkpt>
      <trkpt lat="43.40467" lon="5.50246">
        <ele>722.56811523438</ele>
        <time>2023-09-27T08:40:31Z</time>
      </trkpt>
      <trkpt lat="43.40467" lon="5.50252">
        <ele>722.08740234375</ele>
        <time>2023-09-27T08:40:35Z</time>
      </trkpt>
      <trkpt lat="43.40468" lon="5.50262">
        <ele>721.60668945312</ele>
        <time>2023-09-27T08:40:40Z</time>
      </trkpt>
      <trkpt lat="43.40465" lon="5.50271">
        <ele>721.12622070312</ele>
        <time>2023-09-27T08:40:46Z</time>
      </trkpt>
      <trkpt lat="43.40462" lon="5.50277">
        <ele>721.60668945312</ele>
        <time>2023-09-27T08:40:51Z</time>
      </trkpt>
      <trkpt lat="43.40458" lon="5.5029">
        <ele>722.56811523438</ele>
        <time>2023-09-27T08:41:04Z</time>
      </trkpt>
      <trkpt lat="43.40457" lon="5.50306">
        <ele>722.56811523438</ele>
        <time>2023-09-27T08:41:16Z</time>
      </trkpt>
      <trkpt lat="43.40461" lon="5.50318">
        <ele>719.68432617188</ele>
        <time>2023-09-27T08:41:32Z</time>
      </trkpt>
      <trkpt lat="43.40462" lon="5.50324">
        <ele>719.68432617188</ele>
        <time>2023-09-27T08:41:36Z</time>
      </trkpt>
      <trkpt lat="43.40462" lon="5.50337">
        <ele>718.72290039062</ele>
        <time>2023-09-27T08:41:46Z</time>
      </trkpt>
      <trkpt lat="43.40455" lon="5.50355">
        <ele>721.12622070312</ele>
        <time>2023-09-27T08:42:03Z</time>
      </trkpt>
      <trkpt lat="43.40455" lon="5.50355">
        <ele>721.12622070312</ele>
        <time>2023-09-27T08:42:35Z</time>
      </trkpt>
      <trkpt lat="43.40454" lon="5.50359">
        <ele>720.6455078125</ele>
        <time>2023-09-27T08:42:57Z</time>
      </trkpt>
      <trkpt lat="43.40451" lon="5.50371">
        <ele>720.6455078125</ele>
        <time>2023-09-27T08:43:10Z</time>
      </trkpt>
      <trkpt lat="43.40452" lon="5.50383">
        <ele>723.048828125</ele>
        <time>2023-09-27T08:43:25Z</time>
      </trkpt>
      <trkpt lat="43.40452" lon="5.50388">
        <ele>723.048828125</ele>
        <time>2023-09-27T08:43:33Z</time>
      </trkpt>
      <trkpt lat="43.40452" lon="5.50398">
        <ele>724.97143554688</ele>
        <time>2023-09-27T08:43:43Z</time>
      </trkpt>
      <trkpt lat="43.40452" lon="5.50408">
        <ele>724.49072265625</ele>
        <time>2023-09-27T08:43:52Z</time>
      </trkpt>
      <trkpt lat="43.40461" lon="5.50425">
        <ele>725.45190429688</ele>
        <time>2023-09-27T08:44:09Z</time>
      </trkpt>
      <trkpt lat="43.40467" lon="5.50429">
        <ele>725.9326171875</ele>
        <time>2023-09-27T08:44:17Z</time>
      </trkpt>
      <trkpt lat="43.4047" lon="5.50437">
        <ele>724.97143554688</ele>
        <time>2023-09-27T08:44:26Z</time>
      </trkpt>
      <trkpt lat="43.40472" lon="5.50454">
        <ele>724.97143554688</ele>
        <time>2023-09-27T08:44:40Z</time>
      </trkpt>
      <trkpt lat="43.40469" lon="5.50469">
        <ele>722.56811523438</ele>
        <time>2023-09-27T08:44:53Z</time>
      </trkpt>
      <trkpt lat="43.40466" lon="5.50473">
        <ele>721.60668945312</ele>
        <time>2023-09-27T08:44:57Z</time>
      </trkpt>
      <trkpt lat="43.40466" lon="5.50488">
        <ele>721.12622070312</ele>
        <time>2023-09-27T08:45:07Z</time>
      </trkpt>
      <trkpt lat="43.40466" lon="5.50491">
        <ele>721.60668945312</ele>
        <time>2023-09-27T08:45:09Z</time>
      </trkpt>
      <trkpt lat="43.40464" lon="5.50499">
        <ele>722.08740234375</ele>
        <time>2023-09-27T08:45:19Z</time>
      </trkpt>
      <trkpt lat="43.40466" lon="5.50497">
        <ele>721.60668945312</ele>
        <time>2023-09-27T08:45:36Z</time>
      </trkpt>
      <trkpt lat="43.40466" lon="5.50499">
        <ele>721.60668945312</ele>
        <time>2023-09-27T08:46:01Z</time>
      </trkpt>
      <trkpt lat="43.40465" lon="5.50507">
        <ele>722.08740234375</ele>
        <time>2023-09-27T08:46:16Z</time>
      </trkpt>
      <trkpt lat="43.40464" lon="5.50507">
        <ele>721.60668945312</ele>
        <time>2023-09-27T08:47:13Z</time>
      </trkpt>
      <trkpt lat="43.40463" lon="5.50519">
        <ele>722.56811523438</ele>
        <time>2023-09-27T08:47:52Z</time>
      </trkpt>
      <trkpt lat="43.40466" lon="5.50531">
        <ele>722.56811523438</ele>
        <time>2023-09-27T08:48:01Z</time>
      </trkpt>
      <trkpt lat="43.40468" lon="5.50536">
        <ele>723.52954101562</ele>
        <time>2023-09-27T08:48:07Z</time>
      </trkpt>
      <trkpt lat="43.40472" lon="5.5055">
        <ele>722.56811523438</ele>
        <time>2023-09-27T08:48:24Z</time>
      </trkpt>
      <trkpt lat="43.40471" lon="5.50556">
        <ele>720.6455078125</ele>
        <time>2023-09-27T08:48:37Z</time>
      </trkpt>
      <trkpt lat="43.40475" lon="5.50568">
        <ele>719.20361328125</ele>
        <time>2023-09-27T08:48:50Z</time>
      </trkpt>
      <trkpt lat="43.4048" lon="5.50585">
        <ele>717.28100585938</ele>
        <time>2023-09-27T08:49:06Z</time>
      </trkpt>
      <trkpt lat="43.4048" lon="5.50592">
        <ele>715.8388671875</ele>
        <time>2023-09-27T08:49:16Z</time>
      </trkpt>
      <trkpt lat="43.40483" lon="5.50603">
        <ele>714.87744140625</ele>
        <time>2023-09-27T08:49:24Z</time>
      </trkpt>
      <trkpt lat="43.40485" lon="5.50609">
        <ele>713.916015625</ele>
        <time>2023-09-27T08:49:29Z</time>
      </trkpt>
      <trkpt lat="43.40487" lon="5.50615">
        <ele>713.435546875</ele>
        <time>2023-09-27T08:49:34Z</time>
      </trkpt>
      <trkpt lat="43.40485" lon="5.50624">
        <ele>712.95483398438</ele>
        <time>2023-09-27T08:49:51Z</time>
      </trkpt>
      <trkpt lat="43.40488" lon="5.50637">
        <ele>711.51293945312</ele>
        <time>2023-09-27T08:50:04Z</time>
      </trkpt>
      <trkpt lat="43.40492" lon="5.50653">
        <ele>710.07080078125</ele>
        <time>2023-09-27T08:50:18Z</time>
      </trkpt>
      <trkpt lat="43.40494" lon="5.50677">
        <ele>710.07080078125</ele>
        <time>2023-09-27T08:50:36Z</time>
      </trkpt>
      <trkpt lat="43.40497" lon="5.507">
        <ele>711.99365234375</ele>
        <time>2023-09-27T08:50:58Z</time>
      </trkpt>
      <trkpt lat="43.40497" lon="5.50704">
        <ele>712.47412109375</ele>
        <time>2023-09-27T08:51:10Z</time>
      </trkpt>
      <trkpt lat="43.40498" lon="5.50708">
        <ele>711.99365234375</ele>
        <time>2023-09-27T08:51:13Z</time>
      </trkpt>
      <trkpt lat="43.40499" lon="5.50713">
        <ele>712.47412109375</ele>
        <time>2023-09-27T08:51:21Z</time>
      </trkpt>
      <trkpt lat="43.405" lon="5.50725">
        <ele>711.0322265625</ele>
        <time>2023-09-27T08:51:29Z</time>
      </trkpt>
      <trkpt lat="43.40501" lon="5.50728">
        <ele>710.55151367188</ele>
        <time>2023-09-27T08:51:33Z</time>
      </trkpt>
      <trkpt lat="43.40505" lon="5.50757">
        <ele>709.59033203125</ele>
        <time>2023-09-27T08:51:51Z</time>
      </trkpt>
      <trkpt lat="43.40509" lon="5.50766">
        <ele>709.10961914062</ele>
        <time>2023-09-27T08:51:58Z</time>
      </trkpt>
      <trkpt lat="43.4051" lon="5.5077">
        <ele>709.59033203125</ele>
        <time>2023-09-27T08:52:00Z</time>
      </trkpt>
      <trkpt lat="43.40515" lon="5.50798">
        <ele>708.62890625</ele>
        <time>2023-09-27T08:52:19Z</time>
      </trkpt>
      <trkpt lat="43.40515" lon="5.50801">
        <ele>708.62890625</ele>
        <time>2023-09-27T08:52:21Z</time>
      </trkpt>
      <trkpt lat="43.40516" lon="5.50805">
        <ele>708.62890625</ele>
        <time>2023-09-27T08:52:24Z</time>
      </trkpt>
      <trkpt lat="43.40517" lon="5.5082">
        <ele>708.62890625</ele>
        <time>2023-09-27T08:52:39Z</time>
      </trkpt>
      <trkpt lat="43.40523" lon="5.50837">
        <ele>708.62890625</ele>
        <time>2023-09-27T08:52:52Z</time>
      </trkpt>
      <trkpt lat="43.40525" lon="5.50867">
        <ele>710.55151367188</ele>
        <time>2023-09-27T08:53:12Z</time>
      </trkpt>
      <trkpt lat="43.40525" lon="5.50869">
        <ele>710.55151367188</ele>
        <time>2023-09-27T08:53:14Z</time>
      </trkpt>
      <trkpt lat="43.40531" lon="5.50884">
        <ele>708.62890625</ele>
        <time>2023-09-27T08:53:28Z</time>
      </trkpt>
      <trkpt lat="43.40535" lon="5.50894">
        <ele>706.70629882812</ele>
        <time>2023-09-27T08:53:39Z</time>
      </trkpt>
      <trkpt lat="43.40543" lon="5.50908">
        <ele>704.78369140625</ele>
        <time>2023-09-27T08:53:54Z</time>
      </trkpt>
      <trkpt lat="43.40544" lon="5.50914">
        <ele>705.26440429688</ele>
        <time>2023-09-27T08:53:58Z</time>
      </trkpt>
      <trkpt lat="43.40547" lon="5.50922">
        <ele>704.78369140625</ele>
        <time>2023-09-27T08:54:05Z</time>
      </trkpt>
      <trkpt lat="43.4055" lon="5.50928">
        <ele>704.30322265625</ele>
        <time>2023-09-27T08:54:11Z</time>
      </trkpt>
      <trkpt lat="43.40553" lon="5.50933">
        <ele>704.30322265625</ele>
        <time>2023-09-27T08:54:17Z</time>
      </trkpt>
      <trkpt lat="43.40556" lon="5.50944">
        <ele>704.78369140625</ele>
        <time>2023-09-27T08:54:25Z</time>
      </trkpt>
      <trkpt lat="43.40561" lon="5.50962">
        <ele>703.82250976562</ele>
        <time>2023-09-27T08:54:39Z</time>
      </trkpt>
      <trkpt lat="43.4056" lon="5.50975">
        <ele>705.26440429688</ele>
        <time>2023-09-27T08:54:48Z</time>
      </trkpt>
      <trkpt lat="43.40562" lon="5.50983">
        <ele>705.7451171875</ele>
        <time>2023-09-27T08:54:54Z</time>
      </trkpt>
      <trkpt lat="43.40564" lon="5.50997">
        <ele>706.70629882812</ele>
        <time>2023-09-27T08:55:06Z</time>
      </trkpt>
      <trkpt lat="43.40563" lon="5.51004">
        <ele>706.2255859375</ele>
        <time>2023-09-27T08:55:12Z</time>
      </trkpt>
      <trkpt lat="43.40562" lon="5.51007">
        <ele>706.2255859375</ele>
        <time>2023-09-27T08:55:14Z</time>
      </trkpt>
      <trkpt lat="43.40567" lon="5.51023">
        <ele>708.1484375</ele>
        <time>2023-09-27T08:55:27Z</time>
      </trkpt>
      <trkpt lat="43.40565" lon="5.51037">
        <ele>711.0322265625</ele>
        <time>2023-09-27T08:55:41Z</time>
      </trkpt>
      <trkpt lat="43.40564" lon="5.51044">
        <ele>711.51293945312</ele>
        <time>2023-09-27T08:55:56Z</time>
      </trkpt>
      <trkpt lat="43.40563" lon="5.51057">
        <ele>712.95483398438</ele>
        <time>2023-09-27T08:56:13Z</time>
      </trkpt>
      <trkpt lat="43.40565" lon="5.51072">
        <ele>714.39672851562</ele>
        <time>2023-09-27T08:56:27Z</time>
      </trkpt>
      <trkpt lat="43.40567" lon="5.51087">
        <ele>716.80029296875</ele>
        <time>2023-09-27T08:56:40Z</time>
      </trkpt>
      <trkpt lat="43.40566" lon="5.511">
        <ele>718.2421875</ele>
        <time>2023-09-27T08:57:06Z</time>
      </trkpt>
      <trkpt lat="43.40568" lon="5.51114">
        <ele>720.16479492188</ele>
        <time>2023-09-27T08:57:18Z</time>
      </trkpt>
      <trkpt lat="43.40571" lon="5.51127">
        <ele>722.08740234375</ele>
        <time>2023-09-27T08:57:28Z</time>
      </trkpt>
      <trkpt lat="43.40574" lon="5.51132">
        <ele>722.56811523438</ele>
        <time>2023-09-27T08:57:33Z</time>
      </trkpt>
      <trkpt lat="43.40586" lon="5.51157">
        <ele>724.49072265625</ele>
        <time>2023-09-27T08:57:51Z</time>
      </trkpt>
      <trkpt lat="43.40589" lon="5.51174">
        <ele>725.9326171875</ele>
        <time>2023-09-27T08:58:07Z</time>
      </trkpt>
      <trkpt lat="43.40595" lon="5.51182">
        <ele>724.97143554688</ele>
        <time>2023-09-27T08:58:20Z</time>
      </trkpt>
      <trkpt lat="43.40595" lon="5.51182">
        <ele>724.97143554688</ele>
        <time>2023-09-27T08:58:59Z</time>
      </trkpt>
      <trkpt lat="43.40594" lon="5.51182">
        <ele>725.45190429688</ele>
        <time>2023-09-27T08:59:34Z</time>
      </trkpt>
      <trkpt lat="43.40594" lon="5.5118">
        <ele>724.97143554688</ele>
        <time>2023-09-27T08:59:55Z</time>
      </trkpt>
      <trkpt lat="43.40594" lon="5.5118">
        <ele>724.97143554688</ele>
        <time>2023-09-27T09:00:24Z</time>
      </trkpt>
      <trkpt lat="43.40594" lon="5.5118">
        <ele>724.97143554688</ele>
        <time>2023-09-27T09:00:53Z</time>
      </trkpt>
      <trkpt lat="43.40594" lon="5.51181">
        <ele>725.45190429688</ele>
        <time>2023-09-27T09:00:55Z</time>
      </trkpt>
      <trkpt lat="43.40598" lon="5.51193">
        <ele>726.89404296875</ele>
        <time>2023-09-27T09:01:08Z</time>
      </trkpt>
      <trkpt lat="43.40616" lon="5.51183">
        <ele>728.3359375</ele>
        <time>2023-09-27T09:01:25Z</time>
      </trkpt>
      <trkpt lat="43.40632" lon="5.5117">
        <ele>729.77783203125</ele>
        <time>2023-09-27T09:01:42Z</time>
      </trkpt>
      <trkpt lat="43.40656" lon="5.51153">
        <ele>731.70043945312</ele>
        <time>2023-09-27T09:02:10Z</time>
      </trkpt>
      <trkpt lat="43.40653" lon="5.51154">
        <ele>731.21997070312</ele>
        <time>2023-09-27T09:02:24Z</time>
      </trkpt>
      <trkpt lat="43.40647" lon="5.51164">
        <ele>730.7392578125</ele>
        <time>2023-09-27T09:02:35Z</time>
      </trkpt>
      <trkpt lat="43.40631" lon="5.51178">
        <ele>730.7392578125</ele>
        <time>2023-09-27T09:02:53Z</time>
      </trkpt>
      <trkpt lat="43.40628" lon="5.51179">
        <ele>730.25854492188</ele>
        <time>2023-09-27T09:02:55Z</time>
      </trkpt>
      <trkpt lat="43.40609" lon="5.51195">
        <ele>728.3359375</ele>
        <time>2023-09-27T09:03:15Z</time>
      </trkpt>
      <trkpt lat="43.40596" lon="5.51195">
        <ele>727.37475585938</ele>
        <time>2023-09-27T09:03:28Z</time>
      </trkpt>
      <trkpt lat="43.40597" lon="5.51186">
        <ele>726.41333007812</ele>
        <time>2023-09-27T09:03:34Z</time>
      </trkpt>
      <trkpt lat="43.40601" lon="5.5118">
        <ele>725.45190429688</ele>
        <time>2023-09-27T09:03:41Z</time>
      </trkpt>
      <trkpt lat="43.40606" lon="5.51178">
        <ele>724.49072265625</ele>
        <time>2023-09-27T09:03:56Z</time>
      </trkpt>
      <trkpt lat="43.40607" lon="5.51177">
        <ele>724.49072265625</ele>
        <time>2023-09-27T09:04:15Z</time>
      </trkpt>
      <trkpt lat="43.40609" lon="5.51176">
        <ele>724.01000976562</ele>
        <time>2023-09-27T09:04:17Z</time>
      </trkpt>
      <trkpt lat="43.40614" lon="5.51173">
        <ele>723.52954101562</ele>
        <time>2023-09-27T09:04:24Z</time>
      </trkpt>
      <trkpt lat="43.40624" lon="5.51163">
        <ele>722.08740234375</ele>
        <time>2023-09-27T09:04:36Z</time>
      </trkpt>
      <trkpt lat="43.40632" lon="5.5115">
        <ele>720.6455078125</ele>
        <time>2023-09-27T09:04:50Z</time>
      </trkpt>
      <trkpt lat="43.40641" lon="5.51134">
        <ele>718.72290039062</ele>
        <time>2023-09-27T09:05:04Z</time>
      </trkpt>
      <trkpt lat="43.40642" lon="5.51133">
        <ele>719.20361328125</ele>
        <time>2023-09-27T09:05:06Z</time>
      </trkpt>
      <trkpt lat="43.40653" lon="5.51118">
        <ele>716.80029296875</ele>
        <time>2023-09-27T09:05:20Z</time>
      </trkpt>
      <trkpt lat="43.40666" lon="5.51085">
        <ele>713.916015625</ele>
        <time>2023-09-27T09:05:44Z</time>
      </trkpt>
      <trkpt lat="43.40672" lon="5.51073">
        <ele>712.95483398438</ele>
        <time>2023-09-27T09:05:54Z</time>
      </trkpt>
      <trkpt lat="43.40685" lon="5.51041">
        <ele>709.59033203125</ele>
        <time>2023-09-27T09:06:20Z</time>
      </trkpt>
      <trkpt lat="43.40709" lon="5.5101">
        <ele>706.70629882812</ele>
        <time>2023-09-27T09:06:51Z</time>
      </trkpt>
      <trkpt lat="43.40728" lon="5.50986">
        <ele>703.341796875</ele>
        <time>2023-09-27T09:07:14Z</time>
      </trkpt>
      <trkpt lat="43.40728" lon="5.50985">
        <ele>703.341796875</ele>
        <time>2023-09-27T09:07:15Z</time>
      </trkpt>
      <trkpt lat="43.40744" lon="5.50966">
        <ele>700.9384765625</ele>
        <time>2023-09-27T09:07:35Z</time>
      </trkpt>
      <trkpt lat="43.40755" lon="5.50957">
        <ele>699.015625</ele>
        <time>2023-09-27T09:07:53Z</time>
      </trkpt>
      <trkpt lat="43.40759" lon="5.50949">
        <ele>696.1318359375</ele>
        <time>2023-09-27T09:08:10Z</time>
      </trkpt>
      <trkpt lat="43.4076" lon="5.50945">
        <ele>695.17041015625</ele>
        <time>2023-09-27T09:08:14Z</time>
      </trkpt>
      <trkpt lat="43.40765" lon="5.50933">
        <ele>692.76733398438</ele>
        <time>2023-09-27T09:08:30Z</time>
      </trkpt>
      <trkpt lat="43.40766" lon="5.50926">
        <ele>690.84448242188</ele>
        <time>2023-09-27T09:08:43Z</time>
      </trkpt>
      <trkpt lat="43.40768" lon="5.50914">
        <ele>688.44140625</ele>
        <time>2023-09-27T09:08:57Z</time>
      </trkpt>
      <trkpt lat="43.40777" lon="5.50918">
        <ele>686.0380859375</ele>
        <time>2023-09-27T09:09:11Z</time>
      </trkpt>
      <trkpt lat="43.40778" lon="5.5092">
        <ele>686.0380859375</ele>
        <time>2023-09-27T09:09:13Z</time>
      </trkpt>
      <trkpt lat="43.40784" lon="5.50928">
        <ele>684.11547851562</ele>
        <time>2023-09-27T09:09:22Z</time>
      </trkpt>
      <trkpt lat="43.40794" lon="5.50939">
        <ele>679.78930664062</ele>
        <time>2023-09-27T09:09:35Z</time>
      </trkpt>
      <trkpt lat="43.40801" lon="5.50951">
        <ele>677.38623046875</ele>
        <time>2023-09-27T09:09:51Z</time>
      </trkpt>
      <trkpt lat="43.40807" lon="5.50969">
        <ele>675.46337890625</ele>
        <time>2023-09-27T09:10:07Z</time>
      </trkpt>
      <trkpt lat="43.40813" lon="5.50978">
        <ele>674.021484375</ele>
        <time>2023-09-27T09:10:21Z</time>
      </trkpt>
      <trkpt lat="43.40823" lon="5.50981">
        <ele>672.57958984375</ele>
        <time>2023-09-27T09:10:38Z</time>
      </trkpt>
      <trkpt lat="43.40831" lon="5.50979">
        <ele>672.09887695312</ele>
        <time>2023-09-27T09:10:53Z</time>
      </trkpt>
      <trkpt lat="43.40839" lon="5.50981">
        <ele>671.1376953125</ele>
        <time>2023-09-27T09:11:09Z</time>
      </trkpt>
      <trkpt lat="43.40852" lon="5.50984">
        <ele>669.69580078125</ele>
        <time>2023-09-27T09:11:23Z</time>
      </trkpt>
      <trkpt lat="43.40861" lon="5.5099">
        <ele>667.29223632812</ele>
        <time>2023-09-27T09:11:36Z</time>
      </trkpt>
      <trkpt lat="43.40876" lon="5.50994">
        <ele>665.85034179688</ele>
        <time>2023-09-27T09:11:50Z</time>
      </trkpt>
      <trkpt lat="43.40878" lon="5.50995">
        <ele>664.88891601562</ele>
        <time>2023-09-27T09:11:51Z</time>
      </trkpt>
      <trkpt lat="43.40884" lon="5.51001">
        <ele>663.44702148438</ele>
        <time>2023-09-27T09:12:00Z</time>
      </trkpt>
      <trkpt lat="43.40889" lon="5.51004">
        <ele>662.48559570312</ele>
        <time>2023-09-27T09:12:04Z</time>
      </trkpt>
      <trkpt lat="43.40889" lon="5.51007">
        <ele>662.48559570312</ele>
        <time>2023-09-27T09:12:07Z</time>
      </trkpt>
      <trkpt lat="43.40892" lon="5.51012">
        <ele>662.48559570312</ele>
        <time>2023-09-27T09:12:19Z</time>
      </trkpt>
      <trkpt lat="43.40896" lon="5.51029">
        <ele>663.92749023438</ele>
        <time>2023-09-27T09:12:35Z</time>
      </trkpt>
      <trkpt lat="43.40895" lon="5.51031">
        <ele>663.92749023438</ele>
        <time>2023-09-27T09:12:36Z</time>
      </trkpt>
      <trkpt lat="43.40892" lon="5.51035">
        <ele>664.408203125</ele>
        <time>2023-09-27T09:12:39Z</time>
      </trkpt>
      <trkpt lat="43.40894" lon="5.51039">
        <ele>664.88891601562</ele>
        <time>2023-09-27T09:12:42Z</time>
      </trkpt>
      <trkpt lat="43.40896" lon="5.51045">
        <ele>665.36962890625</ele>
        <time>2023-09-27T09:12:47Z</time>
      </trkpt>
      <trkpt lat="43.40897" lon="5.51048">
        <ele>665.85034179688</ele>
        <time>2023-09-27T09:12:49Z</time>
      </trkpt>
      <trkpt lat="43.40901" lon="5.51062">
        <ele>666.8115234375</ele>
        <time>2023-09-27T09:12:59Z</time>
      </trkpt>
      <trkpt lat="43.4091" lon="5.51095">
        <ele>669.21508789062</ele>
        <time>2023-09-27T09:13:25Z</time>
      </trkpt>
      <trkpt lat="43.40913" lon="5.51114">
        <ele>670.65698242188</ele>
        <time>2023-09-27T09:13:41Z</time>
      </trkpt>
      <trkpt lat="43.40914" lon="5.51141">
        <ele>672.57958984375</ele>
        <time>2023-09-27T09:14:03Z</time>
      </trkpt>
      <trkpt lat="43.40916" lon="5.51158">
        <ele>674.50219726562</ele>
        <time>2023-09-27T09:14:19Z</time>
      </trkpt>
      <trkpt lat="43.40919" lon="5.5117">
        <ele>676.4248046875</ele>
        <time>2023-09-27T09:14:33Z</time>
      </trkpt>
      <trkpt lat="43.4092" lon="5.51175">
        <ele>676.4248046875</ele>
        <time>2023-09-27T09:14:46Z</time>
      </trkpt>
      <trkpt lat="43.40918" lon="5.51177">
        <ele>676.4248046875</ele>
        <time>2023-09-27T09:14:58Z</time>
      </trkpt>
      <trkpt lat="43.40918" lon="5.51175">
        <ele>676.4248046875</ele>
        <time>2023-09-27T09:15:10Z</time>
      </trkpt>
      <trkpt lat="43.40917" lon="5.51177">
        <ele>676.4248046875</ele>
        <time>2023-09-27T09:15:30Z</time>
      </trkpt>
      <trkpt lat="43.40915" lon="5.51183">
        <ele>676.4248046875</ele>
        <time>2023-09-27T09:15:41Z</time>
      </trkpt>
      <trkpt lat="43.4091" lon="5.51193">
        <ele>677.38623046875</ele>
        <time>2023-09-27T09:15:50Z</time>
      </trkpt>
      <trkpt lat="43.40905" lon="5.51209">
        <ele>678.828125</ele>
        <time>2023-09-27T09:16:01Z</time>
      </trkpt>
      <trkpt lat="43.40905" lon="5.51213">
        <ele>678.828125</ele>
        <time>2023-09-27T09:16:04Z</time>
      </trkpt>
      <trkpt lat="43.40905" lon="5.51218">
        <ele>678.34741210938</ele>
        <time>2023-09-27T09:16:07Z</time>
      </trkpt>
      <trkpt lat="43.40905" lon="5.51222">
        <ele>679.78930664062</ele>
        <time>2023-09-27T09:16:10Z</time>
      </trkpt>
      <trkpt lat="43.40902" lon="5.51233">
        <ele>679.78930664062</ele>
        <time>2023-09-27T09:16:18Z</time>
      </trkpt>
      <trkpt lat="43.409" lon="5.51235">
        <ele>680.27001953125</ele>
        <time>2023-09-27T09:16:20Z</time>
      </trkpt>
      <trkpt lat="43.40896" lon="5.51253">
        <ele>680.27001953125</ele>
        <time>2023-09-27T09:16:34Z</time>
      </trkpt>
      <trkpt lat="43.40895" lon="5.51256">
        <ele>680.27001953125</ele>
        <time>2023-09-27T09:16:36Z</time>
      </trkpt>
      <trkpt lat="43.40892" lon="5.51284">
        <ele>680.75073242188</ele>
        <time>2023-09-27T09:16:55Z</time>
      </trkpt>
      <trkpt lat="43.40877" lon="5.51318">
        <ele>682.67333984375</ele>
        <time>2023-09-27T09:17:21Z</time>
      </trkpt>
      <trkpt lat="43.40867" lon="5.51327">
        <ele>683.15380859375</ele>
        <time>2023-09-27T09:17:32Z</time>
      </trkpt>
      <trkpt lat="43.40858" lon="5.51332">
        <ele>683.63452148438</ele>
        <time>2023-09-27T09:17:41Z</time>
      </trkpt>
      <trkpt lat="43.40848" lon="5.51343">
        <ele>683.63452148438</ele>
        <time>2023-09-27T09:17:51Z</time>
      </trkpt>
      <trkpt lat="43.40842" lon="5.5138">
        <ele>684.11547851562</ele>
        <time>2023-09-27T09:18:14Z</time>
      </trkpt>
      <trkpt lat="43.40834" lon="5.51418">
        <ele>683.15380859375</ele>
        <time>2023-09-27T09:18:40Z</time>
      </trkpt>
      <trkpt lat="43.40822" lon="5.51448">
        <ele>684.59619140625</ele>
        <time>2023-09-27T09:19:02Z</time>
      </trkpt>
      <trkpt lat="43.40796" lon="5.51469">
        <ele>685.07690429688</ele>
        <time>2023-09-27T09:19:28Z</time>
      </trkpt>
      <trkpt lat="43.40773" lon="5.51469">
        <ele>686.51879882812</ele>
        <time>2023-09-27T09:19:50Z</time>
      </trkpt>
      <trkpt lat="43.40757" lon="5.5146">
        <ele>687.96069335938</ele>
        <time>2023-09-27T09:20:08Z</time>
      </trkpt>
      <trkpt lat="43.40748" lon="5.51455">
        <ele>688.44140625</ele>
        <time>2023-09-27T09:20:17Z</time>
      </trkpt>
      <trkpt lat="43.40727" lon="5.51467">
        <ele>688.92211914062</ele>
        <time>2023-09-27T09:20:37Z</time>
      </trkpt>
      <trkpt lat="43.40718" lon="5.51502">
        <ele>689.40258789062</ele>
        <time>2023-09-27T09:20:59Z</time>
      </trkpt>
      <trkpt lat="43.40709" lon="5.51538">
        <ele>689.40258789062</ele>
        <time>2023-09-27T09:21:22Z</time>
      </trkpt>
      <trkpt lat="43.40697" lon="5.51561">
        <ele>689.40258789062</ele>
        <time>2023-09-27T09:21:42Z</time>
      </trkpt>
      <trkpt lat="43.40689" lon="5.51564">
        <ele>689.88330078125</ele>
        <time>2023-09-27T09:21:51Z</time>
      </trkpt>
      <trkpt lat="43.40681" lon="5.51564">
        <ele>689.88330078125</ele>
        <time>2023-09-27T09:21:59Z</time>
      </trkpt>
      <trkpt lat="43.40676" lon="5.51561">
        <ele>689.40258789062</ele>
        <time>2023-09-27T09:22:20Z</time>
      </trkpt>
      <trkpt lat="43.40676" lon="5.51561">
        <ele>689.88330078125</ele>
        <time>2023-09-27T09:22:47Z</time>
      </trkpt>
      <trkpt lat="43.40672" lon="5.51553">
        <ele>690.36401367188</ele>
        <time>2023-09-27T09:22:58Z</time>
      </trkpt>
      <trkpt lat="43.40661" lon="5.51541">
        <ele>691.3251953125</ele>
        <time>2023-09-27T09:23:14Z</time>
      </trkpt>
      <trkpt lat="43.40649" lon="5.51531">
        <ele>692.28662109375</ele>
        <time>2023-09-27T09:23:30Z</time>
      </trkpt>
      <trkpt lat="43.4063" lon="5.51511">
        <ele>693.24780273438</ele>
        <time>2023-09-27T09:23:51Z</time>
      </trkpt>
      <trkpt lat="43.40611" lon="5.51491">
        <ele>695.65112304688</ele>
        <time>2023-09-27T09:24:16Z</time>
      </trkpt>
      <trkpt lat="43.40602" lon="5.5148">
        <ele>696.1318359375</ele>
        <time>2023-09-27T09:24:28Z</time>
      </trkpt>
      <trkpt lat="43.40594" lon="5.51464">
        <ele>696.1318359375</ele>
        <time>2023-09-27T09:24:43Z</time>
      </trkpt>
      <trkpt lat="43.40577" lon="5.51444">
        <ele>696.1318359375</ele>
        <time>2023-09-27T09:25:05Z</time>
      </trkpt>
      <trkpt lat="43.40577" lon="5.51443">
        <ele>695.65112304688</ele>
        <time>2023-09-27T09:25:06Z</time>
      </trkpt>
      <trkpt lat="43.40554" lon="5.51434">
        <ele>696.61254882812</ele>
        <time>2023-09-27T09:25:27Z</time>
      </trkpt>
      <trkpt lat="43.40553" lon="5.51434">
        <ele>696.61254882812</ele>
        <time>2023-09-27T09:25:28Z</time>
      </trkpt>
      <trkpt lat="43.40526" lon="5.51453">
        <ele>695.17041015625</ele>
        <time>2023-09-27T09:25:53Z</time>
      </trkpt>
      <trkpt lat="43.40504" lon="5.51487">
        <ele>692.28662109375</ele>
        <time>2023-09-27T09:26:19Z</time>
      </trkpt>
      <trkpt lat="43.40503" lon="5.5149">
        <ele>692.28662109375</ele>
        <time>2023-09-27T09:26:37Z</time>
      </trkpt>
      <trkpt lat="43.40502" lon="5.51493">
        <ele>692.28662109375</ele>
        <time>2023-09-27T09:26:43Z</time>
      </trkpt>
      <trkpt lat="43.40498" lon="5.51503">
        <ele>690.84448242188</ele>
        <time>2023-09-27T09:26:53Z</time>
      </trkpt>
      <trkpt lat="43.40486" lon="5.51528">
        <ele>688.92211914062</ele>
        <time>2023-09-27T09:27:14Z</time>
      </trkpt>
      <trkpt lat="43.40474" lon="5.51543">
        <ele>687.47998046875</ele>
        <time>2023-09-27T09:27:32Z</time>
      </trkpt>
      <trkpt lat="43.40467" lon="5.51554">
        <ele>685.55737304688</ele>
        <time>2023-09-27T09:27:43Z</time>
      </trkpt>
      <trkpt lat="43.40457" lon="5.51583">
        <ele>684.59619140625</ele>
        <time>2023-09-27T09:28:05Z</time>
      </trkpt>
      <trkpt lat="43.40446" lon="5.51608">
        <ele>682.67333984375</ele>
        <time>2023-09-27T09:28:25Z</time>
      </trkpt>
      <trkpt lat="43.40435" lon="5.51641">
        <ele>681.2314453125</ele>
        <time>2023-09-27T09:28:49Z</time>
      </trkpt>
      <trkpt lat="43.4043" lon="5.51671">
        <ele>680.75073242188</ele>
        <time>2023-09-27T09:29:10Z</time>
      </trkpt>
      <trkpt lat="43.40423" lon="5.51695">
        <ele>682.19262695312</ele>
        <time>2023-09-27T09:29:31Z</time>
      </trkpt>
      <trkpt lat="43.40418" lon="5.51707">
        <ele>683.15380859375</ele>
        <time>2023-09-27T09:29:42Z</time>
      </trkpt>
      <trkpt lat="43.40397" lon="5.51724">
        <ele>683.63452148438</ele>
        <time>2023-09-27T09:30:04Z</time>
      </trkpt>
      <trkpt lat="43.40394" lon="5.51727">
        <ele>683.63452148438</ele>
        <time>2023-09-27T09:30:08Z</time>
      </trkpt>
      <trkpt lat="43.40389" lon="5.5173">
        <ele>683.63452148438</ele>
        <time>2023-09-27T09:30:13Z</time>
      </trkpt>
      <trkpt lat="43.40373" lon="5.51754">
        <ele>682.19262695312</ele>
        <time>2023-09-27T09:30:35Z</time>
      </trkpt>
      <trkpt lat="43.40361" lon="5.51783">
        <ele>678.828125</ele>
        <time>2023-09-27T09:30:57Z</time>
      </trkpt>
      <trkpt lat="43.40342" lon="5.51801">
        <ele>678.828125</ele>
        <time>2023-09-27T09:31:16Z</time>
      </trkpt>
      <trkpt lat="43.40337" lon="5.51802">
        <ele>677.38623046875</ele>
        <time>2023-09-27T09:31:21Z</time>
      </trkpt>
      <trkpt lat="43.40321" lon="5.51813">
        <ele>677.38623046875</ele>
        <time>2023-09-27T09:31:35Z</time>
      </trkpt>
      <trkpt lat="43.40311" lon="5.51818">
        <ele>676.4248046875</ele>
        <time>2023-09-27T09:31:49Z</time>
      </trkpt>
      <trkpt lat="43.40309" lon="5.51823">
        <ele>675.94409179688</ele>
        <time>2023-09-27T09:31:53Z</time>
      </trkpt>
      <trkpt lat="43.40314" lon="5.51848">
        <ele>675.46337890625</ele>
        <time>2023-09-27T09:32:10Z</time>
      </trkpt>
      <trkpt lat="43.40321" lon="5.5189">
        <ele>673.541015625</ele>
        <time>2023-09-27T09:32:38Z</time>
      </trkpt>
      <trkpt lat="43.40327" lon="5.51923">
        <ele>672.09887695312</ele>
        <time>2023-09-27T09:33:00Z</time>
      </trkpt>
      <trkpt lat="43.40332" lon="5.51946">
        <ele>671.6181640625</ele>
        <time>2023-09-27T09:33:15Z</time>
      </trkpt>
      <trkpt lat="43.40327" lon="5.51982">
        <ele>669.69580078125</ele>
        <time>2023-09-27T09:33:38Z</time>
      </trkpt>
      <trkpt lat="43.40322" lon="5.51993">
        <ele>669.21508789062</ele>
        <time>2023-09-27T09:33:48Z</time>
      </trkpt>
      <trkpt lat="43.40306" lon="5.5201">
        <ele>667.29223632812</ele>
        <time>2023-09-27T09:34:06Z</time>
      </trkpt>
      <trkpt lat="43.40283" lon="5.52031">
        <ele>665.36962890625</ele>
        <time>2023-09-27T09:34:31Z</time>
      </trkpt>
      <trkpt lat="43.40264" lon="5.52051">
        <ele>663.92749023438</ele>
        <time>2023-09-27T09:34:53Z</time>
      </trkpt>
      <trkpt lat="43.40247" lon="5.52076">
        <ele>662.48559570312</ele>
        <time>2023-09-27T09:35:14Z</time>
      </trkpt>
      <trkpt lat="43.4024" lon="5.52084">
        <ele>661.5244140625</ele>
        <time>2023-09-27T09:35:23Z</time>
      </trkpt>
      <trkpt lat="43.40239" lon="5.52087">
        <ele>661.5244140625</ele>
        <time>2023-09-27T09:35:25Z</time>
      </trkpt>
      <trkpt lat="43.40225" lon="5.5211">
        <ele>660.08227539062</ele>
        <time>2023-09-27T09:35:44Z</time>
      </trkpt>
      <trkpt lat="43.40206" lon="5.5213">
        <ele>656.7177734375</ele>
        <time>2023-09-27T09:36:04Z</time>
      </trkpt>
      <trkpt lat="43.40214" lon="5.52153">
        <ele>653.833984375</ele>
        <time>2023-09-27T09:36:22Z</time>
      </trkpt>
      <trkpt lat="43.40248" lon="5.52175">
        <ele>652.87255859375</ele>
        <time>2023-09-27T09:36:52Z</time>
      </trkpt>
      <trkpt lat="43.40278" lon="5.52187">
        <ele>651.43041992188</ele>
        <time>2023-09-27T09:37:16Z</time>
      </trkpt>
      <trkpt lat="43.40285" lon="5.52189">
        <ele>650.46923828125</ele>
        <time>2023-09-27T09:37:22Z</time>
      </trkpt>
      <trkpt lat="43.4028" lon="5.52202">
        <ele>649.02709960938</ele>
        <time>2023-09-27T09:37:36Z</time>
      </trkpt>
      <trkpt lat="43.40273" lon="5.522">
        <ele>648.06591796875</ele>
        <time>2023-09-27T09:37:43Z</time>
      </trkpt>
      <trkpt lat="43.40246" lon="5.52194">
        <ele>647.58520507812</ele>
        <time>2023-09-27T09:38:06Z</time>
      </trkpt>
      <trkpt lat="43.40219" lon="5.52182">
        <ele>645.18188476562</ele>
        <time>2023-09-27T09:38:31Z</time>
      </trkpt>
      <trkpt lat="43.40187" lon="5.52168">
        <ele>641.8173828125</ele>
        <time>2023-09-27T09:39:00Z</time>
      </trkpt>
      <trkpt lat="43.40154" lon="5.52161">
        <ele>639.4140625</ele>
        <time>2023-09-27T09:39:30Z</time>
      </trkpt>
      <trkpt lat="43.40132" lon="5.5216">
        <ele>636.5302734375</ele>
        <time>2023-09-27T09:39:53Z</time>
      </trkpt>
      <trkpt lat="43.40117" lon="5.52144">
        <ele>633.64599609375</ele>
        <time>2023-09-27T09:40:18Z</time>
      </trkpt>
      <trkpt lat="43.40119" lon="5.52139">
        <ele>632.68481445312</ele>
        <time>2023-09-27T09:40:22Z</time>
      </trkpt>
      <trkpt lat="43.40135" lon="5.52123">
        <ele>631.72338867188</ele>
        <time>2023-09-27T09:40:42Z</time>
      </trkpt>
      <trkpt lat="43.40146" lon="5.5209">
        <ele>631.24291992188</ele>
        <time>2023-09-27T09:41:07Z</time>
      </trkpt>
      <trkpt lat="43.40154" lon="5.52062">
        <ele>628.35888671875</ele>
        <time>2023-09-27T09:41:29Z</time>
      </trkpt>
      <trkpt lat="43.40163" lon="5.52026">
        <ele>625.95556640625</ele>
        <time>2023-09-27T09:41:54Z</time>
      </trkpt>
      <trkpt lat="43.40172" lon="5.51978">
        <ele>623.55249023438</ele>
        <time>2023-09-27T09:42:25Z</time>
      </trkpt>
      <trkpt lat="43.40173" lon="5.51955">
        <ele>622.1103515625</ele>
        <time>2023-09-27T09:42:41Z</time>
      </trkpt>
      <trkpt lat="43.40164" lon="5.51948">
        <ele>621.62963867188</ele>
        <time>2023-09-27T09:42:54Z</time>
      </trkpt>
      <trkpt lat="43.40153" lon="5.5195">
        <ele>620.66845703125</ele>
        <time>2023-09-27T09:43:10Z</time>
      </trkpt>
      <trkpt lat="43.4014" lon="5.51947">
        <ele>620.66845703125</ele>
        <time>2023-09-27T09:43:22Z</time>
      </trkpt>
      <trkpt lat="43.4011" lon="5.51943">
        <ele>618.26489257812</ele>
        <time>2023-09-27T09:43:49Z</time>
      </trkpt>
      <trkpt lat="43.40084" lon="5.51943">
        <ele>614.900390625</ele>
        <time>2023-09-27T09:44:12Z</time>
      </trkpt>
      <trkpt lat="43.40063" lon="5.51942">
        <ele>612.4970703125</ele>
        <time>2023-09-27T09:44:32Z</time>
      </trkpt>
      <trkpt lat="43.40042" lon="5.51929">
        <ele>609.13256835938</ele>
        <time>2023-09-27T09:44:52Z</time>
      </trkpt>
      <trkpt lat="43.40015" lon="5.51936">
        <ele>607.2099609375</ele>
        <time>2023-09-27T09:45:17Z</time>
      </trkpt>
      <trkpt lat="43.39992" lon="5.51933">
        <ele>604.326171875</ele>
        <time>2023-09-27T09:45:40Z</time>
      </trkpt>
      <trkpt lat="43.39983" lon="5.51902">
        <ele>601.92260742188</ele>
        <time>2023-09-27T09:46:03Z</time>
      </trkpt>
      <trkpt lat="43.39965" lon="5.51878">
        <ele>600.48071289062</ele>
        <time>2023-09-27T09:46:26Z</time>
      </trkpt>
      <trkpt lat="43.39943" lon="5.51864">
        <ele>597.11596679688</ele>
        <time>2023-09-27T09:46:47Z</time>
      </trkpt>
      <trkpt lat="43.39937" lon="5.51854">
        <ele>595.67407226562</ele>
        <time>2023-09-27T09:46:55Z</time>
      </trkpt>
      <trkpt lat="43.39936" lon="5.51842">
        <ele>594.71264648438</ele>
        <time>2023-09-27T09:47:03Z</time>
      </trkpt>
      <trkpt lat="43.39947" lon="5.51817">
        <ele>592.3095703125</ele>
        <time>2023-09-27T09:47:25Z</time>
      </trkpt>
      <trkpt lat="43.3995" lon="5.51809">
        <ele>591.34814453125</ele>
        <time>2023-09-27T09:47:33Z</time>
      </trkpt>
      <trkpt lat="43.39963" lon="5.51776">
        <ele>589.42553710938</ele>
        <time>2023-09-27T09:48:00Z</time>
      </trkpt>
      <trkpt lat="43.39978" lon="5.51752">
        <ele>586.54150390625</ele>
        <time>2023-09-27T09:48:22Z</time>
      </trkpt>
      <trkpt lat="43.39989" lon="5.5174">
        <ele>585.580078125</ele>
        <time>2023-09-27T09:48:37Z</time>
      </trkpt>
      <trkpt lat="43.39996" lon="5.51734">
        <ele>585.580078125</ele>
        <time>2023-09-27T09:48:46Z</time>
      </trkpt>
      <trkpt lat="43.40001" lon="5.51735">
        <ele>584.13818359375</ele>
        <time>2023-09-27T09:48:51Z</time>
      </trkpt>
      <trkpt lat="43.40005" lon="5.51734">
        <ele>583.65747070312</ele>
        <time>2023-09-27T09:48:55Z</time>
      </trkpt>
      <trkpt lat="43.40015" lon="5.51731">
        <ele>583.1767578125</ele>
        <time>2023-09-27T09:49:08Z</time>
      </trkpt>
      <trkpt lat="43.40035" lon="5.51718">
        <ele>580.29296875</ele>
        <time>2023-09-27T09:49:30Z</time>
      </trkpt>
      <trkpt lat="43.40053" lon="5.51703">
        <ele>578.37036132812</ele>
        <time>2023-09-27T09:49:51Z</time>
      </trkpt>
      <trkpt lat="43.40071" lon="5.51693">
        <ele>577.4091796875</ele>
        <time>2023-09-27T09:50:10Z</time>
      </trkpt>
      <trkpt lat="43.40093" lon="5.51685">
        <ele>575.96704101562</ele>
        <time>2023-09-27T09:50:32Z</time>
      </trkpt>
      <trkpt lat="43.40116" lon="5.51675">
        <ele>575.005859375</ele>
        <time>2023-09-27T09:50:55Z</time>
      </trkpt>
      <trkpt lat="43.40139" lon="5.51659">
        <ele>572.6025390625</ele>
        <time>2023-09-27T09:51:20Z</time>
      </trkpt>
      <trkpt lat="43.40157" lon="5.51638">
        <ele>570.19897460938</ele>
        <time>2023-09-27T09:51:42Z</time>
      </trkpt>
      <trkpt lat="43.40159" lon="5.51634">
        <ele>569.71850585938</ele>
        <time>2023-09-27T09:51:47Z</time>
      </trkpt>
      <trkpt lat="43.40167" lon="5.51611">
        <ele>567.31518554688</ele>
        <time>2023-09-27T09:52:06Z</time>
      </trkpt>
      <trkpt lat="43.40175" lon="5.51586">
        <ele>565.87329101562</ele>
        <time>2023-09-27T09:52:25Z</time>
      </trkpt>
      <trkpt lat="43.40177" lon="5.51565">
        <ele>563.46997070312</ele>
        <time>2023-09-27T09:52:42Z</time>
      </trkpt>
      <trkpt lat="43.40172" lon="5.51531">
        <ele>560.5859375</ele>
        <time>2023-09-27T09:53:04Z</time>
      </trkpt>
      <trkpt lat="43.4017" lon="5.51525">
        <ele>560.10522460938</ele>
        <time>2023-09-27T09:53:09Z</time>
      </trkpt>
      <trkpt lat="43.40161" lon="5.51506">
        <ele>558.18286132812</ele>
        <time>2023-09-27T09:53:25Z</time>
      </trkpt>
      <trkpt lat="43.40148" lon="5.51473">
        <ele>555.29858398438</ele>
        <time>2023-09-27T09:53:48Z</time>
      </trkpt>
      <trkpt lat="43.40145" lon="5.51438">
        <ele>552.89526367188</ele>
        <time>2023-09-27T09:54:09Z</time>
      </trkpt>
      <trkpt lat="43.40144" lon="5.51435">
        <ele>552.89526367188</ele>
        <time>2023-09-27T09:54:11Z</time>
      </trkpt>
      <trkpt lat="43.40132" lon="5.51405">
        <ele>550.01147460938</ele>
        <time>2023-09-27T09:54:35Z</time>
      </trkpt>
      <trkpt lat="43.40128" lon="5.51397">
        <ele>549.53076171875</ele>
        <time>2023-09-27T09:54:50Z</time>
      </trkpt>
      <trkpt lat="43.4013" lon="5.51401">
        <ele>549.05004882812</ele>
        <time>2023-09-27T09:55:15Z</time>
      </trkpt>
      <trkpt lat="43.40129" lon="5.51399">
        <ele>549.53076171875</ele>
        <time>2023-09-27T09:55:29Z</time>
      </trkpt>
      <trkpt lat="43.40129" lon="5.51399">
        <ele>549.05004882812</ele>
        <time>2023-09-27T09:56:19Z</time>
      </trkpt>
      <trkpt lat="43.40128" lon="5.51398">
        <ele>549.05004882812</ele>
        <time>2023-09-27T09:57:21Z</time>
      </trkpt>
      <trkpt lat="43.40127" lon="5.51398">
        <ele>549.05004882812</ele>
        <time>2023-09-27T09:57:31Z</time>
      </trkpt>
      <trkpt lat="43.4011" lon="5.51386">
        <ele>547.60815429688</ele>
        <time>2023-09-27T09:57:54Z</time>
      </trkpt>
      <trkpt lat="43.40089" lon="5.51381">
        <ele>545.685546875</ele>
        <time>2023-09-27T09:58:15Z</time>
      </trkpt>
      <trkpt lat="43.40085" lon="5.51376">
        <ele>545.685546875</ele>
        <time>2023-09-27T09:58:20Z</time>
      </trkpt>
      <trkpt lat="43.40072" lon="5.51345">
        <ele>544.24365234375</ele>
        <time>2023-09-27T09:58:43Z</time>
      </trkpt>
      <trkpt lat="43.40051" lon="5.51316">
        <ele>540.87890625</ele>
        <time>2023-09-27T09:59:10Z</time>
      </trkpt>
      <trkpt lat="43.40025" lon="5.51304">
        <ele>537.99499511719</ele>
        <time>2023-09-27T09:59:33Z</time>
      </trkpt>
      <trkpt lat="43.4" lon="5.51294">
        <ele>534.63037109375</ele>
        <time>2023-09-27T09:59:55Z</time>
      </trkpt>
      <trkpt lat="43.39988" lon="5.51263">
        <ele>532.22705078125</ele>
        <time>2023-09-27T10:00:17Z</time>
      </trkpt>
      <trkpt lat="43.39974" lon="5.51229">
        <ele>529.34313964844</ele>
        <time>2023-09-27T10:00:41Z</time>
      </trkpt>
      <trkpt lat="43.39954" lon="5.51199">
        <ele>526.45910644531</ele>
        <time>2023-09-27T10:01:06Z</time>
      </trkpt>
      <trkpt lat="43.39948" lon="5.5119">
        <ele>525.97839355469</ele>
        <time>2023-09-27T10:01:14Z</time>
      </trkpt>
      <trkpt lat="43.39947" lon="5.51187">
        <ele>525.97839355469</ele>
        <time>2023-09-27T10:01:16Z</time>
      </trkpt>
      <trkpt lat="43.39918" lon="5.51167">
        <ele>526.45910644531</ele>
        <time>2023-09-27T10:01:43Z</time>
      </trkpt>
      <trkpt lat="43.39888" lon="5.51166">
        <ele>526.93981933594</ele>
        <time>2023-09-27T10:02:08Z</time>
      </trkpt>
      <trkpt lat="43.39877" lon="5.51153">
        <ele>526.45910644531</ele>
        <time>2023-09-27T10:02:20Z</time>
      </trkpt>
      <trkpt lat="43.39868" lon="5.51116">
        <ele>525.49780273438</ele>
        <time>2023-09-27T10:02:44Z</time>
      </trkpt>
      <trkpt lat="43.39857" lon="5.51075">
        <ele>524.05578613281</ele>
        <time>2023-09-27T10:03:10Z</time>
      </trkpt>
      <trkpt lat="43.39844" lon="5.51028">
        <ele>522.13317871094</ele>
        <time>2023-09-27T10:03:41Z</time>
      </trkpt>
      <trkpt lat="43.39827" lon="5.50991">
        <ele>521.17199707031</ele>
        <time>2023-09-27T10:04:08Z</time>
      </trkpt>
      <trkpt lat="43.39815" lon="5.50973">
        <ele>520.69128417969</ele>
        <time>2023-09-27T10:04:21Z</time>
      </trkpt>
      <trkpt lat="43.39814" lon="5.50968">
        <ele>520.69128417969</ele>
        <time>2023-09-27T10:04:24Z</time>
      </trkpt>
      <trkpt lat="43.39811" lon="5.50958">
        <ele>519.72985839844</ele>
        <time>2023-09-27T10:04:41Z</time>
      </trkpt>
      <trkpt lat="43.39811" lon="5.50957">
        <ele>519.72985839844</ele>
        <time>2023-09-27T10:05:00Z</time>
      </trkpt>
      <trkpt lat="43.39807" lon="5.50954">
        <ele>519.72985839844</ele>
        <time>2023-09-27T10:05:26Z</time>
      </trkpt>
      <trkpt lat="43.39807" lon="5.50955">
        <ele>519.24926757812</ele>
        <time>2023-09-27T10:05:49Z</time>
      </trkpt>
      <trkpt lat="43.39806" lon="5.50955">
        <ele>519.72985839844</ele>
        <time>2023-09-27T10:06:13Z</time>
      </trkpt>
      <trkpt lat="43.39804" lon="5.50953">
        <ele>519.72985839844</ele>
        <time>2023-09-27T10:06:26Z</time>
      </trkpt>
      <trkpt lat="43.39803" lon="5.50954">
        <ele>519.24926757812</ele>
        <time>2023-09-27T10:06:28Z</time>
      </trkpt>
      <trkpt lat="43.39784" lon="5.50942">
        <ele>518.28784179688</ele>
        <time>2023-09-27T10:06:47Z</time>
      </trkpt>
      <trkpt lat="43.39765" lon="5.5091">
        <ele>517.32666015625</ele>
        <time>2023-09-27T10:07:11Z</time>
      </trkpt>
      <trkpt lat="43.3976" lon="5.50898">
        <ele>516.84594726562</ele>
        <time>2023-09-27T10:07:19Z</time>
      </trkpt>
      <trkpt lat="43.39747" lon="5.5086">
        <ele>515.88464355469</ele>
        <time>2023-09-27T10:07:44Z</time>
      </trkpt>
      <trkpt lat="43.39734" lon="5.50826">
        <ele>513.96203613281</ele>
        <time>2023-09-27T10:08:06Z</time>
      </trkpt>
      <trkpt lat="43.39733" lon="5.50825">
        <ele>513.4814453125</ele>
        <time>2023-09-27T10:08:07Z</time>
      </trkpt>
      <trkpt lat="43.39732" lon="5.50819">
        <ele>513.4814453125</ele>
        <time>2023-09-27T10:08:11Z</time>
      </trkpt>
      <trkpt lat="43.3973" lon="5.50817">
        <ele>513.00073242188</ele>
        <time>2023-09-27T10:08:13Z</time>
      </trkpt>
      <trkpt lat="43.39727" lon="5.50811">
        <ele>512.52001953125</ele>
        <time>2023-09-27T10:08:19Z</time>
      </trkpt>
      <trkpt lat="43.39714" lon="5.50779">
        <ele>510.59729003906</ele>
        <time>2023-09-27T10:08:39Z</time>
      </trkpt>
      <trkpt lat="43.3971" lon="5.50746">
        <ele>509.63610839844</ele>
        <time>2023-09-27T10:08:57Z</time>
      </trkpt>
      <trkpt lat="43.39701" lon="5.50709">
        <ele>507.71350097656</ele>
        <time>2023-09-27T10:09:20Z</time>
      </trkpt>
      <trkpt lat="43.3968" lon="5.50683">
        <ele>505.31018066406</ele>
        <time>2023-09-27T10:09:45Z</time>
      </trkpt>
      <trkpt lat="43.39659" lon="5.50656">
        <ele>502.42614746094</ele>
        <time>2023-09-27T10:10:10Z</time>
      </trkpt>
      <trkpt lat="43.39635" lon="5.50645">
        <ele>500.50354003906</ele>
        <time>2023-09-27T10:10:32Z</time>
      </trkpt>
      <trkpt lat="43.39606" lon="5.50636">
        <ele>498.10034179688</ele>
        <time>2023-09-27T10:10:57Z</time>
      </trkpt>
      <trkpt lat="43.39591" lon="5.50632">
        <ele>496.177734375</ele>
        <time>2023-09-27T10:11:11Z</time>
      </trkpt>
      <trkpt lat="43.39569" lon="5.50629">
        <ele>494.25500488281</ele>
        <time>2023-09-27T10:11:31Z</time>
      </trkpt>
      <trkpt lat="43.39552" lon="5.50628">
        <ele>492.33239746094</ele>
        <time>2023-09-27T10:11:46Z</time>
      </trkpt>
      <trkpt lat="43.39544" lon="5.50627">
        <ele>491.85168457031</ele>
        <time>2023-09-27T10:11:58Z</time>
      </trkpt>
      <trkpt lat="43.39524" lon="5.50627">
        <ele>490.89038085938</ele>
        <time>2023-09-27T10:12:16Z</time>
      </trkpt>
      <trkpt lat="43.39503" lon="5.50625">
        <ele>489.44836425781</ele>
        <time>2023-09-27T10:12:34Z</time>
      </trkpt>
      <trkpt lat="43.39482" lon="5.5062">
        <ele>488.00646972656</ele>
        <time>2023-09-27T10:12:52Z</time>
      </trkpt>
      <trkpt lat="43.39463" lon="5.50592">
        <ele>485.60302734375</ele>
        <time>2023-09-27T10:13:16Z</time>
      </trkpt>
      <trkpt lat="43.3946" lon="5.5055">
        <ele>482.23852539062</ele>
        <time>2023-09-27T10:13:41Z</time>
      </trkpt>
      <trkpt lat="43.39459" lon="5.50515">
        <ele>479.3544921875</ele>
        <time>2023-09-27T10:14:02Z</time>
      </trkpt>
      <trkpt lat="43.39455" lon="5.50482">
        <ele>475.98986816406</ele>
        <time>2023-09-27T10:14:25Z</time>
      </trkpt>
      <trkpt lat="43.39453" lon="5.5044">
        <ele>473.10607910156</ele>
        <time>2023-09-27T10:14:52Z</time>
      </trkpt>
      <trkpt lat="43.39453" lon="5.50436">
        <ele>473.10607910156</ele>
        <time>2023-09-27T10:14:55Z</time>
      </trkpt>
      <trkpt lat="43.39462" lon="5.50411">
        <ele>470.22192382812</ele>
        <time>2023-09-27T10:15:14Z</time>
      </trkpt>
      <trkpt lat="43.39467" lon="5.50383">
        <ele>468.78002929688</ele>
        <time>2023-09-27T10:15:34Z</time>
      </trkpt>
      <trkpt lat="43.39457" lon="5.50375">
        <ele>466.857421875</ele>
        <time>2023-09-27T10:15:46Z</time>
      </trkpt>
      <trkpt lat="43.3945" lon="5.50382">
        <ele>465.41552734375</ele>
        <time>2023-09-27T10:15:55Z</time>
      </trkpt>
      <trkpt lat="43.39441" lon="5.50389">
        <ele>465.41552734375</ele>
        <time>2023-09-27T10:16:12Z</time>
      </trkpt>
      <trkpt lat="43.39426" lon="5.50393">
        <ele>463.97338867188</ele>
        <time>2023-09-27T10:16:31Z</time>
      </trkpt>
      <trkpt lat="43.39411" lon="5.50394">
        <ele>463.01208496094</ele>
        <time>2023-09-27T10:16:48Z</time>
      </trkpt>
      <trkpt lat="43.39395" lon="5.50395">
        <ele>460.60876464844</ele>
        <time>2023-09-27T10:17:06Z</time>
      </trkpt>
      <trkpt lat="43.39377" lon="5.50396">
        <ele>459.16687011719</ele>
        <time>2023-09-27T10:17:28Z</time>
      </trkpt>
      <trkpt lat="43.39356" lon="5.50392">
        <ele>455.80224609375</ele>
        <time>2023-09-27T10:17:47Z</time>
      </trkpt>
      <trkpt lat="43.3933" lon="5.50396">
        <ele>453.39892578125</ele>
        <time>2023-09-27T10:18:09Z</time>
      </trkpt>
      <trkpt lat="43.39312" lon="5.504">
        <ele>452.43762207031</ele>
        <time>2023-09-27T10:18:25Z</time>
      </trkpt>
      <trkpt lat="43.39288" lon="5.50417">
        <ele>450.51501464844</ele>
        <time>2023-09-27T10:18:47Z</time>
      </trkpt>
      <trkpt lat="43.39271" lon="5.50433">
        <ele>450.99560546875</ele>
        <time>2023-09-27T10:19:04Z</time>
      </trkpt>
      <trkpt lat="43.39263" lon="5.50439">
        <ele>451.95703125</ele>
        <time>2023-09-27T10:19:47Z</time>
      </trkpt>
      <trkpt lat="43.39263" lon="5.50438">
        <ele>451.95703125</ele>
        <time>2023-09-27T10:19:51Z</time>
      </trkpt>
      <trkpt lat="43.39255" lon="5.5044">
        <ele>452.43762207031</ele>
        <time>2023-09-27T10:19:58Z</time>
      </trkpt>
      <trkpt lat="43.39242" lon="5.50438">
        <ele>451.95703125</ele>
        <time>2023-09-27T10:20:11Z</time>
      </trkpt>
      <trkpt lat="43.39241" lon="5.50437">
        <ele>451.95703125</ele>
        <time>2023-09-27T10:20:12Z</time>
      </trkpt>
      <trkpt lat="43.39215" lon="5.50435">
        <ele>452.43762207031</ele>
        <time>2023-09-27T10:20:30Z</time>
      </trkpt>
      <trkpt lat="43.39185" lon="5.50439">
        <ele>453.39892578125</ele>
        <time>2023-09-27T10:20:54Z</time>
      </trkpt>
      <trkpt lat="43.39157" lon="5.50442">
        <ele>454.8408203125</ele>
        <time>2023-09-27T10:21:16Z</time>
      </trkpt>
      <trkpt lat="43.39151" lon="5.50441">
        <ele>455.80224609375</ele>
        <time>2023-09-27T10:21:21Z</time>
      </trkpt>
      <trkpt lat="43.39125" lon="5.50433">
        <ele>455.80224609375</ele>
        <time>2023-09-27T10:21:42Z</time>
      </trkpt>
      <trkpt lat="43.39108" lon="5.50419">
        <ele>454.8408203125</ele>
        <time>2023-09-27T10:21:57Z</time>
      </trkpt>
      <trkpt lat="43.39106" lon="5.50415">
        <ele>454.36022949219</ele>
        <time>2023-09-27T10:22:14Z</time>
      </trkpt>
      <trkpt lat="43.39106" lon="5.50416">
        <ele>454.36022949219</ele>
        <time>2023-09-27T10:22:34Z</time>
      </trkpt>
      <trkpt lat="43.39103" lon="5.5042">
        <ele>454.8408203125</ele>
        <time>2023-09-27T10:22:50Z</time>
      </trkpt>
      <trkpt lat="43.39103" lon="5.50426">
        <ele>454.8408203125</ele>
        <time>2023-09-27T10:23:02Z</time>
      </trkpt>
      <trkpt lat="43.39101" lon="5.50421">
        <ele>455.80224609375</ele>
        <time>2023-09-27T10:23:17Z</time>
      </trkpt>
      <trkpt lat="43.391" lon="5.5042">
        <ele>455.32153320312</ele>
        <time>2023-09-27T10:23:47Z</time>
      </trkpt>
      <trkpt lat="43.39104" lon="5.50426">
        <ele>455.32153320312</ele>
        <time>2023-09-27T10:24:28Z</time>
      </trkpt>
      <trkpt lat="43.39101" lon="5.50432">
        <ele>455.80224609375</ele>
        <time>2023-09-27T10:24:58Z</time>
      </trkpt>
      <trkpt lat="43.39099" lon="5.5043">
        <ele>454.8408203125</ele>
        <time>2023-09-27T10:25:22Z</time>
      </trkpt>
      <trkpt lat="43.391" lon="5.50429">
        <ele>454.8408203125</ele>
        <time>2023-09-27T10:25:44Z</time>
      </trkpt>
      <trkpt lat="43.391" lon="5.50424">
        <ele>455.32153320312</ele>
        <time>2023-09-27T10:26:58Z</time>
      </trkpt>
      <trkpt lat="43.39098" lon="5.50416">
        <ele>455.32153320312</ele>
        <time>2023-09-27T10:41:42Z</time>
      </trkpt>
      <trkpt lat="43.39101" lon="5.50418">
        <ele>455.32153320312</ele>
        <time>2023-09-27T10:49:00Z</time>
      </trkpt>
      <trkpt lat="43.39101" lon="5.50421">
        <ele>455.32153320312</ele>
        <time>2023-09-27T10:49:43Z</time>
      </trkpt>
      <trkpt lat="43.39099" lon="5.5042">
        <ele>455.80224609375</ele>
        <time>2023-09-27T10:53:25Z</time>
      </trkpt>
      <trkpt lat="43.39098" lon="5.5043">
        <ele>455.32153320312</ele>
        <time>2023-09-27T10:53:52Z</time>
      </trkpt>
      <trkpt lat="43.391" lon="5.50431">
        <ele>455.80224609375</ele>
        <time>2023-09-27T10:54:25Z</time>
      </trkpt>
      <trkpt lat="43.39095" lon="5.5042">
        <ele>455.32153320312</ele>
        <time>2023-09-27T11:00:48Z</time>
      </trkpt>
      <trkpt lat="43.39096" lon="5.50422">
        <ele>454.8408203125</ele>
        <time>2023-09-27T11:01:11Z</time>
      </trkpt>
      <trkpt lat="43.39095" lon="5.50421">
        <ele>455.80224609375</ele>
        <time>2023-09-27T11:01:58Z</time>
      </trkpt>
      <trkpt lat="43.39097" lon="5.50422">
        <ele>455.32153320312</ele>
        <time>2023-09-27T11:03:00Z</time>
      </trkpt>
      <trkpt lat="43.39098" lon="5.50422">
        <ele>455.32153320312</ele>
        <time>2023-09-27T11:03:34Z</time>
      </trkpt>
      <trkpt lat="43.39099" lon="5.50422">
        <ele>455.80224609375</ele>
        <time>2023-09-27T11:04:35Z</time>
      </trkpt>
      <trkpt lat="43.39103" lon="5.50427">
        <ele>455.80224609375</ele>
        <time>2023-09-27T11:05:56Z</time>
      </trkpt>
      <trkpt lat="43.391" lon="5.50426">
        <ele>455.80224609375</ele>
        <time>2023-09-27T11:07:06Z</time>
      </trkpt>
      <trkpt lat="43.391" lon="5.50422">
        <ele>456.28295898438</ele>
        <time>2023-09-27T11:10:13Z</time>
      </trkpt>
      <trkpt lat="43.39102" lon="5.50422">
        <ele>456.28295898438</ele>
        <time>2023-09-27T11:10:29Z</time>
      </trkpt>
      <trkpt lat="43.39101" lon="5.50422">
        <ele>456.28295898438</ele>
        <time>2023-09-27T11:11:02Z</time>
      </trkpt>
      <trkpt lat="43.39093" lon="5.50413">
        <ele>454.8408203125</ele>
        <time>2023-09-27T11:11:20Z</time>
      </trkpt>
      <trkpt lat="43.39089" lon="5.50403">
        <ele>453.87963867188</ele>
        <time>2023-09-27T11:11:35Z</time>
      </trkpt>
      <trkpt lat="43.39087" lon="5.50396">
        <ele>453.39892578125</ele>
        <time>2023-09-27T11:11:48Z</time>
      </trkpt>
      <trkpt lat="43.39078" lon="5.50384">
        <ele>451.95703125</ele>
        <time>2023-09-27T11:12:02Z</time>
      </trkpt>
      <trkpt lat="43.39072" lon="5.50382">
        <ele>453.39892578125</ele>
        <time>2023-09-27T11:12:11Z</time>
      </trkpt>
      <trkpt lat="43.39061" lon="5.5039">
        <ele>450.51501464844</ele>
        <time>2023-09-27T11:12:25Z</time>
      </trkpt>
      <trkpt lat="43.39059" lon="5.50394">
        <ele>450.99560546875</ele>
        <time>2023-09-27T11:12:29Z</time>
      </trkpt>
      <trkpt lat="43.39043" lon="5.50415">
        <ele>448.59240722656</ele>
        <time>2023-09-27T11:12:50Z</time>
      </trkpt>
      <trkpt lat="43.39037" lon="5.5042">
        <ele>446.66967773438</ele>
        <time>2023-09-27T11:12:56Z</time>
      </trkpt>
      <trkpt lat="43.39015" lon="5.50422">
        <ele>443.78576660156</ele>
        <time>2023-09-27T11:13:19Z</time>
      </trkpt>
      <trkpt lat="43.38994" lon="5.50428">
        <ele>440.90185546875</ele>
        <time>2023-09-27T11:13:40Z</time>
      </trkpt>
      <trkpt lat="43.38966" lon="5.50434">
        <ele>438.97912597656</ele>
        <time>2023-09-27T11:14:08Z</time>
      </trkpt>
      <trkpt lat="43.38937" lon="5.50437">
        <ele>438.01782226562</ele>
        <time>2023-09-27T11:14:34Z</time>
      </trkpt>
      <trkpt lat="43.38933" lon="5.50437">
        <ele>438.01782226562</ele>
        <time>2023-09-27T11:14:40Z</time>
      </trkpt>
      <trkpt lat="43.38918" lon="5.50423">
        <ele>437.05651855469</ele>
        <time>2023-09-27T11:14:56Z</time>
      </trkpt>
      <trkpt lat="43.38907" lon="5.50399">
        <ele>435.13391113281</ele>
        <time>2023-09-27T11:15:17Z</time>
      </trkpt>
      <trkpt lat="43.38921" lon="5.50386">
        <ele>434.17260742188</ele>
        <time>2023-09-27T11:15:32Z</time>
      </trkpt>
      <trkpt lat="43.3894" lon="5.50374">
        <ele>432.25</ele>
        <time>2023-09-27T11:15:53Z</time>
      </trkpt>
      <trkpt lat="43.38956" lon="5.5036">
        <ele>430.32727050781</ele>
        <time>2023-09-27T11:16:15Z</time>
      </trkpt>
      <trkpt lat="43.38966" lon="5.50346">
        <ele>429.36596679688</ele>
        <time>2023-09-27T11:16:29Z</time>
      </trkpt>
      <trkpt lat="43.38964" lon="5.50328">
        <ele>428.88537597656</ele>
        <time>2023-09-27T11:16:46Z</time>
      </trkpt>
      <trkpt lat="43.38962" lon="5.50324">
        <ele>428.40466308594</ele>
        <time>2023-09-27T11:16:50Z</time>
      </trkpt>
      <trkpt lat="43.38951" lon="5.50302">
        <ele>426.96276855469</ele>
        <time>2023-09-27T11:17:10Z</time>
      </trkpt>
      <trkpt lat="43.38943" lon="5.50282">
        <ele>425.04016113281</ele>
        <time>2023-09-27T11:17:29Z</time>
      </trkpt>
      <trkpt lat="43.38931" lon="5.50257">
        <ele>422.15600585938</ele>
        <time>2023-09-27T11:17:58Z</time>
      </trkpt>
      <trkpt lat="43.38925" lon="5.50231">
        <ele>420.2333984375</ele>
        <time>2023-09-27T11:18:19Z</time>
      </trkpt>
      <trkpt lat="43.38923" lon="5.50209">
        <ele>417.83020019531</ele>
        <time>2023-09-27T11:18:38Z</time>
      </trkpt>
      <trkpt lat="43.38922" lon="5.50196">
        <ele>417.349609375</ele>
        <time>2023-09-27T11:18:48Z</time>
      </trkpt>
      <trkpt lat="43.38924" lon="5.50175">
        <ele>415.90747070312</ele>
        <time>2023-09-27T11:19:08Z</time>
      </trkpt>
      <trkpt lat="43.38929" lon="5.50154">
        <ele>413.98486328125</ele>
        <time>2023-09-27T11:19:27Z</time>
      </trkpt>
      <trkpt lat="43.38934" lon="5.50138">
        <ele>413.02355957031</ele>
        <time>2023-09-27T11:19:39Z</time>
      </trkpt>
      <trkpt lat="43.38935" lon="5.5013">
        <ele>412.54284667969</ele>
        <time>2023-09-27T11:19:46Z</time>
      </trkpt>
      <trkpt lat="43.38939" lon="5.50111">
        <ele>410.62023925781</ele>
        <time>2023-09-27T11:20:01Z</time>
      </trkpt>
      <trkpt lat="43.38937" lon="5.50078">
        <ele>408.21704101562</ele>
        <time>2023-09-27T11:20:25Z</time>
      </trkpt>
      <trkpt lat="43.38934" lon="5.50048">
        <ele>404.85229492188</ele>
        <time>2023-09-27T11:20:48Z</time>
      </trkpt>
      <trkpt lat="43.38935" lon="5.5004">
        <ele>404.37170410156</ele>
        <time>2023-09-27T11:20:55Z</time>
      </trkpt>
      <trkpt lat="43.38936" lon="5.50036">
        <ele>404.37170410156</ele>
        <time>2023-09-27T11:20:58Z</time>
      </trkpt>
      <trkpt lat="43.38935" lon="5.50009">
        <ele>401.00708007812</ele>
        <time>2023-09-27T11:21:18Z</time>
      </trkpt>
      <trkpt lat="43.38933" lon="5.49979">
        <ele>397.64245605469</ele>
        <time>2023-09-27T11:21:41Z</time>
      </trkpt>
      <trkpt lat="43.38936" lon="5.49962">
        <ele>397.16174316406</ele>
        <time>2023-09-27T11:21:55Z</time>
      </trkpt>
      <trkpt lat="43.38936" lon="5.49948">
        <ele>396.68115234375</ele>
        <time>2023-09-27T11:22:06Z</time>
      </trkpt>
      <trkpt lat="43.38941" lon="5.49913">
        <ele>395.71984863281</ele>
        <time>2023-09-27T11:22:31Z</time>
      </trkpt>
      <trkpt lat="43.38957" lon="5.49907">
        <ele>395.71984863281</ele>
        <time>2023-09-27T11:22:48Z</time>
      </trkpt>
      <trkpt lat="43.38963" lon="5.49912">
        <ele>395.71984863281</ele>
        <time>2023-09-27T11:22:54Z</time>
      </trkpt>
      <trkpt lat="43.38983" lon="5.49926">
        <ele>393.79724121094</ele>
        <time>2023-09-27T11:23:15Z</time>
      </trkpt>
      <trkpt lat="43.39005" lon="5.49937">
        <ele>392.35534667969</ele>
        <time>2023-09-27T11:23:37Z</time>
      </trkpt>
      <trkpt lat="43.3902" lon="5.49942">
        <ele>391.39379882812</ele>
        <time>2023-09-27T11:23:52Z</time>
      </trkpt>
      <trkpt lat="43.39042" lon="5.49947">
        <ele>389.47119140625</ele>
        <time>2023-09-27T11:24:14Z</time>
      </trkpt>
      <trkpt lat="43.39042" lon="5.49948">
        <ele>389.95190429688</ele>
        <time>2023-09-27T11:24:17Z</time>
      </trkpt>
      <trkpt lat="43.39061" lon="5.49949">
        <ele>387.54858398438</ele>
        <time>2023-09-27T11:24:35Z</time>
      </trkpt>
      <trkpt lat="43.39081" lon="5.49952">
        <ele>385.6259765625</ele>
        <time>2023-09-27T11:24:55Z</time>
      </trkpt>
      <trkpt lat="43.39102" lon="5.49961">
        <ele>383.70324707031</ele>
        <time>2023-09-27T11:25:16Z</time>
      </trkpt>
      <trkpt lat="43.3912" lon="5.4997">
        <ele>382.26135253906</ele>
        <time>2023-09-27T11:25:34Z</time>
      </trkpt>
      <trkpt lat="43.39128" lon="5.49989">
        <ele>380.81945800781</ele>
        <time>2023-09-27T11:25:50Z</time>
      </trkpt>
      <trkpt lat="43.39133" lon="5.50005">
        <ele>379.37744140625</ele>
        <time>2023-09-27T11:26:11Z</time>
      </trkpt>
      <trkpt lat="43.39131" lon="5.50004">
        <ele>379.37744140625</ele>
        <time>2023-09-27T11:26:38Z</time>
      </trkpt>
      <trkpt lat="43.39131" lon="5.50014">
        <ele>378.41613769531</ele>
        <time>2023-09-27T11:27:28Z</time>
      </trkpt>
      <trkpt lat="43.39131" lon="5.50027">
        <ele>377.93542480469</ele>
        <time>2023-09-27T11:27:39Z</time>
      </trkpt>
      <trkpt lat="43.39128" lon="5.50044">
        <ele>376.49353027344</ele>
        <time>2023-09-27T11:27:54Z</time>
      </trkpt>
      <trkpt lat="43.39129" lon="5.50052">
        <ele>375.53210449219</ele>
        <time>2023-09-27T11:28:02Z</time>
      </trkpt>
      <trkpt lat="43.39133" lon="5.50069">
        <ele>373.60949707031</ele>
        <time>2023-09-27T11:28:17Z</time>
      </trkpt>
      <trkpt lat="43.39136" lon="5.50075">
        <ele>372.64819335938</ele>
        <time>2023-09-27T11:28:23Z</time>
      </trkpt>
      <trkpt lat="43.39141" lon="5.50067">
        <ele>372.64819335938</ele>
        <time>2023-09-27T11:28:38Z</time>
      </trkpt>
      <trkpt lat="43.3914" lon="5.50065">
        <ele>372.64819335938</ele>
        <time>2023-09-27T11:28:40Z</time>
      </trkpt>
      <trkpt lat="43.39143" lon="5.50039">
        <ele>371.68688964844</ele>
        <time>2023-09-27T11:28:58Z</time>
      </trkpt>
      <trkpt lat="43.39152" lon="5.50006">
        <ele>370.7255859375</ele>
        <time>2023-09-27T11:29:23Z</time>
      </trkpt>
      <trkpt lat="43.39154" lon="5.49984">
        <ele>370.24487304688</ele>
        <time>2023-09-27T11:29:38Z</time>
      </trkpt>
      <trkpt lat="43.39153" lon="5.49963">
        <ele>367.84155273438</ele>
        <time>2023-09-27T11:29:54Z</time>
      </trkpt>
      <trkpt lat="43.39153" lon="5.4995">
        <ele>366.88024902344</ele>
        <time>2023-09-27T11:30:03Z</time>
      </trkpt>
      <trkpt lat="43.39148" lon="5.49932">
        <ele>366.88024902344</ele>
        <time>2023-09-27T11:30:16Z</time>
      </trkpt>
      <trkpt lat="43.3913" lon="5.49916">
        <ele>365.43835449219</ele>
        <time>2023-09-27T11:30:35Z</time>
      </trkpt>
      <trkpt lat="43.39124" lon="5.49909">
        <ele>365.43835449219</ele>
        <time>2023-09-27T11:30:43Z</time>
      </trkpt>
      <trkpt lat="43.39108" lon="5.49897">
        <ele>363.99633789062</ele>
        <time>2023-09-27T11:31:00Z</time>
      </trkpt>
      <trkpt lat="43.39095" lon="5.49891">
        <ele>363.99633789062</ele>
        <time>2023-09-27T11:31:13Z</time>
      </trkpt>
      <trkpt lat="43.39094" lon="5.49891">
        <ele>363.51574707031</ele>
        <time>2023-09-27T11:31:15Z</time>
      </trkpt>
      <trkpt lat="43.39082" lon="5.4989">
        <ele>363.03503417969</ele>
        <time>2023-09-27T11:31:26Z</time>
      </trkpt>
      <trkpt lat="43.39067" lon="5.49886">
        <ele>362.55432128906</ele>
        <time>2023-09-27T11:31:39Z</time>
      </trkpt>
      <trkpt lat="43.39046" lon="5.49872">
        <ele>361.59313964844</ele>
        <time>2023-09-27T11:32:02Z</time>
      </trkpt>
      <trkpt lat="43.39044" lon="5.49871">
        <ele>362.07373046875</ele>
        <time>2023-09-27T11:32:04Z</time>
      </trkpt>
      <trkpt lat="43.39041" lon="5.49868">
        <ele>361.59313964844</ele>
        <time>2023-09-27T11:32:08Z</time>
      </trkpt>
      <trkpt lat="43.39025" lon="5.49856">
        <ele>360.15112304688</ele>
        <time>2023-09-27T11:32:28Z</time>
      </trkpt>
      <trkpt lat="43.39001" lon="5.49843">
        <ele>359.18969726562</ele>
        <time>2023-09-27T11:32:50Z</time>
      </trkpt>
      <trkpt lat="43.38989" lon="5.49836">
        <ele>358.708984375</ele>
        <time>2023-09-27T11:33:03Z</time>
      </trkpt>
      <trkpt lat="43.38986" lon="5.49833">
        <ele>358.22839355469</ele>
        <time>2023-09-27T11:33:06Z</time>
      </trkpt>
      <trkpt lat="43.38969" lon="5.49813">
        <ele>358.22839355469</ele>
        <time>2023-09-27T11:33:27Z</time>
      </trkpt>
      <trkpt lat="43.3896" lon="5.49786">
        <ele>357.26708984375</ele>
        <time>2023-09-27T11:33:47Z</time>
      </trkpt>
      <trkpt lat="43.38955" lon="5.49775">
        <ele>355.34448242188</ele>
        <time>2023-09-27T11:34:02Z</time>
      </trkpt>
      <trkpt lat="43.38946" lon="5.49768">
        <ele>354.86376953125</ele>
        <time>2023-09-27T11:34:13Z</time>
      </trkpt>
      <trkpt lat="43.38919" lon="5.49757">
        <ele>353.90258789062</ele>
        <time>2023-09-27T11:34:34Z</time>
      </trkpt>
      <trkpt lat="43.38895" lon="5.49759">
        <ele>352.46057128906</ele>
        <time>2023-09-27T11:34:54Z</time>
      </trkpt>
      <trkpt lat="43.38872" lon="5.49769">
        <ele>351.97985839844</ele>
        <time>2023-09-27T11:35:16Z</time>
      </trkpt>
      <trkpt lat="43.38858" lon="5.49777">
        <ele>350.53784179688</ele>
        <time>2023-09-27T11:35:30Z</time>
      </trkpt>
      <trkpt lat="43.38853" lon="5.49779">
        <ele>350.05725097656</ele>
        <time>2023-09-27T11:35:34Z</time>
      </trkpt>
      <trkpt lat="43.38841" lon="5.49788">
        <ele>349.09582519531</ele>
        <time>2023-09-27T11:35:47Z</time>
      </trkpt>
      <trkpt lat="43.3884" lon="5.49789">
        <ele>349.09582519531</ele>
        <time>2023-09-27T11:35:48Z</time>
      </trkpt>
      <trkpt lat="43.38834" lon="5.49786">
        <ele>349.57653808594</ele>
        <time>2023-09-27T11:35:54Z</time>
      </trkpt>
      <trkpt lat="43.3882" lon="5.49794">
        <ele>348.615234375</ele>
        <time>2023-09-27T11:36:09Z</time>
      </trkpt>
      <trkpt lat="43.38819" lon="5.49794">
        <ele>348.615234375</ele>
        <time>2023-09-27T11:36:10Z</time>
      </trkpt>
      <trkpt lat="43.38808" lon="5.49787">
        <ele>347.65393066406</ele>
        <time>2023-09-27T11:36:21Z</time>
      </trkpt>
      <trkpt lat="43.38802" lon="5.4978">
        <ele>347.17321777344</ele>
        <time>2023-09-27T11:36:29Z</time>
      </trkpt>
      <trkpt lat="43.38794" lon="5.49767">
        <ele>346.21203613281</ele>
        <time>2023-09-27T11:36:40Z</time>
      </trkpt>
      <trkpt lat="43.38785" lon="5.49739">
        <ele>344.77001953125</ele>
        <time>2023-09-27T11:37:00Z</time>
      </trkpt>
      <trkpt lat="43.38785" lon="5.49736">
        <ele>344.28942871094</ele>
        <time>2023-09-27T11:37:01Z</time>
      </trkpt>
      <trkpt lat="43.38791" lon="5.49729">
        <ele>344.28942871094</ele>
        <time>2023-09-27T11:37:09Z</time>
      </trkpt>
      <trkpt lat="43.38795" lon="5.49712">
        <ele>343.80859375</ele>
        <time>2023-09-27T11:37:21Z</time>
      </trkpt>
      <trkpt lat="43.38795" lon="5.49708">
        <ele>343.32788085938</ele>
        <time>2023-09-27T11:37:23Z</time>
      </trkpt>
      <trkpt lat="43.38799" lon="5.49691">
        <ele>342.84729003906</ele>
        <time>2023-09-27T11:37:32Z</time>
      </trkpt>
      <trkpt lat="43.38803" lon="5.49672">
        <ele>342.36669921875</ele>
        <time>2023-09-27T11:37:45Z</time>
      </trkpt>
      <trkpt lat="43.38804" lon="5.49671">
        <ele>342.36669921875</ele>
        <time>2023-09-27T11:37:46Z</time>
      </trkpt>
      <trkpt lat="43.38806" lon="5.49664">
        <ele>342.36669921875</ele>
        <time>2023-09-27T11:37:50Z</time>
      </trkpt>
      <trkpt lat="43.3881" lon="5.49656">
        <ele>341.88598632812</ele>
        <time>2023-09-27T11:37:56Z</time>
      </trkpt>
      <trkpt lat="43.38811" lon="5.4965">
        <ele>341.4052734375</ele>
        <time>2023-09-27T11:37:59Z</time>
      </trkpt>
      <trkpt lat="43.38813" lon="5.49645">
        <ele>341.4052734375</ele>
        <time>2023-09-27T11:38:03Z</time>
      </trkpt>
      <trkpt lat="43.38814" lon="5.49635">
        <ele>340.92468261719</ele>
        <time>2023-09-27T11:38:19Z</time>
      </trkpt>
      <trkpt lat="43.38817" lon="5.4963">
        <ele>340.44409179688</ele>
        <time>2023-09-27T11:38:38Z</time>
      </trkpt>
      <trkpt lat="43.38829" lon="5.49605">
        <ele>339.00207519531</ele>
        <time>2023-09-27T11:39:38Z</time>
      </trkpt>
      <trkpt lat="43.38833" lon="5.49598">
        <ele>338.521484375</ele>
        <time>2023-09-27T11:39:44Z</time>
      </trkpt>
      <trkpt lat="43.38836" lon="5.49585">
        <ele>338.04077148438</ele>
        <time>2023-09-27T11:39:54Z</time>
      </trkpt>
      <trkpt lat="43.38829" lon="5.49559">
        <ele>337.07946777344</ele>
        <time>2023-09-27T11:40:08Z</time>
      </trkpt>
      <trkpt lat="43.38828" lon="5.49557">
        <ele>336.59887695312</ele>
        <time>2023-09-27T11:40:10Z</time>
      </trkpt>
      <trkpt lat="43.38823" lon="5.4955">
        <ele>336.1181640625</ele>
        <time>2023-09-27T11:40:16Z</time>
      </trkpt>
      <trkpt lat="43.38817" lon="5.49547">
        <ele>335.63732910156</ele>
        <time>2023-09-27T11:40:22Z</time>
      </trkpt>
      <trkpt lat="43.38809" lon="5.49531">
        <ele>334.67614746094</ele>
        <time>2023-09-27T11:40:38Z</time>
      </trkpt>
      <trkpt lat="43.38802" lon="5.49523">
        <ele>334.19543457031</ele>
        <time>2023-09-27T11:40:51Z</time>
      </trkpt>
      <trkpt lat="43.38799" lon="5.49518">
        <ele>334.19543457031</ele>
        <time>2023-09-27T11:41:02Z</time>
      </trkpt>
      <trkpt lat="43.38804" lon="5.49514">
        <ele>333.71472167969</ele>
        <time>2023-09-27T11:41:35Z</time>
      </trkpt>
      <trkpt lat="43.38805" lon="5.49514">
        <ele>334.19543457031</ele>
        <time>2023-09-27T11:41:59Z</time>
      </trkpt>
      <trkpt lat="43.38805" lon="5.49514">
        <ele>333.71472167969</ele>
        <time>2023-09-27T11:42:01Z</time>
      </trkpt>
      <trkpt lat="43.38804" lon="5.49515">
        <ele>334.67614746094</ele>
        <time>2023-09-27T11:42:13Z</time>
      </trkpt>
      <trkpt lat="43.38797" lon="5.49513">
        <ele>334.19543457031</ele>
        <time>2023-09-27T11:42:30Z</time>
      </trkpt>
      <trkpt lat="43.38787" lon="5.49507">
        <ele>334.19543457031</ele>
        <time>2023-09-27T11:42:50Z</time>
      </trkpt>
      <trkpt lat="43.38782" lon="5.49502">
        <ele>333.71472167969</ele>
        <time>2023-09-27T11:42:56Z</time>
      </trkpt>
      <trkpt lat="43.38777" lon="5.49502">
        <ele>333.23413085938</ele>
        <time>2023-09-27T11:43:01Z</time>
      </trkpt>
      <trkpt lat="43.38765" lon="5.49492">
        <ele>333.23413085938</ele>
        <time>2023-09-27T11:43:13Z</time>
      </trkpt>
      <trkpt lat="43.3875" lon="5.49482">
        <ele>333.23413085938</ele>
        <time>2023-09-27T11:43:30Z</time>
      </trkpt>
      <trkpt lat="43.38748" lon="5.49481">
        <ele>332.75354003906</ele>
        <time>2023-09-27T11:43:33Z</time>
      </trkpt>
      <trkpt lat="43.38749" lon="5.49459">
        <ele>332.27282714844</ele>
        <time>2023-09-27T11:43:47Z</time>
      </trkpt>
      <trkpt lat="43.38751" lon="5.4945">
        <ele>331.3115234375</ele>
        <time>2023-09-27T11:43:54Z</time>
      </trkpt>
      <trkpt lat="43.38753" lon="5.49424">
        <ele>329.86950683594</ele>
        <time>2023-09-27T11:44:12Z</time>
      </trkpt>
      <trkpt lat="43.38758" lon="5.49406">
        <ele>330.35021972656</ele>
        <time>2023-09-27T11:44:22Z</time>
      </trkpt>
      <trkpt lat="43.38764" lon="5.49392">
        <ele>329.38891601562</ele>
        <time>2023-09-27T11:44:31Z</time>
      </trkpt>
      <trkpt lat="43.38763" lon="5.49383">
        <ele>329.38891601562</ele>
        <time>2023-09-27T11:44:35Z</time>
      </trkpt>
      <trkpt lat="43.38765" lon="5.49357">
        <ele>328.90832519531</ele>
        <time>2023-09-27T11:44:49Z</time>
      </trkpt>
      <trkpt lat="43.38765" lon="5.49347">
        <ele>328.42761230469</ele>
        <time>2023-09-27T11:44:56Z</time>
      </trkpt>
      <trkpt lat="43.38772" lon="5.49335">
        <ele>327.94677734375</ele>
        <time>2023-09-27T11:45:05Z</time>
      </trkpt>
      <trkpt lat="43.38772" lon="5.49331">
        <ele>327.94677734375</ele>
        <time>2023-09-27T11:45:07Z</time>
      </trkpt>
      <trkpt lat="43.38771" lon="5.49327">
        <ele>327.94677734375</ele>
        <time>2023-09-27T11:45:20Z</time>
      </trkpt>
      <trkpt lat="43.38769" lon="5.49328">
        <ele>327.94677734375</ele>
        <time>2023-09-27T11:45:44Z</time>
      </trkpt>
      <trkpt lat="43.38764" lon="5.49327">
        <ele>327.94677734375</ele>
        <time>2023-09-27T11:45:48Z</time>
      </trkpt>
      <trkpt lat="43.3876" lon="5.49325">
        <ele>327.46618652344</ele>
        <time>2023-09-27T11:46:05Z</time>
      </trkpt>
      <trkpt lat="43.38769" lon="5.49324">
        <ele>327.94677734375</ele>
        <time>2023-09-27T11:46:56Z</time>
      </trkpt>
      <trkpt lat="43.38774" lon="5.49324">
        <ele>328.42761230469</ele>
        <time>2023-09-27T11:47:01Z</time>
      </trkpt>
      <trkpt lat="43.38789" lon="5.49323">
        <ele>329.38891601562</ele>
        <time>2023-09-27T11:47:16Z</time>
      </trkpt>
      <trkpt lat="43.38806" lon="5.49323">
        <ele>330.35021972656</ele>
        <time>2023-09-27T11:47:30Z</time>
      </trkpt>
      <trkpt lat="43.38809" lon="5.49323">
        <ele>331.3115234375</ele>
        <time>2023-09-27T11:47:33Z</time>
      </trkpt>
      <trkpt lat="43.38814" lon="5.49324">
        <ele>330.83093261719</ele>
        <time>2023-09-27T11:47:38Z</time>
      </trkpt>
      <trkpt lat="43.38818" lon="5.49325">
        <ele>331.3115234375</ele>
        <time>2023-09-27T11:47:42Z</time>
      </trkpt>
      <trkpt lat="43.38826" lon="5.49328">
        <ele>331.79211425781</ele>
        <time>2023-09-27T11:47:50Z</time>
      </trkpt>
      <trkpt lat="43.38832" lon="5.49325">
        <ele>332.27282714844</ele>
        <time>2023-09-27T11:47:56Z</time>
      </trkpt>
      <trkpt lat="43.38855" lon="5.49317">
        <ele>333.71472167969</ele>
        <time>2023-09-27T11:48:16Z</time>
      </trkpt>
      <trkpt lat="43.3886" lon="5.49315">
        <ele>334.19543457031</ele>
        <time>2023-09-27T11:48:20Z</time>
      </trkpt>
      <trkpt lat="43.38889" lon="5.49309">
        <ele>335.15673828125</ele>
        <time>2023-09-27T11:48:44Z</time>
      </trkpt>
      <trkpt lat="43.3889" lon="5.49309">
        <ele>335.15673828125</ele>
        <time>2023-09-27T11:48:46Z</time>
      </trkpt>
      <trkpt lat="43.38905" lon="5.49302">
        <ele>336.59887695312</ele>
        <time>2023-09-27T11:48:59Z</time>
      </trkpt>
      <trkpt lat="43.38906" lon="5.49302">
        <ele>336.1181640625</ele>
        <time>2023-09-27T11:49:00Z</time>
      </trkpt>
      <trkpt lat="43.38911" lon="5.49302">
        <ele>336.59887695312</ele>
        <time>2023-09-27T11:49:04Z</time>
      </trkpt>
      <trkpt lat="43.38928" lon="5.49285">
        <ele>337.07946777344</ele>
        <time>2023-09-27T11:49:24Z</time>
      </trkpt>
      <trkpt lat="43.38928" lon="5.49283">
        <ele>337.56005859375</ele>
        <time>2023-09-27T11:49:33Z</time>
      </trkpt>
      <trkpt lat="43.38926" lon="5.49278">
        <ele>337.56005859375</ele>
        <time>2023-09-27T11:49:37Z</time>
      </trkpt>
      <trkpt lat="43.38922" lon="5.49277">
        <ele>337.56005859375</ele>
        <time>2023-09-27T11:49:41Z</time>
      </trkpt>
      <trkpt lat="43.38918" lon="5.49275">
        <ele>337.56005859375</ele>
        <time>2023-09-27T11:49:44Z</time>
      </trkpt>
      <trkpt lat="43.38894" lon="5.49272">
        <ele>338.521484375</ele>
        <time>2023-09-27T11:50:04Z</time>
      </trkpt>
      <trkpt lat="43.38886" lon="5.49273">
        <ele>339.00207519531</ele>
        <time>2023-09-27T11:50:11Z</time>
      </trkpt>
      <trkpt lat="43.38863" lon="5.49265">
        <ele>341.4052734375</ele>
        <time>2023-09-27T11:50:33Z</time>
      </trkpt>
      <trkpt lat="43.38862" lon="5.49264">
        <ele>341.4052734375</ele>
        <time>2023-09-27T11:50:34Z</time>
      </trkpt>
      <trkpt lat="43.38854" lon="5.49264">
        <ele>342.84729003906</ele>
        <time>2023-09-27T11:50:40Z</time>
      </trkpt>
      <trkpt lat="43.3885" lon="5.4926">
        <ele>342.84729003906</ele>
        <time>2023-09-27T11:50:44Z</time>
      </trkpt>
      <trkpt lat="43.38845" lon="5.49259">
        <ele>343.32788085938</ele>
        <time>2023-09-27T11:50:49Z</time>
      </trkpt>
      <trkpt lat="43.38826" lon="5.49255">
        <ele>345.25061035156</ele>
        <time>2023-09-27T11:51:04Z</time>
      </trkpt>
      <trkpt lat="43.38813" lon="5.49254">
        <ele>346.21203613281</ele>
        <time>2023-09-27T11:51:15Z</time>
      </trkpt>
      <trkpt lat="43.38794" lon="5.49251">
        <ele>348.13464355469</ele>
        <time>2023-09-27T11:51:32Z</time>
      </trkpt>
      <trkpt lat="43.38783" lon="5.4925">
        <ele>349.57653808594</ele>
        <time>2023-09-27T11:51:42Z</time>
      </trkpt>
      <trkpt lat="43.38777" lon="5.49248">
        <ele>350.05725097656</ele>
        <time>2023-09-27T11:51:48Z</time>
      </trkpt>
      <trkpt lat="43.38783" lon="5.49228">
        <ele>352.46057128906</ele>
        <time>2023-09-27T11:52:02Z</time>
      </trkpt>
      <trkpt lat="43.38786" lon="5.49224">
        <ele>353.421875</ele>
        <time>2023-09-27T11:52:06Z</time>
      </trkpt>
      <trkpt lat="43.38789" lon="5.49202">
        <ele>353.90258789062</ele>
        <time>2023-09-27T11:52:22Z</time>
      </trkpt>
      <trkpt lat="43.3879" lon="5.49199">
        <ele>353.90258789062</ele>
        <time>2023-09-27T11:52:48Z</time>
      </trkpt>
      <trkpt lat="43.38791" lon="5.49189">
        <ele>353.421875</ele>
        <time>2023-09-27T11:53:33Z</time>
      </trkpt>
      <trkpt lat="43.38791" lon="5.49186">
        <ele>353.90258789062</ele>
        <time>2023-09-27T11:53:39Z</time>
      </trkpt>
      <trkpt lat="43.38782" lon="5.49183">
        <ele>352.94116210938</ele>
        <time>2023-09-27T11:53:54Z</time>
      </trkpt>
      <trkpt lat="43.38777" lon="5.49181">
        <ele>352.94116210938</ele>
        <time>2023-09-27T11:54:36Z</time>
      </trkpt>
      <trkpt lat="43.38773" lon="5.49182">
        <ele>352.46057128906</ele>
        <time>2023-09-27T11:54:38Z</time>
      </trkpt>
      <trkpt lat="43.38769" lon="5.4917">
        <ele>351.97985839844</ele>
        <time>2023-09-27T11:54:51Z</time>
      </trkpt>
      <trkpt lat="43.38762" lon="5.49159">
        <ele>351.01843261719</ele>
        <time>2023-09-27T11:55:01Z</time>
      </trkpt>
      <trkpt lat="43.38754" lon="5.4914">
        <ele>349.57653808594</ele>
        <time>2023-09-27T11:55:17Z</time>
      </trkpt>
      <trkpt lat="43.38752" lon="5.49135">
        <ele>349.57653808594</ele>
        <time>2023-09-27T11:55:21Z</time>
      </trkpt>
      <trkpt lat="43.38748" lon="5.49127">
        <ele>348.13464355469</ele>
        <time>2023-09-27T11:55:27Z</time>
      </trkpt>
      <trkpt lat="43.38747" lon="5.49121">
        <ele>348.13464355469</ele>
        <time>2023-09-27T11:55:32Z</time>
      </trkpt>
      <trkpt lat="43.38741" lon="5.49106">
        <ele>346.69262695312</ele>
        <time>2023-09-27T11:55:45Z</time>
      </trkpt>
      <trkpt lat="43.38737" lon="5.49103">
        <ele>346.21203613281</ele>
        <time>2023-09-27T11:55:51Z</time>
      </trkpt>
      <trkpt lat="43.38729" lon="5.49091">
        <ele>344.77001953125</ele>
        <time>2023-09-27T11:56:04Z</time>
      </trkpt>
      <trkpt lat="43.38725" lon="5.4908">
        <ele>344.28942871094</ele>
        <time>2023-09-27T11:56:20Z</time>
      </trkpt>
      <trkpt lat="43.38721" lon="5.49076">
        <ele>343.80859375</ele>
        <time>2023-09-27T11:56:25Z</time>
      </trkpt>
      <trkpt lat="43.38717" lon="5.4907">
        <ele>343.32788085938</ele>
        <time>2023-09-27T11:56:32Z</time>
      </trkpt>
      <trkpt lat="43.38707" lon="5.49049">
        <ele>341.4052734375</ele>
        <time>2023-09-27T11:56:48Z</time>
      </trkpt>
      <trkpt lat="43.38697" lon="5.49039">
        <ele>339.96337890625</ele>
        <time>2023-09-27T11:57:00Z</time>
      </trkpt>
      <trkpt lat="43.38691" lon="5.49034">
        <ele>339.96337890625</ele>
        <time>2023-09-27T11:57:05Z</time>
      </trkpt>
      <trkpt lat="43.38678" lon="5.49025">
        <ele>338.521484375</ele>
        <time>2023-09-27T11:57:19Z</time>
      </trkpt>
      <trkpt lat="43.38676" lon="5.49011">
        <ele>335.63732910156</ele>
        <time>2023-09-27T11:57:33Z</time>
      </trkpt>
      <trkpt lat="43.38676" lon="5.48996">
        <ele>333.23413085938</ele>
        <time>2023-09-27T11:57:48Z</time>
      </trkpt>
      <trkpt lat="43.38678" lon="5.48992">
        <ele>332.75354003906</ele>
        <time>2023-09-27T11:57:55Z</time>
      </trkpt>
      <trkpt lat="43.38684" lon="5.4898">
        <ele>330.83093261719</ele>
        <time>2023-09-27T11:58:06Z</time>
      </trkpt>
      <trkpt lat="43.3868" lon="5.48973">
        <ele>329.38891601562</ele>
        <time>2023-09-27T11:58:13Z</time>
      </trkpt>
      <trkpt lat="43.38685" lon="5.48961">
        <ele>327.94677734375</ele>
        <time>2023-09-27T11:58:23Z</time>
      </trkpt>
      <trkpt lat="43.3869" lon="5.4895">
        <ele>327.46618652344</ele>
        <time>2023-09-27T11:58:31Z</time>
      </trkpt>
      <trkpt lat="43.38692" lon="5.48944">
        <ele>326.5048828125</ele>
        <time>2023-09-27T11:58:35Z</time>
      </trkpt>
      <trkpt lat="43.38702" lon="5.48937">
        <ele>325.54357910156</ele>
        <time>2023-09-27T11:58:47Z</time>
      </trkpt>
      <trkpt lat="43.38705" lon="5.48935">
        <ele>325.06298828125</ele>
        <time>2023-09-27T11:58:50Z</time>
      </trkpt>
      <trkpt lat="43.38718" lon="5.48911">
        <ele>321.69836425781</ele>
        <time>2023-09-27T11:59:12Z</time>
      </trkpt>
      <trkpt lat="43.38718" lon="5.48909">
        <ele>321.69836425781</ele>
        <time>2023-09-27T11:59:13Z</time>
      </trkpt>
      <trkpt lat="43.38728" lon="5.48887">
        <ele>319.29504394531</ele>
        <time>2023-09-27T11:59:32Z</time>
      </trkpt>
      <trkpt lat="43.3873" lon="5.48884">
        <ele>319.29504394531</ele>
        <time>2023-09-27T11:59:36Z</time>
      </trkpt>
      <trkpt lat="43.38732" lon="5.48883">
        <ele>319.29504394531</ele>
        <time>2023-09-27T11:59:38Z</time>
      </trkpt>
      <trkpt lat="43.38739" lon="5.48881">
        <ele>319.29504394531</ele>
        <time>2023-09-27T11:59:44Z</time>
      </trkpt>
      <trkpt lat="43.38748" lon="5.48879">
        <ele>319.77563476562</ele>
        <time>2023-09-27T11:59:52Z</time>
      </trkpt>
      <trkpt lat="43.38753" lon="5.48881">
        <ele>319.77563476562</ele>
        <time>2023-09-27T11:59:56Z</time>
      </trkpt>
      <trkpt lat="43.38762" lon="5.48876">
        <ele>320.25634765625</ele>
        <time>2023-09-27T12:00:05Z</time>
      </trkpt>
      <trkpt lat="43.38764" lon="5.48874">
        <ele>320.73706054688</ele>
        <time>2023-09-27T12:00:07Z</time>
      </trkpt>
      <trkpt lat="43.3878" lon="5.48872">
        <ele>320.73706054688</ele>
        <time>2023-09-27T12:00:21Z</time>
      </trkpt>
      <trkpt lat="43.38783" lon="5.48874">
        <ele>321.2177734375</ele>
        <time>2023-09-27T12:00:39Z</time>
      </trkpt>
      <trkpt lat="43.38778" lon="5.48873">
        <ele>320.73706054688</ele>
        <time>2023-09-27T12:00:48Z</time>
      </trkpt>
      <trkpt lat="43.38769" lon="5.48875">
        <ele>320.25634765625</ele>
        <time>2023-09-27T12:01:43Z</time>
      </trkpt>
      <trkpt lat="43.38765" lon="5.48875">
        <ele>320.25634765625</ele>
        <time>2023-09-27T12:01:48Z</time>
      </trkpt>
      <trkpt lat="43.38752" lon="5.4888">
        <ele>319.77563476562</ele>
        <time>2023-09-27T12:01:58Z</time>
      </trkpt>
      <trkpt lat="43.38751" lon="5.48877">
        <ele>319.77563476562</ele>
        <time>2023-09-27T12:02:00Z</time>
      </trkpt>
      <trkpt lat="43.38752" lon="5.48874">
        <ele>320.25634765625</ele>
        <time>2023-09-27T12:02:02Z</time>
      </trkpt>
      <trkpt lat="43.38758" lon="5.48845">
        <ele>320.73706054688</ele>
        <time>2023-09-27T12:02:22Z</time>
      </trkpt>
      <trkpt lat="43.38759" lon="5.48844">
        <ele>320.73706054688</ele>
        <time>2023-09-27T12:02:23Z</time>
      </trkpt>
      <trkpt lat="43.38761" lon="5.48837">
        <ele>321.2177734375</ele>
        <time>2023-09-27T12:02:28Z</time>
      </trkpt>
      <trkpt lat="43.38765" lon="5.48838">
        <ele>321.2177734375</ele>
        <time>2023-09-27T12:02:31Z</time>
      </trkpt>
      <trkpt lat="43.38779" lon="5.48825">
        <ele>321.2177734375</ele>
        <time>2023-09-27T12:02:48Z</time>
      </trkpt>
      <trkpt lat="43.38788" lon="5.48812">
        <ele>321.69836425781</ele>
        <time>2023-09-27T12:03:00Z</time>
      </trkpt>
      <trkpt lat="43.38791" lon="5.48807">
        <ele>322.65966796875</ele>
        <time>2023-09-27T12:03:04Z</time>
      </trkpt>
      <trkpt lat="43.38802" lon="5.48789">
        <ele>323.14038085938</ele>
        <time>2023-09-27T12:03:19Z</time>
      </trkpt>
      <trkpt lat="43.38809" lon="5.48772">
        <ele>324.1015625</ele>
        <time>2023-09-27T12:03:36Z</time>
      </trkpt>
      <trkpt lat="43.38811" lon="5.48768">
        <ele>324.1015625</ele>
        <time>2023-09-27T12:03:46Z</time>
      </trkpt>
      <trkpt lat="43.38823" lon="5.48743">
        <ele>325.54357910156</ele>
        <time>2023-09-27T12:04:06Z</time>
      </trkpt>
      <trkpt lat="43.38824" lon="5.4874">
        <ele>325.06298828125</ele>
        <time>2023-09-27T12:04:08Z</time>
      </trkpt>
      <trkpt lat="43.38826" lon="5.4873">
        <ele>325.54357910156</ele>
        <time>2023-09-27T12:04:15Z</time>
      </trkpt>
      <trkpt lat="43.38828" lon="5.48723">
        <ele>326.02416992188</ele>
        <time>2023-09-27T12:04:21Z</time>
      </trkpt>
      <trkpt lat="43.38828" lon="5.48718">
        <ele>325.54357910156</ele>
        <time>2023-09-27T12:04:23Z</time>
      </trkpt>
      <trkpt lat="43.38828" lon="5.48712">
        <ele>326.02416992188</ele>
        <time>2023-09-27T12:04:27Z</time>
      </trkpt>
      <trkpt lat="43.38832" lon="5.48693">
        <ele>327.46618652344</ele>
        <time>2023-09-27T12:04:40Z</time>
      </trkpt>
      <trkpt lat="43.38838" lon="5.48668">
        <ele>328.90832519531</ele>
        <time>2023-09-27T12:04:59Z</time>
      </trkpt>
      <trkpt lat="43.38839" lon="5.48669">
        <ele>328.90832519531</ele>
        <time>2023-09-27T12:05:00Z</time>
      </trkpt>
      <trkpt lat="43.38838" lon="5.48667">
        <ele>328.42761230469</ele>
        <time>2023-09-27T12:05:13Z</time>
      </trkpt>
      <trkpt lat="43.38837" lon="5.48665">
        <ele>328.90832519531</ele>
        <time>2023-09-27T12:05:15Z</time>
      </trkpt>
      <trkpt lat="43.38838" lon="5.48661">
        <ele>328.90832519531</ele>
        <time>2023-09-27T12:05:19Z</time>
      </trkpt>
      <trkpt lat="43.38838" lon="5.48659">
        <ele>328.42761230469</ele>
        <time>2023-09-27T12:05:30Z</time>
      </trkpt>
      <trkpt lat="43.38837" lon="5.48657">
        <ele>327.94677734375</ele>
        <time>2023-09-27T12:06:03Z</time>
      </trkpt>
      <trkpt lat="43.38838" lon="5.4866">
        <ele>328.42761230469</ele>
        <time>2023-09-27T12:06:48Z</time>
      </trkpt>
      <trkpt lat="43.38834" lon="5.48658">
        <ele>328.42761230469</ele>
        <time>2023-09-27T12:07:00Z</time>
      </trkpt>
      <trkpt lat="43.38836" lon="5.48641">
        <ele>328.90832519531</ele>
        <time>2023-09-27T12:07:10Z</time>
      </trkpt>
      <trkpt lat="43.38837" lon="5.48632">
        <ele>328.90832519531</ele>
        <time>2023-09-27T12:07:16Z</time>
      </trkpt>
      <trkpt lat="43.38841" lon="5.48614">
        <ele>330.35021972656</ele>
        <time>2023-09-27T12:07:29Z</time>
      </trkpt>
      <trkpt lat="43.38847" lon="5.48608">
        <ele>329.86950683594</ele>
        <time>2023-09-27T12:07:37Z</time>
      </trkpt>
      <trkpt lat="43.38852" lon="5.48605">
        <ele>330.83093261719</ele>
        <time>2023-09-27T12:07:43Z</time>
      </trkpt>
      <trkpt lat="43.38856" lon="5.48602">
        <ele>330.35021972656</ele>
        <time>2023-09-27T12:07:47Z</time>
      </trkpt>
      <trkpt lat="43.3886" lon="5.486">
        <ele>330.83093261719</ele>
        <time>2023-09-27T12:07:51Z</time>
      </trkpt>
      <trkpt lat="43.38862" lon="5.48588">
        <ele>331.3115234375</ele>
        <time>2023-09-27T12:08:05Z</time>
      </trkpt>
      <trkpt lat="43.38866" lon="5.48564">
        <ele>331.3115234375</ele>
        <time>2023-09-27T12:08:22Z</time>
      </trkpt>
      <trkpt lat="43.38873" lon="5.48542">
        <ele>330.83093261719</ele>
        <time>2023-09-27T12:08:38Z</time>
      </trkpt>
      <trkpt lat="43.38874" lon="5.48537">
        <ele>330.83093261719</ele>
        <time>2023-09-27T12:08:41Z</time>
      </trkpt>
      <trkpt lat="43.3888" lon="5.48532">
        <ele>330.35021972656</ele>
        <time>2023-09-27T12:08:46Z</time>
      </trkpt>
      <trkpt lat="43.389" lon="5.4853">
        <ele>331.3115234375</ele>
        <time>2023-09-27T12:09:02Z</time>
      </trkpt>
      <trkpt lat="43.38905" lon="5.48535">
        <ele>331.79211425781</ele>
        <time>2023-09-27T12:09:17Z</time>
      </trkpt>
      <trkpt lat="43.38921" lon="5.48538">
        <ele>332.27282714844</ele>
        <time>2023-09-27T12:09:30Z</time>
      </trkpt>
      <trkpt lat="43.3893" lon="5.48536">
        <ele>332.27282714844</ele>
        <time>2023-09-27T12:09:37Z</time>
      </trkpt>
      <trkpt lat="43.38938" lon="5.48533">
        <ele>332.27282714844</ele>
        <time>2023-09-27T12:09:45Z</time>
      </trkpt>
      <trkpt lat="43.3894" lon="5.48528">
        <ele>332.75354003906</ele>
        <time>2023-09-27T12:09:48Z</time>
      </trkpt>
      <trkpt lat="43.38945" lon="5.48524">
        <ele>332.75354003906</ele>
        <time>2023-09-27T12:09:54Z</time>
      </trkpt>
      <trkpt lat="43.38946" lon="5.48515">
        <ele>332.75354003906</ele>
        <time>2023-09-27T12:09:58Z</time>
      </trkpt>
      <trkpt lat="43.3895" lon="5.48513">
        <ele>332.75354003906</ele>
        <time>2023-09-27T12:10:02Z</time>
      </trkpt>
      <trkpt lat="43.38965" lon="5.48509">
        <ele>333.23413085938</ele>
        <time>2023-09-27T12:10:15Z</time>
      </trkpt>
      <trkpt lat="43.38986" lon="5.48503">
        <ele>334.67614746094</ele>
        <time>2023-09-27T12:10:34Z</time>
      </trkpt>
      <trkpt lat="43.39005" lon="5.48515">
        <ele>334.67614746094</ele>
        <time>2023-09-27T12:10:53Z</time>
      </trkpt>
      <trkpt lat="43.39007" lon="5.48517">
        <ele>335.15673828125</ele>
        <time>2023-09-27T12:10:55Z</time>
      </trkpt>
      <trkpt lat="43.3902" lon="5.48521">
        <ele>336.1181640625</ele>
        <time>2023-09-27T12:11:08Z</time>
      </trkpt>
      <trkpt lat="43.39032" lon="5.48526">
        <ele>338.521484375</ele>
        <time>2023-09-27T12:11:22Z</time>
      </trkpt>
      <trkpt lat="43.39042" lon="5.48531">
        <ele>339.00207519531</ele>
        <time>2023-09-27T12:11:34Z</time>
      </trkpt>
      <trkpt lat="43.3905" lon="5.48536">
        <ele>339.96337890625</ele>
        <time>2023-09-27T12:11:45Z</time>
      </trkpt>
      <trkpt lat="43.3905" lon="5.48537">
        <ele>339.48266601562</ele>
        <time>2023-09-27T12:14:15Z</time>
      </trkpt>
      <trkpt lat="43.39054" lon="5.48537">
        <ele>339.00207519531</ele>
        <time>2023-09-27T12:14:33Z</time>
      </trkpt>
      <trkpt lat="43.3906" lon="5.48536">
        <ele>338.521484375</ele>
        <time>2023-09-27T12:14:41Z</time>
      </trkpt>
      <trkpt lat="43.39074" lon="5.4853">
        <ele>338.04077148438</ele>
        <time>2023-09-27T12:14:55Z</time>
      </trkpt>
      <trkpt lat="43.39087" lon="5.48526">
        <ele>338.521484375</ele>
        <time>2023-09-27T12:15:07Z</time>
      </trkpt>
      <trkpt lat="43.39094" lon="5.48519">
        <ele>339.96337890625</ele>
        <time>2023-09-27T12:15:22Z</time>
      </trkpt>
      <trkpt lat="43.39097" lon="5.48514">
        <ele>339.48266601562</ele>
        <time>2023-09-27T12:15:27Z</time>
      </trkpt>
      <trkpt lat="43.39101" lon="5.48502">
        <ele>339.48266601562</ele>
        <time>2023-09-27T12:15:33Z</time>
      </trkpt>
      <trkpt lat="43.39119" lon="5.48485">
        <ele>340.44409179688</ele>
        <time>2023-09-27T12:15:52Z</time>
      </trkpt>
      <trkpt lat="43.39129" lon="5.48479">
        <ele>340.44409179688</ele>
        <time>2023-09-27T12:16:02Z</time>
      </trkpt>
      <trkpt lat="43.39131" lon="5.48477">
        <ele>340.44409179688</ele>
        <time>2023-09-27T12:16:04Z</time>
      </trkpt>
      <trkpt lat="43.39138" lon="5.48473">
        <ele>341.4052734375</ele>
        <time>2023-09-27T12:16:13Z</time>
      </trkpt>
      <trkpt lat="43.39158" lon="5.48474">
        <ele>342.36669921875</ele>
        <time>2023-09-27T12:16:33Z</time>
      </trkpt>
      <trkpt lat="43.39164" lon="5.48483">
        <ele>342.36669921875</ele>
        <time>2023-09-27T12:16:41Z</time>
      </trkpt>
      <trkpt lat="43.39174" lon="5.48491">
        <ele>342.84729003906</ele>
        <time>2023-09-27T12:16:51Z</time>
      </trkpt>
      <trkpt lat="43.39188" lon="5.48501">
        <ele>343.80859375</ele>
        <time>2023-09-27T12:17:08Z</time>
      </trkpt>
      <trkpt lat="43.39201" lon="5.48513">
        <ele>343.80859375</ele>
        <time>2023-09-27T12:17:22Z</time>
      </trkpt>
      <trkpt lat="43.3921" lon="5.48511">
        <ele>343.80859375</ele>
        <time>2023-09-27T12:17:29Z</time>
      </trkpt>
      <trkpt lat="43.39224" lon="5.4851">
        <ele>345.25061035156</ele>
        <time>2023-09-27T12:17:42Z</time>
      </trkpt>
      <trkpt lat="43.39235" lon="5.48512">
        <ele>345.73132324219</ele>
        <time>2023-09-27T12:17:58Z</time>
      </trkpt>
      <trkpt lat="43.39236" lon="5.48512">
        <ele>345.73132324219</ele>
        <time>2023-09-27T12:17:59Z</time>
      </trkpt>
      <trkpt lat="43.39242" lon="5.48507">
        <ele>345.73132324219</ele>
        <time>2023-09-27T12:18:05Z</time>
      </trkpt>
      <trkpt lat="43.39253" lon="5.485">
        <ele>346.69262695312</ele>
        <time>2023-09-27T12:18:21Z</time>
      </trkpt>
      <trkpt lat="43.39256" lon="5.48497">
        <ele>346.69262695312</ele>
        <time>2023-09-27T12:18:25Z</time>
      </trkpt>
      <trkpt lat="43.39269" lon="5.4848">
        <ele>348.13464355469</ele>
        <time>2023-09-27T12:18:44Z</time>
      </trkpt>
      <trkpt lat="43.39272" lon="5.48477">
        <ele>348.615234375</ele>
        <time>2023-09-27T12:18:48Z</time>
      </trkpt>
      <trkpt lat="43.3928" lon="5.4846">
        <ele>349.57653808594</ele>
        <time>2023-09-27T12:19:04Z</time>
      </trkpt>
      <trkpt lat="43.39285" lon="5.48464">
        <ele>350.05725097656</ele>
        <time>2023-09-27T12:19:08Z</time>
      </trkpt>
      <trkpt lat="43.39299" lon="5.48463">
        <ele>350.53784179688</ele>
        <time>2023-09-27T12:19:23Z</time>
      </trkpt>
      <trkpt lat="43.39315" lon="5.48464">
        <ele>351.97985839844</ele>
        <time>2023-09-27T12:19:41Z</time>
      </trkpt>
      <trkpt lat="43.3933" lon="5.48467">
        <ele>352.46057128906</ele>
        <time>2023-09-27T12:19:56Z</time>
      </trkpt>
      <trkpt lat="43.39333" lon="5.48468">
        <ele>352.94116210938</ele>
        <time>2023-09-27T12:20:00Z</time>
      </trkpt>
      <trkpt lat="43.39351" lon="5.48479">
        <ele>353.90258789062</ele>
        <time>2023-09-27T12:20:20Z</time>
      </trkpt>
      <trkpt lat="43.39358" lon="5.48482">
        <ele>354.86376953125</ele>
        <time>2023-09-27T12:20:36Z</time>
      </trkpt>
      <trkpt lat="43.39372" lon="5.48484">
        <ele>355.8251953125</ele>
        <time>2023-09-27T12:21:09Z</time>
      </trkpt>
      <trkpt lat="43.39389" lon="5.48487">
        <ele>356.30578613281</ele>
        <time>2023-09-27T12:21:28Z</time>
      </trkpt>
      <trkpt lat="43.39396" lon="5.48487">
        <ele>356.78637695312</ele>
        <time>2023-09-27T12:21:47Z</time>
      </trkpt>
      <trkpt lat="43.3941" lon="5.48485">
        <ele>357.26708984375</ele>
        <time>2023-09-27T12:22:00Z</time>
      </trkpt>
      <trkpt lat="43.39412" lon="5.48485">
        <ele>357.26708984375</ele>
        <time>2023-09-27T12:22:02Z</time>
      </trkpt>
      <trkpt lat="43.39424" lon="5.48482">
        <ele>358.22839355469</ele>
        <time>2023-09-27T12:22:18Z</time>
      </trkpt>
      <trkpt lat="43.39427" lon="5.48481">
        <ele>359.18969726562</ele>
        <time>2023-09-27T12:22:21Z</time>
      </trkpt>
      <trkpt lat="43.39434" lon="5.48477">
        <ele>358.708984375</ele>
        <time>2023-09-27T12:22:36Z</time>
      </trkpt>
      <trkpt lat="43.39447" lon="5.48457">
        <ele>358.708984375</ele>
        <time>2023-09-27T12:22:52Z</time>
      </trkpt>
      <trkpt lat="43.39457" lon="5.48443">
        <ele>359.18969726562</ele>
        <time>2023-09-27T12:23:08Z</time>
      </trkpt>
      <trkpt lat="43.39462" lon="5.48441">
        <ele>360.15112304688</ele>
        <time>2023-09-27T12:23:26Z</time>
      </trkpt>
      <trkpt lat="43.39463" lon="5.48441">
        <ele>360.15112304688</ele>
        <time>2023-09-27T12:23:44Z</time>
      </trkpt>
      <trkpt lat="43.39477" lon="5.48434">
        <ele>362.07373046875</ele>
        <time>2023-09-27T12:24:03Z</time>
      </trkpt>
      <trkpt lat="43.39489" lon="5.48432">
        <ele>363.51574707031</ele>
        <time>2023-09-27T12:24:21Z</time>
      </trkpt>
      <trkpt lat="43.39497" lon="5.48426">
        <ele>363.99633789062</ele>
        <time>2023-09-27T12:24:28Z</time>
      </trkpt>
      <trkpt lat="43.39499" lon="5.48422">
        <ele>363.99633789062</ele>
        <time>2023-09-27T12:24:31Z</time>
      </trkpt>
      <trkpt lat="43.39513" lon="5.48417">
        <ele>364.95764160156</ele>
        <time>2023-09-27T12:24:45Z</time>
      </trkpt>
      <trkpt lat="43.39528" lon="5.48412">
        <ele>365.43835449219</ele>
        <time>2023-09-27T12:25:02Z</time>
      </trkpt>
      <trkpt lat="43.39534" lon="5.48414">
        <ele>365.9189453125</ele>
        <time>2023-09-27T12:25:08Z</time>
      </trkpt>
      <trkpt lat="43.39541" lon="5.48414">
        <ele>365.9189453125</ele>
        <time>2023-09-27T12:25:13Z</time>
      </trkpt>
      <trkpt lat="43.39547" lon="5.48411">
        <ele>366.39953613281</ele>
        <time>2023-09-27T12:25:18Z</time>
      </trkpt>
      <trkpt lat="43.39557" lon="5.48403">
        <ele>366.88024902344</ele>
        <time>2023-09-27T12:25:34Z</time>
      </trkpt>
      <trkpt lat="43.3957" lon="5.48391">
        <ele>368.80297851562</ele>
        <time>2023-09-27T12:25:51Z</time>
      </trkpt>
      <trkpt lat="43.39579" lon="5.48379">
        <ele>369.28369140625</ele>
        <time>2023-09-27T12:26:06Z</time>
      </trkpt>
      <trkpt lat="43.39584" lon="5.48371">
        <ele>370.7255859375</ele>
        <time>2023-09-27T12:26:17Z</time>
      </trkpt>
      <trkpt lat="43.396" lon="5.48368">
        <ele>370.7255859375</ele>
        <time>2023-09-27T12:26:33Z</time>
      </trkpt>
      <trkpt lat="43.39614" lon="5.48359">
        <ele>371.68688964844</ele>
        <time>2023-09-27T12:26:50Z</time>
      </trkpt>
      <trkpt lat="43.39629" lon="5.48363">
        <ele>372.16748046875</ele>
        <time>2023-09-27T12:27:07Z</time>
      </trkpt>
      <trkpt lat="43.39647" lon="5.48373">
        <ele>373.12890625</ele>
        <time>2023-09-27T12:27:26Z</time>
      </trkpt>
      <trkpt lat="43.39648" lon="5.48374">
        <ele>373.12890625</ele>
        <time>2023-09-27T12:27:27Z</time>
      </trkpt>
      <trkpt lat="43.3966" lon="5.48378">
        <ele>373.60949707031</ele>
        <time>2023-09-27T12:27:39Z</time>
      </trkpt>
      <trkpt lat="43.39675" lon="5.48373">
        <ele>374.09008789062</ele>
        <time>2023-09-27T12:27:55Z</time>
      </trkpt>
      <trkpt lat="43.39678" lon="5.48372">
        <ele>374.09008789062</ele>
        <time>2023-09-27T12:27:58Z</time>
      </trkpt>
      <trkpt lat="43.39695" lon="5.48364">
        <ele>376.01281738281</ele>
        <time>2023-09-27T12:28:16Z</time>
      </trkpt>
      <trkpt lat="43.397" lon="5.48357">
        <ele>376.49353027344</ele>
        <time>2023-09-27T12:28:24Z</time>
      </trkpt>
      <trkpt lat="43.39703" lon="5.48352">
        <ele>376.49353027344</ele>
        <time>2023-09-27T12:28:29Z</time>
      </trkpt>
      <trkpt lat="43.3971" lon="5.48348">
        <ele>377.45483398438</ele>
        <time>2023-09-27T12:28:46Z</time>
      </trkpt>
      <trkpt lat="43.39713" lon="5.48348">
        <ele>377.45483398438</ele>
        <time>2023-09-27T12:29:22Z</time>
      </trkpt>
      <trkpt lat="43.39728" lon="5.48341">
        <ele>378.41613769531</ele>
        <time>2023-09-27T12:29:37Z</time>
      </trkpt>
      <trkpt lat="43.39738" lon="5.48336">
        <ele>378.89685058594</ele>
        <time>2023-09-27T12:29:48Z</time>
      </trkpt>
      <trkpt lat="43.39753" lon="5.48332">
        <ele>379.85803222656</ele>
        <time>2023-09-27T12:30:05Z</time>
      </trkpt>
      <trkpt lat="43.39765" lon="5.48327">
        <ele>380.33874511719</ele>
        <time>2023-09-27T12:30:20Z</time>
      </trkpt>
      <trkpt lat="43.39767" lon="5.4832">
        <ele>380.81945800781</ele>
        <time>2023-09-27T12:30:24Z</time>
      </trkpt>
      <trkpt lat="43.39772" lon="5.4832">
        <ele>380.81945800781</ele>
        <time>2023-09-27T12:30:29Z</time>
      </trkpt>
      <trkpt lat="43.39785" lon="5.48328">
        <ele>381.30004882812</ele>
        <time>2023-09-27T12:30:43Z</time>
      </trkpt>
      <trkpt lat="43.39803" lon="5.48339">
        <ele>382.74206542969</ele>
        <time>2023-09-27T12:31:02Z</time>
      </trkpt>
      <trkpt lat="43.39814" lon="5.4835">
        <ele>383.70324707031</ele>
        <time>2023-09-27T12:31:15Z</time>
      </trkpt>
      <trkpt lat="43.39825" lon="5.48357">
        <ele>384.66479492188</ele>
        <time>2023-09-27T12:31:28Z</time>
      </trkpt>
      <trkpt lat="43.39836" lon="5.48363">
        <ele>385.14538574219</ele>
        <time>2023-09-27T12:31:40Z</time>
      </trkpt>
      <trkpt lat="43.39851" lon="5.48374">
        <ele>386.10668945312</ele>
        <time>2023-09-27T12:31:58Z</time>
      </trkpt>
      <trkpt lat="43.39856" lon="5.48379">
        <ele>386.10668945312</ele>
        <time>2023-09-27T12:32:04Z</time>
      </trkpt>
      <trkpt lat="43.39864" lon="5.48383">
        <ele>387.06799316406</ele>
        <time>2023-09-27T12:32:15Z</time>
      </trkpt>
      <trkpt lat="43.39868" lon="5.48384">
        <ele>387.54858398438</ele>
        <time>2023-09-27T12:32:20Z</time>
      </trkpt>
      <trkpt lat="43.39876" lon="5.484">
        <ele>388.51000976562</ele>
        <time>2023-09-27T12:32:36Z</time>
      </trkpt>
      <trkpt lat="43.39891" lon="5.4841">
        <ele>390.4326171875</ele>
        <time>2023-09-27T12:32:54Z</time>
      </trkpt>
      <trkpt lat="43.39895" lon="5.48409">
        <ele>390.4326171875</ele>
        <time>2023-09-27T12:32:57Z</time>
      </trkpt>
      <trkpt lat="43.39913" lon="5.48397">
        <ele>390.4326171875</ele>
        <time>2023-09-27T12:33:15Z</time>
      </trkpt>
      <trkpt lat="43.39921" lon="5.48392">
        <ele>390.4326171875</ele>
        <time>2023-09-27T12:33:31Z</time>
      </trkpt>
      <trkpt lat="43.39934" lon="5.48373">
        <ele>391.87451171875</ele>
        <time>2023-09-27T12:33:48Z</time>
      </trkpt>
      <trkpt lat="43.39935" lon="5.48371">
        <ele>391.87451171875</ele>
        <time>2023-09-27T12:33:50Z</time>
      </trkpt>
      <trkpt lat="43.39942" lon="5.4836">
        <ele>392.35534667969</ele>
        <time>2023-09-27T12:34:03Z</time>
      </trkpt>
      <trkpt lat="43.3995" lon="5.48341">
        <ele>394.27795410156</ele>
        <time>2023-09-27T12:34:19Z</time>
      </trkpt>
      <trkpt lat="43.39963" lon="5.48322">
        <ele>396.20056152344</ele>
        <time>2023-09-27T12:34:40Z</time>
      </trkpt>
      <trkpt lat="43.39968" lon="5.48309">
        <ele>397.64245605469</ele>
        <time>2023-09-27T12:34:53Z</time>
      </trkpt>
      <trkpt lat="43.39974" lon="5.48284">
        <ele>399.56506347656</ele>
        <time>2023-09-27T12:35:14Z</time>
      </trkpt>
      <trkpt lat="43.39985" lon="5.48267">
        <ele>400.52648925781</ele>
        <time>2023-09-27T12:35:35Z</time>
      </trkpt>
      <trkpt lat="43.39987" lon="5.48257">
        <ele>401.96850585938</ele>
        <time>2023-09-27T12:35:53Z</time>
      </trkpt>
      <trkpt lat="43.39995" lon="5.4825">
        <ele>401.96850585938</ele>
        <time>2023-09-27T12:36:13Z</time>
      </trkpt>
      <trkpt lat="43.40004" lon="5.48242">
        <ele>402.9296875</ele>
        <time>2023-09-27T12:36:26Z</time>
      </trkpt>
      <trkpt lat="43.40015" lon="5.48229">
        <ele>404.37170410156</ele>
        <time>2023-09-27T12:36:38Z</time>
      </trkpt>
      <trkpt lat="43.40022" lon="5.48221">
        <ele>404.37170410156</ele>
        <time>2023-09-27T12:36:47Z</time>
      </trkpt>
      <trkpt lat="43.40036" lon="5.48222">
        <ele>405.81372070312</ele>
        <time>2023-09-27T12:37:04Z</time>
      </trkpt>
      <trkpt lat="43.4004" lon="5.48223">
        <ele>406.29431152344</ele>
        <time>2023-09-27T12:37:08Z</time>
      </trkpt>
      <trkpt lat="43.40055" lon="5.48231">
        <ele>407.736328125</ele>
        <time>2023-09-27T12:37:25Z</time>
      </trkpt>
      <trkpt lat="43.40063" lon="5.48234">
        <ele>408.21704101562</ele>
        <time>2023-09-27T12:37:33Z</time>
      </trkpt>
      <trkpt lat="43.40074" lon="5.48244">
        <ele>409.17834472656</ele>
        <time>2023-09-27T12:37:45Z</time>
      </trkpt>
      <trkpt lat="43.40082" lon="5.48247">
        <ele>410.1396484375</ele>
        <time>2023-09-27T12:37:59Z</time>
      </trkpt>
      <trkpt lat="43.40084" lon="5.48247">
        <ele>410.1396484375</ele>
        <time>2023-09-27T12:38:11Z</time>
      </trkpt>
      <trkpt lat="43.40088" lon="5.48247">
        <ele>410.1396484375</ele>
        <time>2023-09-27T12:38:32Z</time>
      </trkpt>
      <trkpt lat="43.40088" lon="5.48252">
        <ele>409.17834472656</ele>
        <time>2023-09-27T12:39:11Z</time>
      </trkpt>
      <trkpt lat="43.40081" lon="5.48268">
        <ele>408.69763183594</ele>
        <time>2023-09-27T12:39:42Z</time>
      </trkpt>
      <trkpt lat="43.40084" lon="5.48272">
        <ele>409.65905761719</ele>
        <time>2023-09-27T12:39:47Z</time>
      </trkpt>
      <trkpt lat="43.40096" lon="5.48274">
        <ele>411.58166503906</ele>
        <time>2023-09-27T12:40:05Z</time>
      </trkpt>
      <trkpt lat="43.40102" lon="5.48285">
        <ele>413.50427246094</ele>
        <time>2023-09-27T12:40:23Z</time>
      </trkpt>
      <trkpt lat="43.40105" lon="5.48295">
        <ele>415.90747070312</ele>
        <time>2023-09-27T12:40:37Z</time>
      </trkpt>
      <trkpt lat="43.40105" lon="5.48303">
        <ele>418.79150390625</ele>
        <time>2023-09-27T12:40:50Z</time>
      </trkpt>
      <trkpt lat="43.40109" lon="5.48311">
        <ele>421.19482421875</ele>
        <time>2023-09-27T12:41:06Z</time>
      </trkpt>
      <trkpt lat="43.40118" lon="5.48314">
        <ele>424.07873535156</ele>
        <time>2023-09-27T12:41:24Z</time>
      </trkpt>
      <trkpt lat="43.40124" lon="5.48323">
        <ele>426.00134277344</ele>
        <time>2023-09-27T12:41:42Z</time>
      </trkpt>
      <trkpt lat="43.40126" lon="5.48325">
        <ele>427.92395019531</ele>
        <time>2023-09-27T12:41:45Z</time>
      </trkpt>
      <trkpt lat="43.40131" lon="5.48331">
        <ele>430.32727050781</ele>
        <time>2023-09-27T12:42:02Z</time>
      </trkpt>
      <trkpt lat="43.40132" lon="5.48333">
        <ele>431.28857421875</ele>
        <time>2023-09-27T12:42:30Z</time>
      </trkpt>
      <trkpt lat="43.4013" lon="5.48342">
        <ele>433.21130371094</ele>
        <time>2023-09-27T12:42:42Z</time>
      </trkpt>
      <trkpt lat="43.40135" lon="5.48347">
        <ele>436.09521484375</ele>
        <time>2023-09-27T12:42:58Z</time>
      </trkpt>
      <trkpt lat="43.40135" lon="5.48347">
        <ele>436.09521484375</ele>
        <time>2023-09-27T12:42:59Z</time>
      </trkpt>
      <trkpt lat="43.40139" lon="5.48351">
        <ele>438.97912597656</ele>
        <time>2023-09-27T12:43:14Z</time>
      </trkpt>
      <trkpt lat="43.40141" lon="5.48356">
        <ele>439.9404296875</ele>
        <time>2023-09-27T12:43:32Z</time>
      </trkpt>
      <trkpt lat="43.40143" lon="5.48357">
        <ele>440.90185546875</ele>
        <time>2023-09-27T12:44:10Z</time>
      </trkpt>
      <trkpt lat="43.40143" lon="5.48362">
        <ele>442.34387207031</ele>
        <time>2023-09-27T12:45:49Z</time>
      </trkpt>
      <trkpt lat="43.40152" lon="5.48357">
        <ele>444.26647949219</ele>
        <time>2023-09-27T12:49:45Z</time>
      </trkpt>
      <trkpt lat="43.40158" lon="5.4836">
        <ele>447.63098144531</ele>
        <time>2023-09-27T12:50:01Z</time>
      </trkpt>
      <trkpt lat="43.40166" lon="5.48367">
        <ele>450.99560546875</ele>
        <time>2023-09-27T12:50:20Z</time>
      </trkpt>
      <trkpt lat="43.40168" lon="5.48376">
        <ele>453.87963867188</ele>
        <time>2023-09-27T12:50:36Z</time>
      </trkpt>
      <trkpt lat="43.40177" lon="5.48375">
        <ele>456.76354980469</ele>
        <time>2023-09-27T12:50:54Z</time>
      </trkpt>
      <trkpt lat="43.40189" lon="5.48377">
        <ele>458.68615722656</ele>
        <time>2023-09-27T12:51:12Z</time>
      </trkpt>
      <trkpt lat="43.40196" lon="5.48377">
        <ele>462.05078125</ele>
        <time>2023-09-27T12:51:27Z</time>
      </trkpt>
      <trkpt lat="43.40201" lon="5.48367">
        <ele>465.41552734375</ele>
        <time>2023-09-27T12:51:43Z</time>
      </trkpt>
      <trkpt lat="43.40203" lon="5.48363">
        <ele>465.89611816406</ele>
        <time>2023-09-27T12:51:57Z</time>
      </trkpt>
      <trkpt lat="43.40208" lon="5.48354">
        <ele>468.29931640625</ele>
        <time>2023-09-27T12:52:12Z</time>
      </trkpt>
      <trkpt lat="43.40209" lon="5.48353">
        <ele>468.29931640625</ele>
        <time>2023-09-27T12:52:30Z</time>
      </trkpt>
      <trkpt lat="43.40209" lon="5.48351">
        <ele>467.81872558594</ele>
        <time>2023-09-27T12:52:41Z</time>
      </trkpt>
      <trkpt lat="43.40217" lon="5.48336">
        <ele>469.74133300781</ele>
        <time>2023-09-27T12:52:59Z</time>
      </trkpt>
      <trkpt lat="43.40218" lon="5.48341">
        <ele>473.10607910156</ele>
        <time>2023-09-27T12:53:09Z</time>
      </trkpt>
      <trkpt lat="43.40212" lon="5.48349">
        <ele>472.62536621094</ele>
        <time>2023-09-27T12:53:19Z</time>
      </trkpt>
      <trkpt lat="43.4021" lon="5.48358">
        <ele>471.18334960938</ele>
        <time>2023-09-27T12:53:34Z</time>
      </trkpt>
      <trkpt lat="43.40209" lon="5.48352">
        <ele>471.66394042969</ele>
        <time>2023-09-27T12:53:53Z</time>
      </trkpt>
      <trkpt lat="43.40211" lon="5.48353">
        <ele>471.66394042969</ele>
        <time>2023-09-27T12:54:09Z</time>
      </trkpt>
      <trkpt lat="43.4021" lon="5.48356">
        <ele>470.22192382812</ele>
        <time>2023-09-27T12:54:24Z</time>
      </trkpt>
      <trkpt lat="43.40211" lon="5.48347">
        <ele>471.66394042969</ele>
        <time>2023-09-27T12:55:43Z</time>
      </trkpt>
      <trkpt lat="43.40211" lon="5.48349">
        <ele>471.66394042969</ele>
        <time>2023-09-27T12:56:08Z</time>
      </trkpt>
      <trkpt lat="43.4021" lon="5.48354">
        <ele>471.18334960938</ele>
        <time>2023-09-27T12:56:24Z</time>
      </trkpt>
      <trkpt lat="43.40215" lon="5.48364">
        <ele>470.70263671875</ele>
        <time>2023-09-27T12:56:55Z</time>
      </trkpt>
      <trkpt lat="43.40214" lon="5.48371">
        <ele>470.22192382812</ele>
        <time>2023-09-27T12:57:19Z</time>
      </trkpt>
      <trkpt lat="43.40217" lon="5.48373">
        <ele>471.66394042969</ele>
        <time>2023-09-27T12:57:39Z</time>
      </trkpt>
      <trkpt lat="43.40207" lon="5.48426">
        <ele>470.70263671875</ele>
        <time>2023-09-27T12:58:13Z</time>
      </trkpt>
      <trkpt lat="43.40198" lon="5.48439">
        <ele>471.18334960938</ele>
        <time>2023-09-27T12:58:16Z</time>
      </trkpt>
      <trkpt lat="43.40188" lon="5.48379">
        <ele>470.22192382812</ele>
        <time>2023-09-27T12:58:35Z</time>
      </trkpt>
      <trkpt lat="43.40204" lon="5.48358">
        <ele>470.70263671875</ele>
        <time>2023-09-27T12:58:52Z</time>
      </trkpt>
      <trkpt lat="43.40212" lon="5.48366">
        <ele>469.74133300781</ele>
        <time>2023-09-27T13:00:41Z</time>
      </trkpt>
      <trkpt lat="43.40212" lon="5.48366">
        <ele>470.22192382812</ele>
        <time>2023-09-27T13:01:04Z</time>
      </trkpt>
      <trkpt lat="43.40218" lon="5.48351">
        <ele>471.66394042969</ele>
        <time>2023-09-27T13:01:48Z</time>
      </trkpt>
      <trkpt lat="43.40227" lon="5.48349">
        <ele>475.02868652344</ele>
        <time>2023-09-27T13:02:04Z</time>
      </trkpt>
      <trkpt lat="43.40236" lon="5.48354">
        <ele>476.95129394531</ele>
        <time>2023-09-27T13:02:22Z</time>
      </trkpt>
      <trkpt lat="43.40239" lon="5.48353">
        <ele>476.47058105469</ele>
        <time>2023-09-27T13:02:26Z</time>
      </trkpt>
      <trkpt lat="43.4024" lon="5.48361">
        <ele>476.95129394531</ele>
        <time>2023-09-27T13:02:35Z</time>
      </trkpt>
      <trkpt lat="43.40237" lon="5.48373">
        <ele>477.43188476562</ele>
        <time>2023-09-27T13:02:54Z</time>
      </trkpt>
      <trkpt lat="43.40234" lon="5.48374">
        <ele>476.95129394531</ele>
        <time>2023-09-27T13:03:38Z</time>
      </trkpt>
      <trkpt lat="43.40245" lon="5.48394">
        <ele>476.47058105469</ele>
        <time>2023-09-27T13:04:33Z</time>
      </trkpt>
      <trkpt lat="43.40246" lon="5.48395">
        <ele>476.47058105469</ele>
        <time>2023-09-27T13:04:34Z</time>
      </trkpt>
      <trkpt lat="43.40255" lon="5.48408">
        <ele>476.95129394531</ele>
        <time>2023-09-27T13:04:47Z</time>
      </trkpt>
      <trkpt lat="43.40251" lon="5.4841">
        <ele>477.91247558594</ele>
        <time>2023-09-27T13:04:52Z</time>
      </trkpt>
      <trkpt lat="43.40253" lon="5.48415">
        <ele>477.91247558594</ele>
        <time>2023-09-27T13:05:08Z</time>
      </trkpt>
      <trkpt lat="43.40265" lon="5.48429">
        <ele>479.83508300781</ele>
        <time>2023-09-27T13:05:27Z</time>
      </trkpt>
      <trkpt lat="43.40272" lon="5.4844">
        <ele>482.23852539062</ele>
        <time>2023-09-27T13:05:44Z</time>
      </trkpt>
      <trkpt lat="43.40272" lon="5.48447">
        <ele>484.1611328125</ele>
        <time>2023-09-27T13:06:02Z</time>
      </trkpt>
      <trkpt lat="43.40275" lon="5.48456">
        <ele>486.564453125</ele>
        <time>2023-09-27T13:06:16Z</time>
      </trkpt>
      <trkpt lat="43.40275" lon="5.4846">
        <ele>488.00646972656</ele>
        <time>2023-09-27T13:06:25Z</time>
      </trkpt>
      <trkpt lat="43.4027" lon="5.48458">
        <ele>488.00646972656</ele>
        <time>2023-09-27T13:06:34Z</time>
      </trkpt>
      <trkpt lat="43.40281" lon="5.48472">
        <ele>490.40979003906</ele>
        <time>2023-09-27T13:06:51Z</time>
      </trkpt>
      <trkpt lat="43.40287" lon="5.48478">
        <ele>492.33239746094</ele>
        <time>2023-09-27T13:07:05Z</time>
      </trkpt>
      <trkpt lat="43.40289" lon="5.48481">
        <ele>493.29357910156</ele>
        <time>2023-09-27T13:07:22Z</time>
      </trkpt>
      <trkpt lat="43.40292" lon="5.48488">
        <ele>494.73559570312</ele>
        <time>2023-09-27T13:07:36Z</time>
      </trkpt>
      <trkpt lat="43.40297" lon="5.48489">
        <ele>497.61962890625</ele>
        <time>2023-09-27T13:07:53Z</time>
      </trkpt>
      <trkpt lat="43.40298" lon="5.48497">
        <ele>500.02294921875</ele>
        <time>2023-09-27T13:08:12Z</time>
      </trkpt>
      <trkpt lat="43.40298" lon="5.48497">
        <ele>501.94555664062</ele>
        <time>2023-09-27T13:08:33Z</time>
      </trkpt>
      <trkpt lat="43.40301" lon="5.48501">
        <ele>503.38745117188</ele>
        <time>2023-09-27T13:08:58Z</time>
      </trkpt>
      <trkpt lat="43.40306" lon="5.48505">
        <ele>505.31018066406</ele>
        <time>2023-09-27T13:09:13Z</time>
      </trkpt>
      <trkpt lat="43.40308" lon="5.48507">
        <ele>507.23278808594</ele>
        <time>2023-09-27T13:09:25Z</time>
      </trkpt>
      <trkpt lat="43.40307" lon="5.48511">
        <ele>508.67468261719</ele>
        <time>2023-09-27T13:09:38Z</time>
      </trkpt>
      <trkpt lat="43.40311" lon="5.48511">
        <ele>510.59729003906</ele>
        <time>2023-09-27T13:09:46Z</time>
      </trkpt>
      <trkpt lat="43.40312" lon="5.48519">
        <ele>511.55871582031</ele>
        <time>2023-09-27T13:10:04Z</time>
      </trkpt>
      <trkpt lat="43.40313" lon="5.48522">
        <ele>511.55871582031</ele>
        <time>2023-09-27T13:10:23Z</time>
      </trkpt>
      <trkpt lat="43.40314" lon="5.48522">
        <ele>511.55871582031</ele>
        <time>2023-09-27T13:10:56Z</time>
      </trkpt>
      <trkpt lat="43.4032" lon="5.48519">
        <ele>513.00073242188</ele>
        <time>2023-09-27T13:14:59Z</time>
      </trkpt>
      <trkpt lat="43.40328" lon="5.48516">
        <ele>514.92333984375</ele>
        <time>2023-09-27T13:15:12Z</time>
      </trkpt>
      <trkpt lat="43.40338" lon="5.48515">
        <ele>516.365234375</ele>
        <time>2023-09-27T13:15:25Z</time>
      </trkpt>
      <trkpt lat="43.4034" lon="5.48516">
        <ele>516.365234375</ele>
        <time>2023-09-27T13:15:28Z</time>
      </trkpt>
      <trkpt lat="43.40346" lon="5.48524">
        <ele>515.88464355469</ele>
        <time>2023-09-27T13:15:35Z</time>
      </trkpt>
      <trkpt lat="43.40347" lon="5.48524">
        <ele>516.365234375</ele>
        <time>2023-09-27T13:15:37Z</time>
      </trkpt>
      <trkpt lat="43.40351" lon="5.48528">
        <ele>515.88464355469</ele>
        <time>2023-09-27T13:15:41Z</time>
      </trkpt>
      <trkpt lat="43.4036" lon="5.48534">
        <ele>513.4814453125</ele>
        <time>2023-09-27T13:15:55Z</time>
      </trkpt>
      <trkpt lat="43.40365" lon="5.48535">
        <ele>512.52001953125</ele>
        <time>2023-09-27T13:16:00Z</time>
      </trkpt>
      <trkpt lat="43.4037" lon="5.48533">
        <ele>511.55871582031</ele>
        <time>2023-09-27T13:16:08Z</time>
      </trkpt>
      <trkpt lat="43.40366" lon="5.48521">
        <ele>509.15539550781</ele>
        <time>2023-09-27T13:16:21Z</time>
      </trkpt>
      <trkpt lat="43.40364" lon="5.48503">
        <ele>506.271484375</ele>
        <time>2023-09-27T13:16:36Z</time>
      </trkpt>
      <trkpt lat="43.40362" lon="5.48493">
        <ele>505.31018066406</ele>
        <time>2023-09-27T13:16:46Z</time>
      </trkpt>
      <trkpt lat="43.40358" lon="5.48482">
        <ele>504.34887695312</ele>
        <time>2023-09-27T13:16:57Z</time>
      </trkpt>
      <trkpt lat="43.40351" lon="5.4846">
        <ele>502.42614746094</ele>
        <time>2023-09-27T13:17:14Z</time>
      </trkpt>
      <trkpt lat="43.40348" lon="5.48448">
        <ele>502.90673828125</ele>
        <time>2023-09-27T13:17:30Z</time>
      </trkpt>
      <trkpt lat="43.4035" lon="5.48438">
        <ele>504.34887695312</ele>
        <time>2023-09-27T13:18:12Z</time>
      </trkpt>
      <trkpt lat="43.40349" lon="5.48419">
        <ele>507.71350097656</ele>
        <time>2023-09-27T13:18:32Z</time>
      </trkpt>
      <trkpt lat="43.40351" lon="5.48413">
        <ele>507.71350097656</ele>
        <time>2023-09-27T13:18:56Z</time>
      </trkpt>
      <trkpt lat="43.40357" lon="5.48392">
        <ele>510.11669921875</ele>
        <time>2023-09-27T13:19:15Z</time>
      </trkpt>
      <trkpt lat="43.40358" lon="5.48376">
        <ele>512.03942871094</ele>
        <time>2023-09-27T13:19:33Z</time>
      </trkpt>
      <trkpt lat="43.40362" lon="5.48361">
        <ele>513.4814453125</ele>
        <time>2023-09-27T13:19:47Z</time>
      </trkpt>
      <trkpt lat="43.40363" lon="5.48361">
        <ele>513.4814453125</ele>
        <time>2023-09-27T13:19:48Z</time>
      </trkpt>
      <trkpt lat="43.40367" lon="5.48353">
        <ele>514.92333984375</ele>
        <time>2023-09-27T13:19:57Z</time>
      </trkpt>
      <trkpt lat="43.40373" lon="5.4835">
        <ele>515.88464355469</ele>
        <time>2023-09-27T13:20:12Z</time>
      </trkpt>
      <trkpt lat="43.40378" lon="5.48349">
        <ele>516.365234375</ele>
        <time>2023-09-27T13:20:32Z</time>
      </trkpt>
      <trkpt lat="43.40376" lon="5.48349">
        <ele>516.365234375</ele>
        <time>2023-09-27T13:20:49Z</time>
      </trkpt>
      <trkpt lat="43.40377" lon="5.48349">
        <ele>516.365234375</ele>
        <time>2023-09-27T13:21:06Z</time>
      </trkpt>
      <trkpt lat="43.40377" lon="5.48351">
        <ele>516.365234375</ele>
        <time>2023-09-27T13:21:36Z</time>
      </trkpt>
      <trkpt lat="43.4038" lon="5.48349">
        <ele>517.32666015625</ele>
        <time>2023-09-27T13:22:08Z</time>
      </trkpt>
      <trkpt lat="43.40394" lon="5.48354">
        <ele>518.28784179688</ele>
        <time>2023-09-27T13:22:28Z</time>
      </trkpt>
      <trkpt lat="43.40404" lon="5.48355">
        <ele>517.32666015625</ele>
        <time>2023-09-27T13:22:42Z</time>
      </trkpt>
      <trkpt lat="43.40421" lon="5.4835">
        <ele>517.32666015625</ele>
        <time>2023-09-27T13:23:00Z</time>
      </trkpt>
      <trkpt lat="43.40432" lon="5.48337">
        <ele>520.21057128906</ele>
        <time>2023-09-27T13:23:18Z</time>
      </trkpt>
      <trkpt lat="43.40439" lon="5.48328">
        <ele>521.65258789062</ele>
        <time>2023-09-27T13:23:32Z</time>
      </trkpt>
      <trkpt lat="43.40447" lon="5.4832">
        <ele>524.05578613281</ele>
        <time>2023-09-27T13:23:48Z</time>
      </trkpt>
      <trkpt lat="43.40455" lon="5.4831">
        <ele>525.97839355469</ele>
        <time>2023-09-27T13:24:06Z</time>
      </trkpt>
      <trkpt lat="43.40465" lon="5.48304">
        <ele>528.3818359375</ele>
        <time>2023-09-27T13:24:21Z</time>
      </trkpt>
      <trkpt lat="43.40474" lon="5.48296">
        <ele>530.78515625</ele>
        <time>2023-09-27T13:24:37Z</time>
      </trkpt>
      <trkpt lat="43.4048" lon="5.48285">
        <ele>533.18835449219</ele>
        <time>2023-09-27T13:24:55Z</time>
      </trkpt>
      <trkpt lat="43.40488" lon="5.48282">
        <ele>535.59155273438</ele>
        <time>2023-09-27T13:25:12Z</time>
      </trkpt>
      <trkpt lat="43.4049" lon="5.48284">
        <ele>536.07238769531</ele>
        <time>2023-09-27T13:25:41Z</time>
      </trkpt>
      <trkpt lat="43.40502" lon="5.483">
        <ele>538.95629882812</ele>
        <time>2023-09-27T13:25:59Z</time>
      </trkpt>
      <trkpt lat="43.40504" lon="5.48304">
        <ele>539.43688964844</ele>
        <time>2023-09-27T13:26:12Z</time>
      </trkpt>
      <trkpt lat="43.40508" lon="5.48308">
        <ele>539.43688964844</ele>
        <time>2023-09-27T13:26:33Z</time>
      </trkpt>
      <trkpt lat="43.40518" lon="5.48323">
        <ele>538.95629882812</ele>
        <time>2023-09-27T13:26:47Z</time>
      </trkpt>
      <trkpt lat="43.40523" lon="5.4833">
        <ele>539.43688964844</ele>
        <time>2023-09-27T13:26:53Z</time>
      </trkpt>
      <trkpt lat="43.40525" lon="5.48334">
        <ele>539.43688964844</ele>
        <time>2023-09-27T13:26:56Z</time>
      </trkpt>
      <trkpt lat="43.40528" lon="5.48339">
        <ele>538.95629882812</ele>
        <time>2023-09-27T13:27:01Z</time>
      </trkpt>
      <trkpt lat="43.40543" lon="5.48367">
        <ele>539.43688964844</ele>
        <time>2023-09-27T13:27:24Z</time>
      </trkpt>
      <trkpt lat="43.40558" lon="5.48389">
        <ele>537.99499511719</ele>
        <time>2023-09-27T13:27:45Z</time>
      </trkpt>
      <trkpt lat="43.40563" lon="5.484">
        <ele>537.51428222656</ele>
        <time>2023-09-27T13:27:53Z</time>
      </trkpt>
      <trkpt lat="43.40568" lon="5.48432">
        <ele>539.43688964844</ele>
        <time>2023-09-27T13:28:14Z</time>
      </trkpt>
      <trkpt lat="43.40576" lon="5.48464">
        <ele>541.84020996094</ele>
        <time>2023-09-27T13:28:40Z</time>
      </trkpt>
      <trkpt lat="43.40583" lon="5.48481">
        <ele>543.28210449219</ele>
        <time>2023-09-27T13:28:53Z</time>
      </trkpt>
      <trkpt lat="43.40585" lon="5.48486">
        <ele>543.28210449219</ele>
        <time>2023-09-27T13:28:57Z</time>
      </trkpt>
      <trkpt lat="43.40594" lon="5.48501">
        <ele>544.24365234375</ele>
        <time>2023-09-27T13:29:10Z</time>
      </trkpt>
      <trkpt lat="43.40596" lon="5.48505">
        <ele>545.20483398438</ele>
        <time>2023-09-27T13:29:13Z</time>
      </trkpt>
      <trkpt lat="43.40599" lon="5.48521">
        <ele>546.16625976562</ele>
        <time>2023-09-27T13:29:25Z</time>
      </trkpt>
      <trkpt lat="43.40602" lon="5.48524">
        <ele>546.64685058594</ele>
        <time>2023-09-27T13:29:28Z</time>
      </trkpt>
      <trkpt lat="43.4061" lon="5.48542">
        <ele>548.0888671875</ele>
        <time>2023-09-27T13:29:44Z</time>
      </trkpt>
      <trkpt lat="43.40614" lon="5.48559">
        <ele>550.4921875</ele>
        <time>2023-09-27T13:30:00Z</time>
      </trkpt>
      <trkpt lat="43.40624" lon="5.48563">
        <ele>552.41455078125</ele>
        <time>2023-09-27T13:30:21Z</time>
      </trkpt>
      <trkpt lat="43.40626" lon="5.48564">
        <ele>553.3759765625</ele>
        <time>2023-09-27T13:30:49Z</time>
      </trkpt>
      <trkpt lat="43.40637" lon="5.48568">
        <ele>554.81787109375</ele>
        <time>2023-09-27T13:31:17Z</time>
      </trkpt>
      <trkpt lat="43.40649" lon="5.48575">
        <ele>556.26000976562</ele>
        <time>2023-09-27T13:31:33Z</time>
      </trkpt>
      <trkpt lat="43.40653" lon="5.48579">
        <ele>556.74072265625</ele>
        <time>2023-09-27T13:31:54Z</time>
      </trkpt>
      <trkpt lat="43.40654" lon="5.48579">
        <ele>557.22143554688</ele>
        <time>2023-09-27T13:32:20Z</time>
      </trkpt>
      <trkpt lat="43.40654" lon="5.48579">
        <ele>557.22143554688</ele>
        <time>2023-09-27T13:33:09Z</time>
      </trkpt>
      <trkpt lat="43.4066" lon="5.48585">
        <ele>558.18286132812</ele>
        <time>2023-09-27T13:34:39Z</time>
      </trkpt>
      <trkpt lat="43.40666" lon="5.48604">
        <ele>559.62475585938</ele>
        <time>2023-09-27T13:34:58Z</time>
      </trkpt>
      <trkpt lat="43.40668" lon="5.48611">
        <ele>560.5859375</ele>
        <time>2023-09-27T13:35:09Z</time>
      </trkpt>
      <trkpt lat="43.40669" lon="5.48621">
        <ele>562.02807617188</ele>
        <time>2023-09-27T13:35:20Z</time>
      </trkpt>
      <trkpt lat="43.4067" lon="5.48635">
        <ele>564.43115234375</ele>
        <time>2023-09-27T13:35:37Z</time>
      </trkpt>
      <trkpt lat="43.4067" lon="5.4864">
        <ele>565.87329101562</ele>
        <time>2023-09-27T13:35:53Z</time>
      </trkpt>
      <trkpt lat="43.4067" lon="5.48649">
        <ele>567.31518554688</ele>
        <time>2023-09-27T13:36:16Z</time>
      </trkpt>
      <trkpt lat="43.40669" lon="5.48653">
        <ele>567.31518554688</ele>
        <time>2023-09-27T13:36:22Z</time>
      </trkpt>
      <trkpt lat="43.40667" lon="5.4866">
        <ele>567.79565429688</ele>
        <time>2023-09-27T13:36:27Z</time>
      </trkpt>
      <trkpt lat="43.40667" lon="5.48673">
        <ele>567.31518554688</ele>
        <time>2023-09-27T13:36:40Z</time>
      </trkpt>
      <trkpt lat="43.40672" lon="5.48693">
        <ele>567.31518554688</ele>
        <time>2023-09-27T13:36:55Z</time>
      </trkpt>
      <trkpt lat="43.40681" lon="5.4871">
        <ele>566.83447265625</ele>
        <time>2023-09-27T13:37:09Z</time>
      </trkpt>
      <trkpt lat="43.40695" lon="5.487">
        <ele>567.31518554688</ele>
        <time>2023-09-27T13:37:24Z</time>
      </trkpt>
      <trkpt lat="43.40714" lon="5.48662">
        <ele>568.2763671875</ele>
        <time>2023-09-27T13:37:50Z</time>
      </trkpt>
      <trkpt lat="43.4073" lon="5.48627">
        <ele>568.75708007812</ele>
        <time>2023-09-27T13:38:13Z</time>
      </trkpt>
      <trkpt lat="43.40731" lon="5.48624">
        <ele>568.75708007812</ele>
        <time>2023-09-27T13:38:15Z</time>
      </trkpt>
      <trkpt lat="43.40734" lon="5.4862">
        <ele>569.23779296875</ele>
        <time>2023-09-27T13:38:18Z</time>
      </trkpt>
      <trkpt lat="43.40748" lon="5.48577">
        <ele>569.71850585938</ele>
        <time>2023-09-27T13:38:45Z</time>
      </trkpt>
      <trkpt lat="43.40753" lon="5.48538">
        <ele>571.16040039062</ele>
        <time>2023-09-27T13:39:09Z</time>
      </trkpt>
      <trkpt lat="43.40769" lon="5.48489">
        <ele>572.6025390625</ele>
        <time>2023-09-27T13:39:38Z</time>
      </trkpt>
      <trkpt lat="43.40789" lon="5.48447">
        <ele>575.96704101562</ele>
        <time>2023-09-27T13:40:07Z</time>
      </trkpt>
      <trkpt lat="43.40806" lon="5.48414">
        <ele>577.4091796875</ele>
        <time>2023-09-27T13:40:32Z</time>
      </trkpt>
      <trkpt lat="43.4082" lon="5.48386">
        <ele>578.85107421875</ele>
        <time>2023-09-27T13:40:52Z</time>
      </trkpt>
      <trkpt lat="43.4083" lon="5.48354">
        <ele>582.6962890625</ele>
        <time>2023-09-27T13:41:14Z</time>
      </trkpt>
      <trkpt lat="43.40833" lon="5.48352">
        <ele>581.73486328125</ele>
        <time>2023-09-27T13:41:32Z</time>
      </trkpt>
      <trkpt lat="43.40832" lon="5.48355">
        <ele>581.73486328125</ele>
        <time>2023-09-27T13:41:58Z</time>
      </trkpt>
      <trkpt lat="43.40832" lon="5.48356">
        <ele>582.6962890625</ele>
        <time>2023-09-27T13:42:26Z</time>
      </trkpt>
      <trkpt lat="43.40831" lon="5.48357">
        <ele>582.21557617188</ele>
        <time>2023-09-27T13:42:43Z</time>
      </trkpt>
      <trkpt lat="43.40835" lon="5.48353">
        <ele>583.1767578125</ele>
        <time>2023-09-27T13:42:56Z</time>
      </trkpt>
      <trkpt lat="43.40839" lon="5.48351">
        <ele>582.6962890625</ele>
        <time>2023-09-27T13:43:02Z</time>
      </trkpt>
      <trkpt lat="43.40844" lon="5.4836">
        <ele>582.21557617188</ele>
        <time>2023-09-27T13:43:10Z</time>
      </trkpt>
      <trkpt lat="43.40845" lon="5.48371">
        <ele>580.29296875</ele>
        <time>2023-09-27T13:43:28Z</time>
      </trkpt>
      <trkpt lat="43.40849" lon="5.48386">
        <ele>578.37036132812</ele>
        <time>2023-09-27T13:43:44Z</time>
      </trkpt>
      <trkpt lat="43.40851" lon="5.48408">
        <ele>575.96704101562</ele>
        <time>2023-09-27T13:44:02Z</time>
      </trkpt>
      <trkpt lat="43.40857" lon="5.48436">
        <ele>573.08325195312</ele>
        <time>2023-09-27T13:44:24Z</time>
      </trkpt>
      <trkpt lat="43.40866" lon="5.48467">
        <ele>569.71850585938</ele>
        <time>2023-09-27T13:44:49Z</time>
      </trkpt>
      <trkpt lat="43.40873" lon="5.48487">
        <ele>567.79565429688</ele>
        <time>2023-09-27T13:45:08Z</time>
      </trkpt>
      <trkpt lat="43.40882" lon="5.48517">
        <ele>565.87329101562</ele>
        <time>2023-09-27T13:45:31Z</time>
      </trkpt>
      <trkpt lat="43.40902" lon="5.48544">
        <ele>563.46997070312</ele>
        <time>2023-09-27T13:45:54Z</time>
      </trkpt>
      <trkpt lat="43.40908" lon="5.48566">
        <ele>563.95043945312</ele>
        <time>2023-09-27T13:46:09Z</time>
      </trkpt>
      <trkpt lat="43.40908" lon="5.4857">
        <ele>563.46997070312</ele>
        <time>2023-09-27T13:46:12Z</time>
      </trkpt>
      <trkpt lat="43.40914" lon="5.4861">
        <ele>561.54736328125</ele>
        <time>2023-09-27T13:46:37Z</time>
      </trkpt>
      <trkpt lat="43.40926" lon="5.48636">
        <ele>559.62475585938</ele>
        <time>2023-09-27T13:46:56Z</time>
      </trkpt>
      <trkpt lat="43.40933" lon="5.48672">
        <ele>556.74072265625</ele>
        <time>2023-09-27T13:47:19Z</time>
      </trkpt>
      <trkpt lat="43.40934" lon="5.48676">
        <ele>556.26000976562</ele>
        <time>2023-09-27T13:47:22Z</time>
      </trkpt>
      <trkpt lat="43.40937" lon="5.48707">
        <ele>553.3759765625</ele>
        <time>2023-09-27T13:47:41Z</time>
      </trkpt>
      <trkpt lat="43.40938" lon="5.4871">
        <ele>553.85668945312</ele>
        <time>2023-09-27T13:47:43Z</time>
      </trkpt>
      <trkpt lat="43.40953" lon="5.48737">
        <ele>550.97265625</ele>
        <time>2023-09-27T13:48:04Z</time>
      </trkpt>
      <trkpt lat="43.4096" lon="5.48779">
        <ele>548.0888671875</ele>
        <time>2023-09-27T13:48:30Z</time>
      </trkpt>
      <trkpt lat="43.40967" lon="5.48822">
        <ele>545.20483398438</ele>
        <time>2023-09-27T13:48:57Z</time>
      </trkpt>
      <trkpt lat="43.4098" lon="5.4885">
        <ele>542.32092285156</ele>
        <time>2023-09-27T13:49:17Z</time>
      </trkpt>
      <trkpt lat="43.4099" lon="5.48878">
        <ele>540.39831542969</ele>
        <time>2023-09-27T13:49:36Z</time>
      </trkpt>
      <trkpt lat="43.40994" lon="5.489">
        <ele>539.43688964844</ele>
        <time>2023-09-27T13:49:51Z</time>
      </trkpt>
      <trkpt lat="43.40996" lon="5.48927">
        <ele>537.99499511719</ele>
        <time>2023-09-27T13:50:10Z</time>
      </trkpt>
      <trkpt lat="43.40998" lon="5.48937">
        <ele>537.51428222656</ele>
        <time>2023-09-27T13:50:26Z</time>
      </trkpt>
      <trkpt lat="43.40999" lon="5.48939">
        <ele>537.51428222656</ele>
        <time>2023-09-27T13:50:30Z</time>
      </trkpt>
      <trkpt lat="43.41014" lon="5.48961">
        <ele>534.63037109375</ele>
        <time>2023-09-27T13:50:51Z</time>
      </trkpt>
      <trkpt lat="43.41019" lon="5.48975">
        <ele>534.14965820312</ele>
        <time>2023-09-27T13:51:00Z</time>
      </trkpt>
      <trkpt lat="43.4103" lon="5.49011">
        <ele>531.74633789062</ele>
        <time>2023-09-27T13:51:24Z</time>
      </trkpt>
      <trkpt lat="43.4104" lon="5.49029">
        <ele>530.30444335938</ele>
        <time>2023-09-27T13:51:36Z</time>
      </trkpt>
      <trkpt lat="43.41043" lon="5.49032">
        <ele>530.30444335938</ele>
        <time>2023-09-27T13:51:39Z</time>
      </trkpt>
      <trkpt lat="43.4105" lon="5.49043">
        <ele>529.34313964844</ele>
        <time>2023-09-27T13:51:48Z</time>
      </trkpt>
      <trkpt lat="43.41056" lon="5.4906">
        <ele>528.3818359375</ele>
        <time>2023-09-27T13:52:03Z</time>
      </trkpt>
      <trkpt lat="43.4106" lon="5.49064">
        <ele>528.3818359375</ele>
        <time>2023-09-27T13:52:07Z</time>
      </trkpt>
      <trkpt lat="43.41066" lon="5.49075">
        <ele>526.93981933594</ele>
        <time>2023-09-27T13:52:16Z</time>
      </trkpt>
      <trkpt lat="43.4107" lon="5.49083">
        <ele>526.93981933594</ele>
        <time>2023-09-27T13:52:26Z</time>
      </trkpt>
      <trkpt lat="43.41069" lon="5.49091">
        <ele>526.45910644531</ele>
        <time>2023-09-27T13:52:41Z</time>
      </trkpt>
      <trkpt lat="43.41073" lon="5.49089">
        <ele>526.93981933594</ele>
        <time>2023-09-27T13:52:57Z</time>
      </trkpt>
    </trkseg>
  </trk>
</gpx>